<?xml version="1.0" encoding="UTF-8" standalone="no" ?>
<gpx xmlns="http://www.topografix.com/GPX/1/1" xmlns:xsi="http://www.w3.org/2001/XMLSchema-instance" xsi:schemaLocation="http://www.topografix.com/GPX/1/1 http://www.topografix.com/GPX/1/1/gpx.xsd" version="1.1" creator="VisuGPX - https://www.visugpx.com">
  <metadata>
    <name>Sortie fissure VTT</name>
    <desc><![CDATA[Sortie fissure VTT]]></desc>
  </metadata>
  <trk>
    <name><![CDATA[ACTIVE LOG-MNT]]></name>
    <trkseg>
      <trkpt lat="43.54167" lon="6.69997">
        <ele>288.354248</ele>
        <time>2010-07-03T09:05:23Z</time>
      </trkpt>
      <trkpt lat="43.54167" lon="6.69997">
        <ele>288.354248</ele>
        <time>2010-07-03T09:05:25Z</time>
      </trkpt>
      <trkpt lat="43.54167" lon="6.69997">
        <ele>288.354248</ele>
        <time>2010-07-03T09:05:47Z</time>
      </trkpt>
      <trkpt lat="43.54165" lon="6.69992">
        <ele>287.825317</ele>
        <time>2010-07-03T09:05:52Z</time>
      </trkpt>
      <trkpt lat="43.54165" lon="6.70003">
        <ele>287.237854</ele>
        <time>2010-07-03T09:05:57Z</time>
      </trkpt>
      <trkpt lat="43.54165" lon="6.70005">
        <ele>287.120758</ele>
        <time>2010-07-03T09:05:58Z</time>
      </trkpt>
      <trkpt lat="43.54165" lon="6.70014">
        <ele>286.467499</ele>
        <time>2010-07-03T09:06:01Z</time>
      </trkpt>
      <trkpt lat="43.54169" lon="6.70016">
        <ele>287.935516</ele>
        <time>2010-07-03T09:06:04Z</time>
      </trkpt>
      <trkpt lat="43.54172" lon="6.70018">
        <ele>288.620361</ele>
        <time>2010-07-03T09:06:06Z</time>
      </trkpt>
      <trkpt lat="43.54187" lon="6.70024">
        <ele>292.043671</ele>
        <time>2010-07-03T09:06:17Z</time>
      </trkpt>
      <trkpt lat="43.54195" lon="6.70029">
        <ele>293.433289</ele>
        <time>2010-07-03T09:06:23Z</time>
      </trkpt>
      <trkpt lat="43.54202" lon="6.70031">
        <ele>294.54187</ele>
        <time>2010-07-03T09:06:28Z</time>
      </trkpt>
      <trkpt lat="43.5421" lon="6.70031">
        <ele>296.160217</ele>
        <time>2010-07-03T09:06:35Z</time>
      </trkpt>
      <trkpt lat="43.54217" lon="6.70033">
        <ele>297.280151</ele>
        <time>2010-07-03T09:06:41Z</time>
      </trkpt>
      <trkpt lat="43.54225" lon="6.70035">
        <ele>298.6091</ele>
        <time>2010-07-03T09:06:47Z</time>
      </trkpt>
      <trkpt lat="43.54229" lon="6.70035">
        <ele>299.229126</ele>
        <time>2010-07-03T09:06:52Z</time>
      </trkpt>
      <trkpt lat="43.54238" lon="6.70037">
        <ele>300.387787</ele>
        <time>2010-07-03T09:06:58Z</time>
      </trkpt>
      <trkpt lat="43.54253" lon="6.70044">
        <ele>302.354828</ele>
        <time>2010-07-03T09:07:10Z</time>
      </trkpt>
      <trkpt lat="43.54262" lon="6.70048">
        <ele>303.487946</ele>
        <time>2010-07-03T09:07:16Z</time>
      </trkpt>
      <trkpt lat="43.54266" lon="6.70048">
        <ele>304.119141</ele>
        <time>2010-07-03T09:07:19Z</time>
      </trkpt>
      <trkpt lat="43.54268" lon="6.70048">
        <ele>304.434357</ele>
        <time>2010-07-03T09:07:22Z</time>
      </trkpt>
      <trkpt lat="43.5427" lon="6.70048">
        <ele>304.749329</ele>
        <time>2010-07-03T09:07:23Z</time>
      </trkpt>
      <trkpt lat="43.54287" lon="6.70059">
        <ele>307.063385</ele>
        <time>2010-07-03T09:07:38Z</time>
      </trkpt>
      <trkpt lat="43.5429" lon="6.70061">
        <ele>307.347046</ele>
        <time>2010-07-03T09:07:40Z</time>
      </trkpt>
      <trkpt lat="43.54298" lon="6.70061">
        <ele>308.634857</ele>
        <time>2010-07-03T09:07:47Z</time>
      </trkpt>
      <trkpt lat="43.54311" lon="6.70069">
        <ele>310.276581</ele>
        <time>2010-07-03T09:07:59Z</time>
      </trkpt>
      <trkpt lat="43.54317" lon="6.70076">
        <ele>310.46582</ele>
        <time>2010-07-03T09:08:05Z</time>
      </trkpt>
      <trkpt lat="43.54326" lon="6.7008">
        <ele>310.797607</ele>
        <time>2010-07-03T09:08:11Z</time>
      </trkpt>
      <trkpt lat="43.54337" lon="6.70082">
        <ele>311.25824</ele>
        <time>2010-07-03T09:08:18Z</time>
      </trkpt>
      <trkpt lat="43.54345" lon="6.70084">
        <ele>311.633636</ele>
        <time>2010-07-03T09:08:23Z</time>
      </trkpt>
      <trkpt lat="43.54367" lon="6.70102">
        <ele>311.382751</ele>
        <time>2010-07-03T09:08:34Z</time>
      </trkpt>
      <trkpt lat="43.54365" lon="6.70112">
        <ele>311.458832</ele>
        <time>2010-07-03T09:08:37Z</time>
      </trkpt>
      <trkpt lat="43.54358" lon="6.70125">
        <ele>311.721771</ele>
        <time>2010-07-03T09:08:41Z</time>
      </trkpt>
      <trkpt lat="43.54354" lon="6.70136">
        <ele>311.893188</ele>
        <time>2010-07-03T09:08:44Z</time>
      </trkpt>
      <trkpt lat="43.54345" lon="6.70164">
        <ele>312.085876</ele>
        <time>2010-07-03T09:08:52Z</time>
      </trkpt>
      <trkpt lat="43.5436" lon="6.70153">
        <ele>311.663361</ele>
        <time>2010-07-03T09:08:59Z</time>
      </trkpt>
      <trkpt lat="43.54362" lon="6.70149">
        <ele>311.503723</ele>
        <time>2010-07-03T09:09:00Z</time>
      </trkpt>
      <trkpt lat="43.54369" lon="6.70142">
        <ele>311.214142</ele>
        <time>2010-07-03T09:09:02Z</time>
      </trkpt>
      <trkpt lat="43.54395" lon="6.70102">
        <ele>310.143158</ele>
        <time>2010-07-03T09:09:11Z</time>
      </trkpt>
      <trkpt lat="43.5441" lon="6.70065">
        <ele>309.450439</ele>
        <time>2010-07-03T09:09:17Z</time>
      </trkpt>
      <trkpt lat="43.54423" lon="6.69924">
        <ele>308.746338</ele>
        <time>2010-07-03T09:09:35Z</time>
      </trkpt>
      <trkpt lat="43.54423" lon="6.69874">
        <ele>307.799072</ele>
        <time>2010-07-03T09:09:41Z</time>
      </trkpt>
      <trkpt lat="43.54388" lon="6.69758">
        <ele>303.491272</ele>
        <time>2010-07-03T09:09:56Z</time>
      </trkpt>
      <trkpt lat="43.54386" lon="6.6975">
        <ele>303.027679</ele>
        <time>2010-07-03T09:09:57Z</time>
      </trkpt>
      <trkpt lat="43.54384" lon="6.69741">
        <ele>302.564056</ele>
        <time>2010-07-03T09:09:58Z</time>
      </trkpt>
      <trkpt lat="43.54373" lon="6.69724">
        <ele>301.517639</ele>
        <time>2010-07-03T09:10:00Z</time>
      </trkpt>
      <trkpt lat="43.54358" lon="6.69696">
        <ele>299.666809</ele>
        <time>2010-07-03T09:10:03Z</time>
      </trkpt>
      <trkpt lat="43.54347" lon="6.69662">
        <ele>297.775909</ele>
        <time>2010-07-03T09:10:06Z</time>
      </trkpt>
      <trkpt lat="43.54337" lon="6.69627">
        <ele>296.429596</ele>
        <time>2010-07-03T09:10:09Z</time>
      </trkpt>
      <trkpt lat="43.54335" lon="6.69597">
        <ele>295.801971</ele>
        <time>2010-07-03T09:10:16Z</time>
      </trkpt>
      <trkpt lat="43.54339" lon="6.69593">
        <ele>296.194519</ele>
        <time>2010-07-03T09:10:18Z</time>
      </trkpt>
      <trkpt lat="43.54341" lon="6.69591">
        <ele>296.401062</ele>
        <time>2010-07-03T09:10:19Z</time>
      </trkpt>
      <trkpt lat="43.54345" lon="6.69585">
        <ele>296.784424</ele>
        <time>2010-07-03T09:10:22Z</time>
      </trkpt>
      <trkpt lat="43.54356" lon="6.69546">
        <ele>297.547089</ele>
        <time>2010-07-03T09:10:34Z</time>
      </trkpt>
      <trkpt lat="43.54362" lon="6.69529">
        <ele>298.206177</ele>
        <time>2010-07-03T09:10:40Z</time>
      </trkpt>
      <trkpt lat="43.54367" lon="6.69512">
        <ele>299.092407</ele>
        <time>2010-07-03T09:10:46Z</time>
      </trkpt>
      <trkpt lat="43.54345" lon="6.69482">
        <ele>297.487244</ele>
        <time>2010-07-03T09:10:56Z</time>
      </trkpt>
      <trkpt lat="43.54322" lon="6.69443">
        <ele>297.341003</ele>
        <time>2010-07-03T09:11:09Z</time>
      </trkpt>
      <trkpt lat="43.54322" lon="6.69434">
        <ele>297.908203</ele>
        <time>2010-07-03T09:11:12Z</time>
      </trkpt>
      <trkpt lat="43.54322" lon="6.69421">
        <ele>298.763031</ele>
        <time>2010-07-03T09:11:16Z</time>
      </trkpt>
      <trkpt lat="43.54328" lon="6.69421">
        <ele>299.269257</ele>
        <time>2010-07-03T09:11:19Z</time>
      </trkpt>
      <trkpt lat="43.54335" lon="6.69424">
        <ele>299.64032</ele>
        <time>2010-07-03T09:11:22Z</time>
      </trkpt>
      <trkpt lat="43.54337" lon="6.69424">
        <ele>299.74353</ele>
        <time>2010-07-03T09:11:23Z</time>
      </trkpt>
      <trkpt lat="43.54347" lon="6.69424">
        <ele>300.091705</ele>
        <time>2010-07-03T09:11:27Z</time>
      </trkpt>
      <trkpt lat="43.54354" lon="6.69426">
        <ele>300.209808</ele>
        <time>2010-07-03T09:11:30Z</time>
      </trkpt>
      <trkpt lat="43.54365" lon="6.69428">
        <ele>300.505402</ele>
        <time>2010-07-03T09:11:35Z</time>
      </trkpt>
      <trkpt lat="43.54378" lon="6.69428">
        <ele>300.920593</ele>
        <time>2010-07-03T09:11:41Z</time>
      </trkpt>
      <trkpt lat="43.54412" lon="6.6943">
        <ele>300.53064</ele>
        <time>2010-07-03T09:11:53Z</time>
      </trkpt>
      <trkpt lat="43.54435" lon="6.69432">
        <ele>299.561859</ele>
        <time>2010-07-03T09:11:59Z</time>
      </trkpt>
      <trkpt lat="43.5447" lon="6.69432">
        <ele>297.012543</ele>
        <time>2010-07-03T09:12:06Z</time>
      </trkpt>
      <trkpt lat="43.54493" lon="6.69432">
        <ele>295.578766</ele>
        <time>2010-07-03T09:12:11Z</time>
      </trkpt>
      <trkpt lat="43.54521" lon="6.69432">
        <ele>294.095428</ele>
        <time>2010-07-03T09:12:17Z</time>
      </trkpt>
      <trkpt lat="43.54534" lon="6.69439">
        <ele>293.891754</ele>
        <time>2010-07-03T09:12:20Z</time>
      </trkpt>
      <trkpt lat="43.54551" lon="6.69451">
        <ele>293.68573</ele>
        <time>2010-07-03T09:12:26Z</time>
      </trkpt>
      <trkpt lat="43.54562" lon="6.69451">
        <ele>293.56134</ele>
        <time>2010-07-03T09:12:29Z</time>
      </trkpt>
      <trkpt lat="43.54616" lon="6.69449">
        <ele>294.803467</ele>
        <time>2010-07-03T09:12:47Z</time>
      </trkpt>
      <trkpt lat="43.54631" lon="6.69445">
        <ele>295.295715</ele>
        <time>2010-07-03T09:12:52Z</time>
      </trkpt>
      <trkpt lat="43.54609" lon="6.69351">
        <ele>294.282898</ele>
        <time>2010-07-03T09:13:11Z</time>
      </trkpt>
      <trkpt lat="43.54599" lon="6.69295">
        <ele>294.122131</ele>
        <time>2010-07-03T09:13:22Z</time>
      </trkpt>
      <trkpt lat="43.54601" lon="6.69295">
        <ele>294.262512</ele>
        <time>2010-07-03T09:13:24Z</time>
      </trkpt>
      <trkpt lat="43.54605" lon="6.69297">
        <ele>294.58374</ele>
        <time>2010-07-03T09:13:26Z</time>
      </trkpt>
      <trkpt lat="43.54629" lon="6.69303">
        <ele>297.011993</ele>
        <time>2010-07-03T09:13:38Z</time>
      </trkpt>
      <trkpt lat="43.54669" lon="6.69316">
        <ele>301.269867</ele>
        <time>2010-07-03T09:14:00Z</time>
      </trkpt>
      <trkpt lat="43.54678" lon="6.69321">
        <ele>302.125092</ele>
        <time>2010-07-03T09:14:04Z</time>
      </trkpt>
      <trkpt lat="43.54691" lon="6.69321">
        <ele>303.587128</ele>
        <time>2010-07-03T09:14:11Z</time>
      </trkpt>
      <trkpt lat="43.54712" lon="6.6931">
        <ele>306.596558</ele>
        <time>2010-07-03T09:14:25Z</time>
      </trkpt>
      <trkpt lat="43.54725" lon="6.69301">
        <ele>307.980194</ele>
        <time>2010-07-03T09:14:34Z</time>
      </trkpt>
      <trkpt lat="43.54734" lon="6.69297">
        <ele>308.85791</ele>
        <time>2010-07-03T09:14:40Z</time>
      </trkpt>
      <trkpt lat="43.5474" lon="6.69297">
        <ele>309.663086</ele>
        <time>2010-07-03T09:14:45Z</time>
      </trkpt>
      <trkpt lat="43.54751" lon="6.69291">
        <ele>310.643555</ele>
        <time>2010-07-03T09:14:53Z</time>
      </trkpt>
      <trkpt lat="43.54768" lon="6.69284">
        <ele>312.521423</ele>
        <time>2010-07-03T09:15:07Z</time>
      </trkpt>
      <trkpt lat="43.54774" lon="6.69284">
        <ele>313.354736</ele>
        <time>2010-07-03T09:15:11Z</time>
      </trkpt>
      <trkpt lat="43.54783" lon="6.69288">
        <ele>314.58905</ele>
        <time>2010-07-03T09:15:17Z</time>
      </trkpt>
      <trkpt lat="43.54796" lon="6.69303">
        <ele>316.733307</ele>
        <time>2010-07-03T09:15:29Z</time>
      </trkpt>
      <trkpt lat="43.54805" lon="6.69312">
        <ele>318.244873</ele>
        <time>2010-07-03T09:15:37Z</time>
      </trkpt>
      <trkpt lat="43.54811" lon="6.69316">
        <ele>319.286285</ele>
        <time>2010-07-03T09:15:41Z</time>
      </trkpt>
      <trkpt lat="43.54817" lon="6.69323">
        <ele>319.918274</ele>
        <time>2010-07-03T09:15:47Z</time>
      </trkpt>
      <trkpt lat="43.54826" lon="6.69331">
        <ele>320.671997</ele>
        <time>2010-07-03T09:15:53Z</time>
      </trkpt>
      <trkpt lat="43.5483" lon="6.6934">
        <ele>320.699249</ele>
        <time>2010-07-03T09:15:58Z</time>
      </trkpt>
      <trkpt lat="43.54854" lon="6.69379">
        <ele>322.506134</ele>
        <time>2010-07-03T09:16:17Z</time>
      </trkpt>
      <trkpt lat="43.54888" lon="6.69421">
        <ele>325.535156</ele>
        <time>2010-07-03T09:16:40Z</time>
      </trkpt>
      <trkpt lat="43.5492" lon="6.69451">
        <ele>327.825531</ele>
        <time>2010-07-03T09:16:58Z</time>
      </trkpt>
      <trkpt lat="43.54931" lon="6.69432">
        <ele>325.153412</ele>
        <time>2010-07-03T09:17:05Z</time>
      </trkpt>
      <trkpt lat="43.54931" lon="6.69428">
        <ele>325.164124</ele>
        <time>2010-07-03T09:17:06Z</time>
      </trkpt>
      <trkpt lat="43.54931" lon="6.69426">
        <ele>325.169891</ele>
        <time>2010-07-03T09:17:07Z</time>
      </trkpt>
      <trkpt lat="43.54927" lon="6.69394">
        <ele>326.508881</ele>
        <time>2010-07-03T09:17:18Z</time>
      </trkpt>
      <trkpt lat="43.54925" lon="6.69303">
        <ele>326.389252</ele>
        <time>2010-07-03T09:17:41Z</time>
      </trkpt>
      <trkpt lat="43.54916" lon="6.69228">
        <ele>325.794128</ele>
        <time>2010-07-03T09:17:53Z</time>
      </trkpt>
      <trkpt lat="43.54912" lon="6.69179">
        <ele>323.039612</ele>
        <time>2010-07-03T09:17:57Z</time>
      </trkpt>
      <trkpt lat="43.5491" lon="6.69138">
        <ele>319.995605</ele>
        <time>2010-07-03T09:18:00Z</time>
      </trkpt>
      <trkpt lat="43.54912" lon="6.69065">
        <ele>317.161102</ele>
        <time>2010-07-03T09:18:05Z</time>
      </trkpt>
      <trkpt lat="43.54916" lon="6.68992">
        <ele>313.798004</ele>
        <time>2010-07-03T09:18:10Z</time>
      </trkpt>
      <trkpt lat="43.54923" lon="6.68896">
        <ele>312.233124</ele>
        <time>2010-07-03T09:18:17Z</time>
      </trkpt>
      <trkpt lat="43.54929" lon="6.68864">
        <ele>312.813354</ele>
        <time>2010-07-03T09:18:21Z</time>
      </trkpt>
      <trkpt lat="43.54933" lon="6.6884">
        <ele>313.150116</ele>
        <time>2010-07-03T09:18:25Z</time>
      </trkpt>
      <trkpt lat="43.54944" lon="6.68788">
        <ele>312.264679</ele>
        <time>2010-07-03T09:18:34Z</time>
      </trkpt>
      <trkpt lat="43.5494" lon="6.68692">
        <ele>309.209625</ele>
        <time>2010-07-03T09:18:46Z</time>
      </trkpt>
      <trkpt lat="43.54929" lon="6.68617">
        <ele>306.232025</ele>
        <time>2010-07-03T09:18:53Z</time>
      </trkpt>
      <trkpt lat="43.54916" lon="6.68555">
        <ele>305.557404</ele>
        <time>2010-07-03T09:18:59Z</time>
      </trkpt>
      <trkpt lat="43.5491" lon="6.6852">
        <ele>305.244293</ele>
        <time>2010-07-03T09:19:02Z</time>
      </trkpt>
      <trkpt lat="43.54895" lon="6.68413">
        <ele>300.817902</ele>
        <time>2010-07-03T09:19:11Z</time>
      </trkpt>
      <trkpt lat="43.54884" lon="6.68284">
        <ele>299.29834</ele>
        <time>2010-07-03T09:19:22Z</time>
      </trkpt>
      <trkpt lat="43.54884" lon="6.68273">
        <ele>299.122498</ele>
        <time>2010-07-03T09:19:23Z</time>
      </trkpt>
      <trkpt lat="43.54884" lon="6.68196">
        <ele>295.190643</ele>
        <time>2010-07-03T09:19:30Z</time>
      </trkpt>
      <trkpt lat="43.54884" lon="6.68183">
        <ele>294.846466</ele>
        <time>2010-07-03T09:19:31Z</time>
      </trkpt>
      <trkpt lat="43.5489" lon="6.68022">
        <ele>292.840668</ele>
        <time>2010-07-03T09:19:47Z</time>
      </trkpt>
      <trkpt lat="43.54869" lon="6.67997">
        <ele>291.509338</ele>
        <time>2010-07-03T09:19:52Z</time>
      </trkpt>
      <trkpt lat="43.54865" lon="6.67992">
        <ele>291.21994</ele>
        <time>2010-07-03T09:19:53Z</time>
      </trkpt>
      <trkpt lat="43.54845" lon="6.67958">
        <ele>290.039917</ele>
        <time>2010-07-03T09:19:57Z</time>
      </trkpt>
      <trkpt lat="43.54841" lon="6.67949">
        <ele>289.581604</ele>
        <time>2010-07-03T09:19:58Z</time>
      </trkpt>
      <trkpt lat="43.54794" lon="6.67909">
        <ele>285.712769</ele>
        <time>2010-07-03T09:20:04Z</time>
      </trkpt>
      <trkpt lat="43.54781" lon="6.67894">
        <ele>284.709595</ele>
        <time>2010-07-03T09:20:06Z</time>
      </trkpt>
      <trkpt lat="43.5477" lon="6.67859">
        <ele>281.939545</ele>
        <time>2010-07-03T09:20:09Z</time>
      </trkpt>
      <trkpt lat="43.54766" lon="6.67846">
        <ele>280.797913</ele>
        <time>2010-07-03T09:20:10Z</time>
      </trkpt>
      <trkpt lat="43.5474" lon="6.67743">
        <ele>274.513214</ele>
        <time>2010-07-03T09:20:18Z</time>
      </trkpt>
      <trkpt lat="43.54727" lon="6.67694">
        <ele>271.928192</ele>
        <time>2010-07-03T09:20:22Z</time>
      </trkpt>
      <trkpt lat="43.5474" lon="6.67681">
        <ele>271.627655</ele>
        <time>2010-07-03T09:20:25Z</time>
      </trkpt>
      <trkpt lat="43.54815" lon="6.67613">
        <ele>270.462463</ele>
        <time>2010-07-03T09:20:40Z</time>
      </trkpt>
      <trkpt lat="43.54835" lon="6.6757">
        <ele>269.183319</ele>
        <time>2010-07-03T09:20:45Z</time>
      </trkpt>
      <trkpt lat="43.54854" lon="6.67495">
        <ele>269.384521</ele>
        <time>2010-07-03T09:20:54Z</time>
      </trkpt>
      <trkpt lat="43.54865" lon="6.67445">
        <ele>270.293884</ele>
        <time>2010-07-03T09:21:05Z</time>
      </trkpt>
      <trkpt lat="43.54884" lon="6.67374">
        <ele>270.430084</ele>
        <time>2010-07-03T09:21:27Z</time>
      </trkpt>
      <trkpt lat="43.54888" lon="6.67349">
        <ele>270.856934</ele>
        <time>2010-07-03T09:21:35Z</time>
      </trkpt>
      <trkpt lat="43.5489" lon="6.67331">
        <ele>270.986969</ele>
        <time>2010-07-03T09:21:40Z</time>
      </trkpt>
      <trkpt lat="43.54897" lon="6.67301">
        <ele>271.102875</ele>
        <time>2010-07-03T09:21:44Z</time>
      </trkpt>
      <trkpt lat="43.54912" lon="6.67188">
        <ele>270.002594</ele>
        <time>2010-07-03T09:21:56Z</time>
      </trkpt>
      <trkpt lat="43.54918" lon="6.67102">
        <ele>268.027649</ele>
        <time>2010-07-03T09:22:04Z</time>
      </trkpt>
      <trkpt lat="43.54892" lon="6.67063">
        <ele>268.378967</ele>
        <time>2010-07-03T09:22:10Z</time>
      </trkpt>
      <trkpt lat="43.54845" lon="6.67037">
        <ele>271.782745</ele>
        <time>2010-07-03T09:22:22Z</time>
      </trkpt>
      <trkpt lat="43.54822" lon="6.67029">
        <ele>272.546234</ele>
        <time>2010-07-03T09:22:29Z</time>
      </trkpt>
      <trkpt lat="43.5474" lon="6.66977">
        <ele>270.015503</ele>
        <time>2010-07-03T09:22:45Z</time>
      </trkpt>
      <trkpt lat="43.54674" lon="6.66924">
        <ele>270.075317</ele>
        <time>2010-07-03T09:22:59Z</time>
      </trkpt>
      <trkpt lat="43.54665" lon="6.66919">
        <ele>270.405853</ele>
        <time>2010-07-03T09:23:03Z</time>
      </trkpt>
      <trkpt lat="43.54652" lon="6.66911">
        <ele>270.472443</ele>
        <time>2010-07-03T09:23:10Z</time>
      </trkpt>
      <trkpt lat="43.54639" lon="6.66898">
        <ele>270.664093</ele>
        <time>2010-07-03T09:23:16Z</time>
      </trkpt>
      <trkpt lat="43.54629" lon="6.66874">
        <ele>270.765472</ele>
        <time>2010-07-03T09:23:22Z</time>
      </trkpt>
      <trkpt lat="43.54618" lon="6.66866">
        <ele>270.634888</ele>
        <time>2010-07-03T09:23:25Z</time>
      </trkpt>
      <trkpt lat="43.54558" lon="6.66819">
        <ele>270.633057</ele>
        <time>2010-07-03T09:23:41Z</time>
      </trkpt>
      <trkpt lat="43.54545" lon="6.6681">
        <ele>269.333344</ele>
        <time>2010-07-03T09:23:53Z</time>
      </trkpt>
      <trkpt lat="43.54549" lon="6.66812">
        <ele>269.704437</ele>
        <time>2010-07-03T09:24:59Z</time>
      </trkpt>
      <trkpt lat="43.54545" lon="6.66814">
        <ele>269.596558</ele>
        <time>2010-07-03T09:25:04Z</time>
      </trkpt>
      <trkpt lat="43.5453" lon="6.66804">
        <ele>268.110779</ele>
        <time>2010-07-03T09:25:08Z</time>
      </trkpt>
      <trkpt lat="43.54511" lon="6.66799">
        <ele>265.37616</ele>
        <time>2010-07-03T09:25:11Z</time>
      </trkpt>
      <trkpt lat="43.54483" lon="6.66799">
        <ele>261.812408</ele>
        <time>2010-07-03T09:25:14Z</time>
      </trkpt>
      <trkpt lat="43.54463" lon="6.66799">
        <ele>259.634125</ele>
        <time>2010-07-03T09:25:16Z</time>
      </trkpt>
      <trkpt lat="43.54455" lon="6.66799">
        <ele>258.672516</ele>
        <time>2010-07-03T09:25:17Z</time>
      </trkpt>
      <trkpt lat="43.54416" lon="6.66797">
        <ele>254.350037</ele>
        <time>2010-07-03T09:25:21Z</time>
      </trkpt>
      <trkpt lat="43.54397" lon="6.66797">
        <ele>252.29921</ele>
        <time>2010-07-03T09:25:23Z</time>
      </trkpt>
      <trkpt lat="43.54362" lon="6.66795">
        <ele>248.964966</ele>
        <time>2010-07-03T09:25:27Z</time>
      </trkpt>
      <trkpt lat="43.54341" lon="6.66791">
        <ele>245.940765</ele>
        <time>2010-07-03T09:25:30Z</time>
      </trkpt>
      <trkpt lat="43.54332" lon="6.66789">
        <ele>244.420761</ele>
        <time>2010-07-03T09:25:32Z</time>
      </trkpt>
      <trkpt lat="43.54328" lon="6.66778">
        <ele>242.918243</ele>
        <time>2010-07-03T09:25:35Z</time>
      </trkpt>
      <trkpt lat="43.54337" lon="6.66754">
        <ele>242.122711</ele>
        <time>2010-07-03T09:25:40Z</time>
      </trkpt>
      <trkpt lat="43.54388" lon="6.66647">
        <ele>237.806915</ele>
        <time>2010-07-03T09:25:59Z</time>
      </trkpt>
      <trkpt lat="43.5438" lon="6.66593">
        <ele>234.750961</ele>
        <time>2010-07-03T09:26:04Z</time>
      </trkpt>
      <trkpt lat="43.54375" lon="6.66559">
        <ele>233.292679</ele>
        <time>2010-07-03T09:26:07Z</time>
      </trkpt>
      <trkpt lat="43.54371" lon="6.66523">
        <ele>232.111404</ele>
        <time>2010-07-03T09:26:10Z</time>
      </trkpt>
      <trkpt lat="43.54371" lon="6.66443">
        <ele>230.255981</ele>
        <time>2010-07-03T09:26:16Z</time>
      </trkpt>
      <trkpt lat="43.54382" lon="6.66415">
        <ele>231.052734</ele>
        <time>2010-07-03T09:26:19Z</time>
      </trkpt>
      <trkpt lat="43.54393" lon="6.66392">
        <ele>232.059372</ele>
        <time>2010-07-03T09:26:23Z</time>
      </trkpt>
      <trkpt lat="43.54393" lon="6.66385">
        <ele>232.261719</ele>
        <time>2010-07-03T09:26:24Z</time>
      </trkpt>
      <trkpt lat="43.54397" lon="6.66357">
        <ele>233.474686</ele>
        <time>2010-07-03T09:26:29Z</time>
      </trkpt>
      <trkpt lat="43.5441" lon="6.66261">
        <ele>237.82814</ele>
        <time>2010-07-03T09:26:50Z</time>
      </trkpt>
      <trkpt lat="43.54431" lon="6.6613">
        <ele>242.053864</ele>
        <time>2010-07-03T09:27:21Z</time>
      </trkpt>
      <trkpt lat="43.54431" lon="6.66126">
        <ele>242.192596</ele>
        <time>2010-07-03T09:27:22Z</time>
      </trkpt>
      <trkpt lat="43.54438" lon="6.66104">
        <ele>242.901978</ele>
        <time>2010-07-03T09:27:28Z</time>
      </trkpt>
      <trkpt lat="43.54478" lon="6.66085">
        <ele>243.625992</ele>
        <time>2010-07-03T09:27:39Z</time>
      </trkpt>
      <trkpt lat="43.54558" lon="6.6602">
        <ele>246.851669</ele>
        <time>2010-07-03T09:28:05Z</time>
      </trkpt>
      <trkpt lat="43.54616" lon="6.65954">
        <ele>249.061874</ele>
        <time>2010-07-03T09:28:28Z</time>
      </trkpt>
      <trkpt lat="43.54618" lon="6.65952">
        <ele>249.090714</ele>
        <time>2010-07-03T09:28:29Z</time>
      </trkpt>
      <trkpt lat="43.54635" lon="6.65941">
        <ele>249.107635</ele>
        <time>2010-07-03T09:28:35Z</time>
      </trkpt>
      <trkpt lat="43.54708" lon="6.6592">
        <ele>249.714798</ele>
        <time>2010-07-03T09:28:59Z</time>
      </trkpt>
      <trkpt lat="43.54721" lon="6.65909">
        <ele>250.353989</ele>
        <time>2010-07-03T09:29:04Z</time>
      </trkpt>
      <trkpt lat="43.54732" lon="6.65896">
        <ele>250.774963</ele>
        <time>2010-07-03T09:29:10Z</time>
      </trkpt>
      <trkpt lat="43.54732" lon="6.65887">
        <ele>250.868042</ele>
        <time>2010-07-03T09:29:13Z</time>
      </trkpt>
      <trkpt lat="43.54732" lon="6.65885">
        <ele>250.891983</ele>
        <time>2010-07-03T09:29:14Z</time>
      </trkpt>
      <trkpt lat="43.54732" lon="6.65877">
        <ele>250.990356</ele>
        <time>2010-07-03T09:29:17Z</time>
      </trkpt>
      <trkpt lat="43.54727" lon="6.65823">
        <ele>252.379242</ele>
        <time>2010-07-03T09:29:35Z</time>
      </trkpt>
      <trkpt lat="43.54727" lon="6.65804">
        <ele>253.189941</ele>
        <time>2010-07-03T09:29:41Z</time>
      </trkpt>
      <trkpt lat="43.54727" lon="6.65774">
        <ele>254.895981</ele>
        <time>2010-07-03T09:29:50Z</time>
      </trkpt>
      <trkpt lat="43.54727" lon="6.65771">
        <ele>255.08847</ele>
        <time>2010-07-03T09:29:51Z</time>
      </trkpt>
      <trkpt lat="43.54732" lon="6.65733">
        <ele>258.445404</ele>
        <time>2010-07-03T09:30:05Z</time>
      </trkpt>
      <trkpt lat="43.54729" lon="6.6572">
        <ele>259.661377</ele>
        <time>2010-07-03T09:30:10Z</time>
      </trkpt>
      <trkpt lat="43.54719" lon="6.65709">
        <ele>261.134552</ele>
        <time>2010-07-03T09:30:16Z</time>
      </trkpt>
      <trkpt lat="43.54693" lon="6.65703">
        <ele>261.705963</ele>
        <time>2010-07-03T09:30:28Z</time>
      </trkpt>
      <trkpt lat="43.54704" lon="6.65686">
        <ele>264.242401</ele>
        <time>2010-07-03T09:30:38Z</time>
      </trkpt>
      <trkpt lat="43.5471" lon="6.65684">
        <ele>264.648315</ele>
        <time>2010-07-03T09:30:42Z</time>
      </trkpt>
      <trkpt lat="43.54717" lon="6.65681">
        <ele>264.702026</ele>
        <time>2010-07-03T09:30:46Z</time>
      </trkpt>
      <trkpt lat="43.54729" lon="6.65675">
        <ele>264.931702</ele>
        <time>2010-07-03T09:30:53Z</time>
      </trkpt>
      <trkpt lat="43.54753" lon="6.65666">
        <ele>264.675812</ele>
        <time>2010-07-03T09:31:05Z</time>
      </trkpt>
      <trkpt lat="43.54764" lon="6.6566">
        <ele>264.877289</ele>
        <time>2010-07-03T09:31:11Z</time>
      </trkpt>
      <trkpt lat="43.54772" lon="6.65651">
        <ele>265.499207</ele>
        <time>2010-07-03T09:31:16Z</time>
      </trkpt>
      <trkpt lat="43.54779" lon="6.65634">
        <ele>267.083862</ele>
        <time>2010-07-03T09:31:22Z</time>
      </trkpt>
      <trkpt lat="43.54792" lon="6.65619">
        <ele>268.02948</ele>
        <time>2010-07-03T09:31:29Z</time>
      </trkpt>
      <trkpt lat="43.54802" lon="6.65611">
        <ele>268.316376</ele>
        <time>2010-07-03T09:31:35Z</time>
      </trkpt>
      <trkpt lat="43.54828" lon="6.65602">
        <ele>268.74411</ele>
        <time>2010-07-03T09:31:49Z</time>
      </trkpt>
      <trkpt lat="43.54835" lon="6.656">
        <ele>268.865723</ele>
        <time>2010-07-03T09:31:52Z</time>
      </trkpt>
      <trkpt lat="43.54845" lon="6.65585">
        <ele>270.180908</ele>
        <time>2010-07-03T09:31:59Z</time>
      </trkpt>
      <trkpt lat="43.54869" lon="6.6554">
        <ele>273.505829</ele>
        <time>2010-07-03T09:32:17Z</time>
      </trkpt>
      <trkpt lat="43.54873" lon="6.65531">
        <ele>274.261017</ele>
        <time>2010-07-03T09:32:20Z</time>
      </trkpt>
      <trkpt lat="43.54875" lon="6.65518">
        <ele>275.650208</ele>
        <time>2010-07-03T09:32:24Z</time>
      </trkpt>
      <trkpt lat="43.54877" lon="6.65505">
        <ele>277.069946</ele>
        <time>2010-07-03T09:32:28Z</time>
      </trkpt>
      <trkpt lat="43.5489" lon="6.65484">
        <ele>279.388458</ele>
        <time>2010-07-03T09:32:39Z</time>
      </trkpt>
      <trkpt lat="43.54895" lon="6.6548">
        <ele>279.832336</ele>
        <time>2010-07-03T09:32:41Z</time>
      </trkpt>
      <trkpt lat="43.54901" lon="6.65473">
        <ele>280.386017</ele>
        <time>2010-07-03T09:32:46Z</time>
      </trkpt>
      <trkpt lat="43.54914" lon="6.65469">
        <ele>280.240875</ele>
        <time>2010-07-03T09:32:52Z</time>
      </trkpt>
      <trkpt lat="43.54923" lon="6.65458">
        <ele>280.870483</ele>
        <time>2010-07-03T09:32:58Z</time>
      </trkpt>
      <trkpt lat="43.5494" lon="6.65435">
        <ele>281.919495</ele>
        <time>2010-07-03T09:33:11Z</time>
      </trkpt>
      <trkpt lat="43.54959" lon="6.65398">
        <ele>285.587128</ele>
        <time>2010-07-03T09:33:29Z</time>
      </trkpt>
      <trkpt lat="43.54968" lon="6.6539">
        <ele>286.439484</ele>
        <time>2010-07-03T09:33:34Z</time>
      </trkpt>
      <trkpt lat="43.54985" lon="6.65368">
        <ele>288.507111</ele>
        <time>2010-07-03T09:33:47Z</time>
      </trkpt>
      <trkpt lat="43.55008" lon="6.65349">
        <ele>290.988007</ele>
        <time>2010-07-03T09:33:59Z</time>
      </trkpt>
      <trkpt lat="43.55019" lon="6.6534">
        <ele>291.470581</ele>
        <time>2010-07-03T09:34:05Z</time>
      </trkpt>
      <trkpt lat="43.55028" lon="6.65329">
        <ele>291.403595</ele>
        <time>2010-07-03T09:34:10Z</time>
      </trkpt>
      <trkpt lat="43.55032" lon="6.65319">
        <ele>291.124634</ele>
        <time>2010-07-03T09:34:13Z</time>
      </trkpt>
      <trkpt lat="43.55034" lon="6.65312">
        <ele>290.865448</ele>
        <time>2010-07-03T09:34:14Z</time>
      </trkpt>
      <trkpt lat="43.55041" lon="6.65287">
        <ele>290.192474</ele>
        <time>2010-07-03T09:34:19Z</time>
      </trkpt>
      <trkpt lat="43.55075" lon="6.65181">
        <ele>288.735931</ele>
        <time>2010-07-03T09:34:40Z</time>
      </trkpt>
      <trkpt lat="43.55086" lon="6.65145">
        <ele>289.408722</ele>
        <time>2010-07-03T09:34:48Z</time>
      </trkpt>
      <trkpt lat="43.55098" lon="6.65128">
        <ele>288.12149</ele>
        <time>2010-07-03T09:34:53Z</time>
      </trkpt>
      <trkpt lat="43.55114" lon="6.65113">
        <ele>286.424042</ele>
        <time>2010-07-03T09:34:58Z</time>
      </trkpt>
      <trkpt lat="43.55118" lon="6.65102">
        <ele>286.299683</ele>
        <time>2010-07-03T09:35:01Z</time>
      </trkpt>
      <trkpt lat="43.5512" lon="6.65087">
        <ele>286.932983</ele>
        <time>2010-07-03T09:35:04Z</time>
      </trkpt>
      <trkpt lat="43.5512" lon="6.65083">
        <ele>287.271912</ele>
        <time>2010-07-03T09:35:05Z</time>
      </trkpt>
      <trkpt lat="43.55126" lon="6.65055">
        <ele>288.504486</ele>
        <time>2010-07-03T09:35:11Z</time>
      </trkpt>
      <trkpt lat="43.55135" lon="6.65029">
        <ele>289.924927</ele>
        <time>2010-07-03T09:35:17Z</time>
      </trkpt>
      <trkpt lat="43.55144" lon="6.65005">
        <ele>291.247253</ele>
        <time>2010-07-03T09:35:23Z</time>
      </trkpt>
      <trkpt lat="43.55154" lon="6.64986">
        <ele>292.384125</ele>
        <time>2010-07-03T09:35:28Z</time>
      </trkpt>
      <trkpt lat="43.55167" lon="6.64971">
        <ele>293.591644</ele>
        <time>2010-07-03T09:35:34Z</time>
      </trkpt>
      <trkpt lat="43.5518" lon="6.64965">
        <ele>294.343506</ele>
        <time>2010-07-03T09:35:41Z</time>
      </trkpt>
      <trkpt lat="43.55193" lon="6.64956">
        <ele>295.819946</ele>
        <time>2010-07-03T09:35:47Z</time>
      </trkpt>
      <trkpt lat="43.55204" lon="6.6495">
        <ele>297.42807</ele>
        <time>2010-07-03T09:35:52Z</time>
      </trkpt>
      <trkpt lat="43.5521" lon="6.64954">
        <ele>298.096497</ele>
        <time>2010-07-03T09:35:54Z</time>
      </trkpt>
      <trkpt lat="43.55212" lon="6.64954">
        <ele>298.355164</ele>
        <time>2010-07-03T09:35:55Z</time>
      </trkpt>
      <trkpt lat="43.55217" lon="6.64958">
        <ele>298.2435</ele>
        <time>2010-07-03T09:35:57Z</time>
      </trkpt>
      <trkpt lat="43.55221" lon="6.64963">
        <ele>298.080994</ele>
        <time>2010-07-03T09:35:59Z</time>
      </trkpt>
      <trkpt lat="43.55229" lon="6.64969">
        <ele>297.962341</ele>
        <time>2010-07-03T09:36:03Z</time>
      </trkpt>
      <trkpt lat="43.55238" lon="6.64973">
        <ele>297.925995</ele>
        <time>2010-07-03T09:36:06Z</time>
      </trkpt>
      <trkpt lat="43.55247" lon="6.64975">
        <ele>298.045013</ele>
        <time>2010-07-03T09:36:10Z</time>
      </trkpt>
      <trkpt lat="43.55281" lon="6.64967">
        <ele>301.448029</ele>
        <time>2010-07-03T09:36:23Z</time>
      </trkpt>
      <trkpt lat="43.55304" lon="6.64971">
        <ele>300.810394</ele>
        <time>2010-07-03T09:36:30Z</time>
      </trkpt>
      <trkpt lat="43.55313" lon="6.64982">
        <ele>300.059326</ele>
        <time>2010-07-03T09:36:34Z</time>
      </trkpt>
      <trkpt lat="43.55324" lon="6.65001">
        <ele>299.790527</ele>
        <time>2010-07-03T09:36:41Z</time>
      </trkpt>
      <trkpt lat="43.5535" lon="6.65057">
        <ele>300.864075</ele>
        <time>2010-07-03T09:37:04Z</time>
      </trkpt>
      <trkpt lat="43.55365" lon="6.65051">
        <ele>302.470215</ele>
        <time>2010-07-03T09:37:12Z</time>
      </trkpt>
      <trkpt lat="43.55369" lon="6.65046">
        <ele>302.588745</ele>
        <time>2010-07-03T09:37:14Z</time>
      </trkpt>
      <trkpt lat="43.55375" lon="6.65038">
        <ele>302.571869</ele>
        <time>2010-07-03T09:37:18Z</time>
      </trkpt>
      <trkpt lat="43.5538" lon="6.65027">
        <ele>302.746887</ele>
        <time>2010-07-03T09:37:22Z</time>
      </trkpt>
      <trkpt lat="43.55399" lon="6.64997">
        <ele>304.066681</ele>
        <time>2010-07-03T09:37:35Z</time>
      </trkpt>
      <trkpt lat="43.5542" lon="6.64971">
        <ele>305.563873</ele>
        <time>2010-07-03T09:37:49Z</time>
      </trkpt>
      <trkpt lat="43.5545" lon="6.6493">
        <ele>309.620056</ele>
        <time>2010-07-03T09:38:10Z</time>
      </trkpt>
      <trkpt lat="43.55504" lon="6.64855">
        <ele>317.045471</ele>
        <time>2010-07-03T09:38:43Z</time>
      </trkpt>
      <trkpt lat="43.55525" lon="6.64829">
        <ele>318.173462</ele>
        <time>2010-07-03T09:38:53Z</time>
      </trkpt>
      <trkpt lat="43.55575" lon="6.64793">
        <ele>315.659973</ele>
        <time>2010-07-03T09:39:10Z</time>
      </trkpt>
      <trkpt lat="43.55592" lon="6.64782">
        <ele>313.503876</ele>
        <time>2010-07-03T09:39:13Z</time>
      </trkpt>
      <trkpt lat="43.55603" lon="6.64776">
        <ele>311.811371</ele>
        <time>2010-07-03T09:39:15Z</time>
      </trkpt>
      <trkpt lat="43.55607" lon="6.64774">
        <ele>310.71579</ele>
        <time>2010-07-03T09:39:16Z</time>
      </trkpt>
      <trkpt lat="43.55641" lon="6.64793">
        <ele>305.929291</ele>
        <time>2010-07-03T09:39:22Z</time>
      </trkpt>
      <trkpt lat="43.55661" lon="6.64814">
        <ele>304.274689</ele>
        <time>2010-07-03T09:39:25Z</time>
      </trkpt>
      <trkpt lat="43.55682" lon="6.64838">
        <ele>302.400024</ele>
        <time>2010-07-03T09:39:29Z</time>
      </trkpt>
      <trkpt lat="43.55704" lon="6.64872">
        <ele>305.31424</ele>
        <time>2010-07-03T09:39:34Z</time>
      </trkpt>
      <trkpt lat="43.55727" lon="6.64864">
        <ele>302.396667</ele>
        <time>2010-07-03T09:39:37Z</time>
      </trkpt>
      <trkpt lat="43.55764" lon="6.64866">
        <ele>300.77597</ele>
        <time>2010-07-03T09:39:42Z</time>
      </trkpt>
      <trkpt lat="43.55794" lon="6.64875">
        <ele>299.593536</ele>
        <time>2010-07-03T09:39:46Z</time>
      </trkpt>
      <trkpt lat="43.55817" lon="6.64853">
        <ele>295.862335</ele>
        <time>2010-07-03T09:39:50Z</time>
      </trkpt>
      <trkpt lat="43.55822" lon="6.64845">
        <ele>295.070404</ele>
        <time>2010-07-03T09:39:51Z</time>
      </trkpt>
      <trkpt lat="43.55834" lon="6.64817">
        <ele>292.473267</ele>
        <time>2010-07-03T09:39:54Z</time>
      </trkpt>
      <trkpt lat="43.55862" lon="6.64729">
        <ele>290.569641</ele>
        <time>2010-07-03T09:40:06Z</time>
      </trkpt>
      <trkpt lat="43.55888" lon="6.64647">
        <ele>292.404144</ele>
        <time>2010-07-03T09:40:22Z</time>
      </trkpt>
      <trkpt lat="43.55925" lon="6.64585">
        <ele>299.261963</ele>
        <time>2010-07-03T09:40:43Z</time>
      </trkpt>
      <trkpt lat="43.55929" lon="6.64576">
        <ele>300.342834</ele>
        <time>2010-07-03T09:40:47Z</time>
      </trkpt>
      <trkpt lat="43.55935" lon="6.64563">
        <ele>300.57251</ele>
        <time>2010-07-03T09:40:53Z</time>
      </trkpt>
      <trkpt lat="43.5594" lon="6.64551">
        <ele>300.327393</ele>
        <time>2010-07-03T09:40:58Z</time>
      </trkpt>
      <trkpt lat="43.55948" lon="6.64536">
        <ele>300.889313</ele>
        <time>2010-07-03T09:41:05Z</time>
      </trkpt>
      <trkpt lat="43.55978" lon="6.64503">
        <ele>304.039154</ele>
        <time>2010-07-03T09:41:23Z</time>
      </trkpt>
      <trkpt lat="43.56" lon="6.64486">
        <ele>306.122986</ele>
        <time>2010-07-03T09:41:35Z</time>
      </trkpt>
      <trkpt lat="43.56013" lon="6.64475">
        <ele>307.713745</ele>
        <time>2010-07-03T09:41:40Z</time>
      </trkpt>
      <trkpt lat="43.56023" lon="6.6446">
        <ele>307.250153</ele>
        <time>2010-07-03T09:41:46Z</time>
      </trkpt>
      <trkpt lat="43.56025" lon="6.64437">
        <ele>304.78006</ele>
        <time>2010-07-03T09:41:52Z</time>
      </trkpt>
      <trkpt lat="43.56028" lon="6.64422">
        <ele>303.23941</ele>
        <time>2010-07-03T09:41:55Z</time>
      </trkpt>
      <trkpt lat="43.5603" lon="6.64402">
        <ele>301.290314</ele>
        <time>2010-07-03T09:41:58Z</time>
      </trkpt>
      <trkpt lat="43.56043" lon="6.64375">
        <ele>298.125641</ele>
        <time>2010-07-03T09:42:03Z</time>
      </trkpt>
      <trkpt lat="43.56071" lon="6.64375">
        <ele>295.862457</ele>
        <time>2010-07-03T09:42:10Z</time>
      </trkpt>
      <trkpt lat="43.56077" lon="6.64385">
        <ele>293.285126</ele>
        <time>2010-07-03T09:42:12Z</time>
      </trkpt>
      <trkpt lat="43.56079" lon="6.64392">
        <ele>292.507568</ele>
        <time>2010-07-03T09:42:13Z</time>
      </trkpt>
      <trkpt lat="43.56083" lon="6.64424">
        <ele>293.380646</ele>
        <time>2010-07-03T09:42:17Z</time>
      </trkpt>
      <trkpt lat="43.56092" lon="6.64456">
        <ele>293.750763</ele>
        <time>2010-07-03T09:42:21Z</time>
      </trkpt>
      <trkpt lat="43.56098" lon="6.64471">
        <ele>293.634613</ele>
        <time>2010-07-03T09:42:23Z</time>
      </trkpt>
      <trkpt lat="43.56118" lon="6.64501">
        <ele>290.336304</ele>
        <time>2010-07-03T09:42:27Z</time>
      </trkpt>
      <trkpt lat="43.56158" lon="6.64574">
        <ele>279.408997</ele>
        <time>2010-07-03T09:42:37Z</time>
      </trkpt>
      <trkpt lat="43.56169" lon="6.64598">
        <ele>275.635132</ele>
        <time>2010-07-03T09:42:40Z</time>
      </trkpt>
      <trkpt lat="43.56171" lon="6.64606">
        <ele>273.84903</ele>
        <time>2010-07-03T09:42:41Z</time>
      </trkpt>
      <trkpt lat="43.56167" lon="6.64641">
        <ele>272.347443</ele>
        <time>2010-07-03T09:42:44Z</time>
      </trkpt>
      <trkpt lat="43.56163" lon="6.64651">
        <ele>273.171326</ele>
        <time>2010-07-03T09:42:45Z</time>
      </trkpt>
      <trkpt lat="43.56148" lon="6.64684">
        <ele>273.557922</ele>
        <time>2010-07-03T09:42:48Z</time>
      </trkpt>
      <trkpt lat="43.56141" lon="6.64692">
        <ele>274.563782</ele>
        <time>2010-07-03T09:42:49Z</time>
      </trkpt>
      <trkpt lat="43.5612" lon="6.64737">
        <ele>275.398621</ele>
        <time>2010-07-03T09:42:53Z</time>
      </trkpt>
      <trkpt lat="43.56096" lon="6.64793">
        <ele>276.34903</ele>
        <time>2010-07-03T09:42:58Z</time>
      </trkpt>
      <trkpt lat="43.56092" lon="6.64806">
        <ele>275.364441</ele>
        <time>2010-07-03T09:42:59Z</time>
      </trkpt>
      <trkpt lat="43.56083" lon="6.64829">
        <ele>274.204803</ele>
        <time>2010-07-03T09:43:01Z</time>
      </trkpt>
      <trkpt lat="43.56051" lon="6.64922">
        <ele>271.920776</ele>
        <time>2010-07-03T09:43:08Z</time>
      </trkpt>
      <trkpt lat="43.56038" lon="6.64965">
        <ele>267.911774</ele>
        <time>2010-07-03T09:43:11Z</time>
      </trkpt>
      <trkpt lat="43.56021" lon="6.65018">
        <ele>262.799774</ele>
        <time>2010-07-03T09:43:15Z</time>
      </trkpt>
      <trkpt lat="43.5601" lon="6.65057">
        <ele>260.60379</ele>
        <time>2010-07-03T09:43:18Z</time>
      </trkpt>
      <trkpt lat="43.55995" lon="6.65106">
        <ele>261.004944</ele>
        <time>2010-07-03T09:43:22Z</time>
      </trkpt>
      <trkpt lat="43.55993" lon="6.65119">
        <ele>260.608063</ele>
        <time>2010-07-03T09:43:23Z</time>
      </trkpt>
      <trkpt lat="43.55978" lon="6.65134">
        <ele>257.764435</ele>
        <time>2010-07-03T09:43:27Z</time>
      </trkpt>
      <trkpt lat="43.55959" lon="6.65117">
        <ele>257.905823</ele>
        <time>2010-07-03T09:43:31Z</time>
      </trkpt>
      <trkpt lat="43.55955" lon="6.65111">
        <ele>258.318451</ele>
        <time>2010-07-03T09:43:32Z</time>
      </trkpt>
      <trkpt lat="43.55935" lon="6.65083">
        <ele>262.264404</ele>
        <time>2010-07-03T09:43:37Z</time>
      </trkpt>
      <trkpt lat="43.55918" lon="6.65106">
        <ele>260.126984</ele>
        <time>2010-07-03T09:43:43Z</time>
      </trkpt>
      <trkpt lat="43.55916" lon="6.65113">
        <ele>259.39978</ele>
        <time>2010-07-03T09:43:44Z</time>
      </trkpt>
      <trkpt lat="43.55914" lon="6.65138">
        <ele>255.843689</ele>
        <time>2010-07-03T09:43:47Z</time>
      </trkpt>
      <trkpt lat="43.55914" lon="6.65147">
        <ele>254.424576</ele>
        <time>2010-07-03T09:43:48Z</time>
      </trkpt>
      <trkpt lat="43.55899" lon="6.65164">
        <ele>253.474731</ele>
        <time>2010-07-03T09:43:51Z</time>
      </trkpt>
      <trkpt lat="43.55903" lon="6.65184">
        <ele>249.721344</ele>
        <time>2010-07-03T09:43:54Z</time>
      </trkpt>
      <trkpt lat="43.55903" lon="6.6519">
        <ele>248.723389</ele>
        <time>2010-07-03T09:43:55Z</time>
      </trkpt>
      <trkpt lat="43.55903" lon="6.65224">
        <ele>246.618546</ele>
        <time>2010-07-03T09:43:59Z</time>
      </trkpt>
      <trkpt lat="43.55901" lon="6.65233">
        <ele>246.82164</ele>
        <time>2010-07-03T09:44:00Z</time>
      </trkpt>
      <trkpt lat="43.5591" lon="6.65302">
        <ele>240.913895</ele>
        <time>2010-07-03T09:44:07Z</time>
      </trkpt>
      <trkpt lat="43.55912" lon="6.65312">
        <ele>239.818359</ele>
        <time>2010-07-03T09:44:08Z</time>
      </trkpt>
      <trkpt lat="43.55916" lon="6.65342">
        <ele>236.084</ele>
        <time>2010-07-03T09:44:11Z</time>
      </trkpt>
      <trkpt lat="43.55899" lon="6.65411">
        <ele>238.301758</ele>
        <time>2010-07-03T09:44:17Z</time>
      </trkpt>
      <trkpt lat="43.55897" lon="6.65443">
        <ele>237.569748</ele>
        <time>2010-07-03T09:44:20Z</time>
      </trkpt>
      <trkpt lat="43.55901" lon="6.6545">
        <ele>237.584595</ele>
        <time>2010-07-03T09:44:23Z</time>
      </trkpt>
      <trkpt lat="43.55903" lon="6.6545">
        <ele>237.267059</ele>
        <time>2010-07-03T09:44:24Z</time>
      </trkpt>
      <trkpt lat="43.55905" lon="6.65447">
        <ele>236.705963</ele>
        <time>2010-07-03T09:44:25Z</time>
      </trkpt>
      <trkpt lat="43.55925" lon="6.65432">
        <ele>232.342148</ele>
        <time>2010-07-03T09:44:29Z</time>
      </trkpt>
      <trkpt lat="43.55937" lon="6.65428">
        <ele>229.53746</ele>
        <time>2010-07-03T09:44:31Z</time>
      </trkpt>
      <trkpt lat="43.55959" lon="6.65437">
        <ele>227.492722</ele>
        <time>2010-07-03T09:44:34Z</time>
      </trkpt>
      <trkpt lat="43.55983" lon="6.65445">
        <ele>225.887207</ele>
        <time>2010-07-03T09:44:37Z</time>
      </trkpt>
      <trkpt lat="43.5604" lon="6.65454">
        <ele>223.385849</ele>
        <time>2010-07-03T09:44:44Z</time>
      </trkpt>
      <trkpt lat="43.56047" lon="6.65456">
        <ele>223.856262</ele>
        <time>2010-07-03T09:44:45Z</time>
      </trkpt>
      <trkpt lat="43.5606" lon="6.65439">
        <ele>221.756714</ele>
        <time>2010-07-03T09:44:48Z</time>
      </trkpt>
      <trkpt lat="43.56081" lon="6.65415">
        <ele>218.469284</ele>
        <time>2010-07-03T09:44:52Z</time>
      </trkpt>
      <trkpt lat="43.56103" lon="6.65398">
        <ele>217.822495</ele>
        <time>2010-07-03T09:44:55Z</time>
      </trkpt>
      <trkpt lat="43.56116" lon="6.65392">
        <ele>218.426468</ele>
        <time>2010-07-03T09:44:57Z</time>
      </trkpt>
      <trkpt lat="43.56128" lon="6.65381">
        <ele>214.376389</ele>
        <time>2010-07-03T09:44:59Z</time>
      </trkpt>
      <trkpt lat="43.56137" lon="6.65377">
        <ele>212.399216</ele>
        <time>2010-07-03T09:45:00Z</time>
      </trkpt>
      <trkpt lat="43.56152" lon="6.6537">
        <ele>209.501587</ele>
        <time>2010-07-03T09:45:02Z</time>
      </trkpt>
      <trkpt lat="43.56184" lon="6.65398">
        <ele>208.680679</ele>
        <time>2010-07-03T09:45:07Z</time>
      </trkpt>
      <trkpt lat="43.56191" lon="6.65407">
        <ele>207.814987</ele>
        <time>2010-07-03T09:45:08Z</time>
      </trkpt>
      <trkpt lat="43.56223" lon="6.6548">
        <ele>204.334518</ele>
        <time>2010-07-03T09:45:15Z</time>
      </trkpt>
      <trkpt lat="43.56244" lon="6.65535">
        <ele>198.161209</ele>
        <time>2010-07-03T09:45:21Z</time>
      </trkpt>
      <trkpt lat="43.56249" lon="6.65555">
        <ele>196.988998</ele>
        <time>2010-07-03T09:45:23Z</time>
      </trkpt>
      <trkpt lat="43.56216" lon="6.65572">
        <ele>198.39502</ele>
        <time>2010-07-03T09:45:27Z</time>
      </trkpt>
      <trkpt lat="43.56163" lon="6.65578">
        <ele>202.033356</ele>
        <time>2010-07-03T09:45:29Z</time>
      </trkpt>
      <trkpt lat="43.56128" lon="6.65602">
        <ele>200.900436</ele>
        <time>2010-07-03T09:45:34Z</time>
      </trkpt>
      <trkpt lat="43.5615" lon="6.65598">
        <ele>199.554947</ele>
        <time>2010-07-03T09:45:40Z</time>
      </trkpt>
      <trkpt lat="43.56161" lon="6.65596">
        <ele>199.087891</ele>
        <time>2010-07-03T09:45:42Z</time>
      </trkpt>
      <trkpt lat="43.56178" lon="6.65591">
        <ele>198.49498</ele>
        <time>2010-07-03T09:45:45Z</time>
      </trkpt>
      <trkpt lat="43.56186" lon="6.65589">
        <ele>197.993881</ele>
        <time>2010-07-03T09:45:46Z</time>
      </trkpt>
      <trkpt lat="43.56208" lon="6.65589">
        <ele>196.675797</ele>
        <time>2010-07-03T09:45:49Z</time>
      </trkpt>
      <trkpt lat="43.56251" lon="6.65587">
        <ele>196.039963</ele>
        <time>2010-07-03T09:45:54Z</time>
      </trkpt>
      <trkpt lat="43.56277" lon="6.65585">
        <ele>195.98938</ele>
        <time>2010-07-03T09:45:57Z</time>
      </trkpt>
      <trkpt lat="43.56345" lon="6.65589">
        <ele>195.813293</ele>
        <time>2010-07-03T09:46:08Z</time>
      </trkpt>
      <trkpt lat="43.56399" lon="6.656">
        <ele>195.564423</ele>
        <time>2010-07-03T09:46:19Z</time>
      </trkpt>
      <trkpt lat="43.56407" lon="6.65602">
        <ele>195.387405</ele>
        <time>2010-07-03T09:46:21Z</time>
      </trkpt>
      <trkpt lat="43.56418" lon="6.65604">
        <ele>195.17215</ele>
        <time>2010-07-03T09:46:23Z</time>
      </trkpt>
      <trkpt lat="43.56452" lon="6.65623">
        <ele>195.967178</ele>
        <time>2010-07-03T09:46:31Z</time>
      </trkpt>
      <trkpt lat="43.56457" lon="6.65626">
        <ele>196.093857</ele>
        <time>2010-07-03T09:46:32Z</time>
      </trkpt>
      <trkpt lat="43.56463" lon="6.6563">
        <ele>196.302185</ele>
        <time>2010-07-03T09:46:34Z</time>
      </trkpt>
      <trkpt lat="43.56513" lon="6.65675">
        <ele>198.099625</ele>
        <time>2010-07-03T09:46:52Z</time>
      </trkpt>
      <trkpt lat="43.56517" lon="6.65675">
        <ele>198.169846</ele>
        <time>2010-07-03T09:46:55Z</time>
      </trkpt>
      <trkpt lat="43.56523" lon="6.65681">
        <ele>198.303894</ele>
        <time>2010-07-03T09:46:57Z</time>
      </trkpt>
      <trkpt lat="43.56528" lon="6.65688">
        <ele>198.341797</ele>
        <time>2010-07-03T09:47:00Z</time>
      </trkpt>
      <trkpt lat="43.56534" lon="6.65694">
        <ele>198.316803</ele>
        <time>2010-07-03T09:47:02Z</time>
      </trkpt>
      <trkpt lat="43.56543" lon="6.65699">
        <ele>198.231949</ele>
        <time>2010-07-03T09:47:05Z</time>
      </trkpt>
      <trkpt lat="43.56562" lon="6.65707">
        <ele>197.927734</ele>
        <time>2010-07-03T09:47:11Z</time>
      </trkpt>
      <trkpt lat="43.56581" lon="6.65711">
        <ele>197.836273</ele>
        <time>2010-07-03T09:47:19Z</time>
      </trkpt>
      <trkpt lat="43.56603" lon="6.65709">
        <ele>198.056641</ele>
        <time>2010-07-03T09:47:29Z</time>
      </trkpt>
      <trkpt lat="43.56605" lon="6.65709">
        <ele>198.135529</ele>
        <time>2010-07-03T09:47:30Z</time>
      </trkpt>
      <trkpt lat="43.56611" lon="6.65709">
        <ele>198.367691</ele>
        <time>2010-07-03T09:47:34Z</time>
      </trkpt>
      <trkpt lat="43.56641" lon="6.65703">
        <ele>199.276047</ele>
        <time>2010-07-03T09:47:51Z</time>
      </trkpt>
      <trkpt lat="43.56654" lon="6.65699">
        <ele>200.21727</ele>
        <time>2010-07-03T09:47:59Z</time>
      </trkpt>
      <trkpt lat="43.56663" lon="6.65694">
        <ele>201.049423</ele>
        <time>2010-07-03T09:48:05Z</time>
      </trkpt>
      <trkpt lat="43.5668" lon="6.65688">
        <ele>202.820999</ele>
        <time>2010-07-03T09:48:17Z</time>
      </trkpt>
      <trkpt lat="43.56686" lon="6.65684">
        <ele>203.498215</ele>
        <time>2010-07-03T09:48:22Z</time>
      </trkpt>
      <trkpt lat="43.56695" lon="6.65684">
        <ele>204.638504</ele>
        <time>2010-07-03T09:48:28Z</time>
      </trkpt>
      <trkpt lat="43.56697" lon="6.65681">
        <ele>204.985321</ele>
        <time>2010-07-03T09:48:29Z</time>
      </trkpt>
      <trkpt lat="43.5671" lon="6.65679">
        <ele>206.956818</ele>
        <time>2010-07-03T09:48:38Z</time>
      </trkpt>
      <trkpt lat="43.56716" lon="6.65679">
        <ele>207.929703</ele>
        <time>2010-07-03T09:48:42Z</time>
      </trkpt>
      <trkpt lat="43.56723" lon="6.65677">
        <ele>208.871002</ele>
        <time>2010-07-03T09:48:47Z</time>
      </trkpt>
      <trkpt lat="43.56731" lon="6.65671">
        <ele>210.022766</ele>
        <time>2010-07-03T09:48:53Z</time>
      </trkpt>
      <trkpt lat="43.5674" lon="6.65664">
        <ele>210.968964</ele>
        <time>2010-07-03T09:48:58Z</time>
      </trkpt>
      <trkpt lat="43.56742" lon="6.65647">
        <ele>210.809067</ele>
        <time>2010-07-03T09:49:05Z</time>
      </trkpt>
      <trkpt lat="43.56744" lon="6.65636">
        <ele>210.773331</ele>
        <time>2010-07-03T09:49:10Z</time>
      </trkpt>
      <trkpt lat="43.56761" lon="6.65619">
        <ele>212.107483</ele>
        <time>2010-07-03T09:49:23Z</time>
      </trkpt>
      <trkpt lat="43.5677" lon="6.65611">
        <ele>212.861771</ele>
        <time>2010-07-03T09:49:29Z</time>
      </trkpt>
      <trkpt lat="43.56781" lon="6.65604">
        <ele>213.736252</ele>
        <time>2010-07-03T09:49:35Z</time>
      </trkpt>
      <trkpt lat="43.56787" lon="6.65591">
        <ele>214.233673</ele>
        <time>2010-07-03T09:49:41Z</time>
      </trkpt>
      <trkpt lat="43.56817" lon="6.65525">
        <ele>217.389603</ele>
        <time>2010-07-03T09:49:59Z</time>
      </trkpt>
      <trkpt lat="43.56832" lon="6.65482">
        <ele>218.044052</ele>
        <time>2010-07-03T09:50:11Z</time>
      </trkpt>
      <trkpt lat="43.56841" lon="6.65469">
        <ele>218.005859</ele>
        <time>2010-07-03T09:50:16Z</time>
      </trkpt>
      <trkpt lat="43.56845" lon="6.65452">
        <ele>217.821152</ele>
        <time>2010-07-03T09:50:22Z</time>
      </trkpt>
      <trkpt lat="43.56839" lon="6.65445">
        <ele>217.958557</ele>
        <time>2010-07-03T09:50:26Z</time>
      </trkpt>
      <trkpt lat="43.56837" lon="6.65443">
        <ele>218.040192</ele>
        <time>2010-07-03T09:50:27Z</time>
      </trkpt>
      <trkpt lat="43.56832" lon="6.65441">
        <ele>218.402039</ele>
        <time>2010-07-03T09:50:29Z</time>
      </trkpt>
      <trkpt lat="43.5683" lon="6.65439">
        <ele>218.649551</ele>
        <time>2010-07-03T09:50:31Z</time>
      </trkpt>
      <trkpt lat="43.56824" lon="6.65437">
        <ele>219.306763</ele>
        <time>2010-07-03T09:50:34Z</time>
      </trkpt>
      <trkpt lat="43.56785" lon="6.65411">
        <ele>224.172165</ele>
        <time>2010-07-03T09:51:03Z</time>
      </trkpt>
      <trkpt lat="43.56783" lon="6.65409">
        <ele>224.496262</ele>
        <time>2010-07-03T09:51:04Z</time>
      </trkpt>
      <trkpt lat="43.56774" lon="6.65407">
        <ele>225.417816</ele>
        <time>2010-07-03T09:51:11Z</time>
      </trkpt>
      <trkpt lat="43.56768" lon="6.65402">
        <ele>226.367203</ele>
        <time>2010-07-03T09:51:17Z</time>
      </trkpt>
      <trkpt lat="43.56761" lon="6.65398">
        <ele>227.388809</ele>
        <time>2010-07-03T09:51:22Z</time>
      </trkpt>
      <trkpt lat="43.56755" lon="6.65394">
        <ele>228.48262</ele>
        <time>2010-07-03T09:51:29Z</time>
      </trkpt>
      <trkpt lat="43.56749" lon="6.65387">
        <ele>229.898758</ele>
        <time>2010-07-03T09:51:35Z</time>
      </trkpt>
      <trkpt lat="43.5674" lon="6.65383">
        <ele>231.583649</ele>
        <time>2010-07-03T09:51:43Z</time>
      </trkpt>
      <trkpt lat="43.56729" lon="6.65379">
        <ele>233.685547</ele>
        <time>2010-07-03T09:51:52Z</time>
      </trkpt>
      <trkpt lat="43.56723" lon="6.65372">
        <ele>235.131668</ele>
        <time>2010-07-03T09:51:58Z</time>
      </trkpt>
      <trkpt lat="43.56716" lon="6.65364">
        <ele>236.474533</ele>
        <time>2010-07-03T09:52:06Z</time>
      </trkpt>
      <trkpt lat="43.56712" lon="6.65359">
        <ele>237.288879</ele>
        <time>2010-07-03T09:52:09Z</time>
      </trkpt>
      <trkpt lat="43.56701" lon="6.65349">
        <ele>239.249619</ele>
        <time>2010-07-03T09:52:21Z</time>
      </trkpt>
      <trkpt lat="43.56688" lon="6.65334">
        <ele>241.828735</ele>
        <time>2010-07-03T09:52:35Z</time>
      </trkpt>
      <trkpt lat="43.56684" lon="6.65323">
        <ele>243.13031</ele>
        <time>2010-07-03T09:52:41Z</time>
      </trkpt>
      <trkpt lat="43.5668" lon="6.65317">
        <ele>244.250229</ele>
        <time>2010-07-03T09:52:46Z</time>
      </trkpt>
      <trkpt lat="43.56676" lon="6.6531">
        <ele>245.407974</ele>
        <time>2010-07-03T09:52:53Z</time>
      </trkpt>
      <trkpt lat="43.56665" lon="6.65293">
        <ele>248.213867</ele>
        <time>2010-07-03T09:53:06Z</time>
      </trkpt>
      <trkpt lat="43.56663" lon="6.65289">
        <ele>248.838745</ele>
        <time>2010-07-03T09:53:09Z</time>
      </trkpt>
      <trkpt lat="43.56661" lon="6.65287">
        <ele>249.380875</ele>
        <time>2010-07-03T09:53:12Z</time>
      </trkpt>
      <trkpt lat="43.56656" lon="6.65272">
        <ele>251.107071</ele>
        <time>2010-07-03T09:53:22Z</time>
      </trkpt>
      <trkpt lat="43.56643" lon="6.65257">
        <ele>254.498917</ele>
        <time>2010-07-03T09:53:35Z</time>
      </trkpt>
      <trkpt lat="43.56639" lon="6.65246">
        <ele>255.819794</ele>
        <time>2010-07-03T09:53:41Z</time>
      </trkpt>
      <trkpt lat="43.56635" lon="6.65237">
        <ele>256.479706</ele>
        <time>2010-07-03T09:53:46Z</time>
      </trkpt>
      <trkpt lat="43.56631" lon="6.65231">
        <ele>257.191833</ele>
        <time>2010-07-03T09:53:52Z</time>
      </trkpt>
      <trkpt lat="43.56622" lon="6.65211">
        <ele>258.459473</ele>
        <time>2010-07-03T09:54:04Z</time>
      </trkpt>
      <trkpt lat="43.56613" lon="6.65199">
        <ele>259.122528</ele>
        <time>2010-07-03T09:54:11Z</time>
      </trkpt>
      <trkpt lat="43.56611" lon="6.6519">
        <ele>259.071594</ele>
        <time>2010-07-03T09:54:16Z</time>
      </trkpt>
      <trkpt lat="43.56609" lon="6.65175">
        <ele>258.358307</ele>
        <time>2010-07-03T09:54:19Z</time>
      </trkpt>
      <trkpt lat="43.56609" lon="6.65151">
        <ele>256.154022</ele>
        <time>2010-07-03T09:54:24Z</time>
      </trkpt>
      <trkpt lat="43.56613" lon="6.65134">
        <ele>254.138031</ele>
        <time>2010-07-03T09:54:27Z</time>
      </trkpt>
      <trkpt lat="43.56616" lon="6.65123">
        <ele>252.929657</ele>
        <time>2010-07-03T09:54:29Z</time>
      </trkpt>
      <trkpt lat="43.56618" lon="6.65104">
        <ele>250.059662</ele>
        <time>2010-07-03T09:54:32Z</time>
      </trkpt>
      <trkpt lat="43.56633" lon="6.65014">
        <ele>241.601822</ele>
        <time>2010-07-03T09:54:44Z</time>
      </trkpt>
      <trkpt lat="43.56633" lon="6.6499">
        <ele>241.694519</ele>
        <time>2010-07-03T09:54:47Z</time>
      </trkpt>
      <trkpt lat="43.56631" lon="6.64967">
        <ele>242.863724</ele>
        <time>2010-07-03T09:54:50Z</time>
      </trkpt>
      <trkpt lat="43.5662" lon="6.64948">
        <ele>242.963135</ele>
        <time>2010-07-03T09:54:53Z</time>
      </trkpt>
      <trkpt lat="43.56618" lon="6.64941">
        <ele>242.987091</ele>
        <time>2010-07-03T09:54:54Z</time>
      </trkpt>
      <trkpt lat="43.56613" lon="6.64922">
        <ele>242.2435</ele>
        <time>2010-07-03T09:54:56Z</time>
      </trkpt>
      <trkpt lat="43.56603" lon="6.64898">
        <ele>241.411591</ele>
        <time>2010-07-03T09:54:59Z</time>
      </trkpt>
      <trkpt lat="43.56601" lon="6.64892">
        <ele>241.363754</ele>
        <time>2010-07-03T09:55:00Z</time>
      </trkpt>
      <trkpt lat="43.56605" lon="6.6486">
        <ele>239.954758</ele>
        <time>2010-07-03T09:55:05Z</time>
      </trkpt>
      <trkpt lat="43.56607" lon="6.64847">
        <ele>238.883133</ele>
        <time>2010-07-03T09:55:07Z</time>
      </trkpt>
      <trkpt lat="43.56611" lon="6.64821">
        <ele>236.785706</ele>
        <time>2010-07-03T09:55:12Z</time>
      </trkpt>
      <trkpt lat="43.56613" lon="6.64797">
        <ele>234.544586</ele>
        <time>2010-07-03T09:55:16Z</time>
      </trkpt>
      <trkpt lat="43.56616" lon="6.64767">
        <ele>231.341644</ele>
        <time>2010-07-03T09:55:21Z</time>
      </trkpt>
      <trkpt lat="43.56616" lon="6.64757">
        <ele>230.227707</ele>
        <time>2010-07-03T09:55:23Z</time>
      </trkpt>
      <trkpt lat="43.56626" lon="6.64759">
        <ele>230.095413</ele>
        <time>2010-07-03T09:55:28Z</time>
      </trkpt>
      <trkpt lat="43.56633" lon="6.64761">
        <ele>230.09494</ele>
        <time>2010-07-03T09:55:30Z</time>
      </trkpt>
      <trkpt lat="43.56652" lon="6.64761">
        <ele>227.109421</ele>
        <time>2010-07-03T09:55:36Z</time>
      </trkpt>
      <trkpt lat="43.56667" lon="6.64754">
        <ele>223.886856</ele>
        <time>2010-07-03T09:55:40Z</time>
      </trkpt>
      <trkpt lat="43.56682" lon="6.64744">
        <ele>221.744934</ele>
        <time>2010-07-03T09:55:44Z</time>
      </trkpt>
      <trkpt lat="43.56691" lon="6.64737">
        <ele>220.699692</ele>
        <time>2010-07-03T09:55:46Z</time>
      </trkpt>
      <trkpt lat="43.56721" lon="6.64718">
        <ele>216.253052</ele>
        <time>2010-07-03T09:55:54Z</time>
      </trkpt>
      <trkpt lat="43.5674" lon="6.64709">
        <ele>212.533401</ele>
        <time>2010-07-03T09:55:59Z</time>
      </trkpt>
      <trkpt lat="43.56744" lon="6.64707">
        <ele>211.57399</ele>
        <time>2010-07-03T09:56:00Z</time>
      </trkpt>
      <trkpt lat="43.56761" lon="6.64699">
        <ele>207.364624</ele>
        <time>2010-07-03T09:56:05Z</time>
      </trkpt>
      <trkpt lat="43.56772" lon="6.64694">
        <ele>204.624924</ele>
        <time>2010-07-03T09:56:08Z</time>
      </trkpt>
      <trkpt lat="43.56779" lon="6.64692">
        <ele>203.189484</ele>
        <time>2010-07-03T09:56:10Z</time>
      </trkpt>
      <trkpt lat="43.56781" lon="6.6469">
        <ele>202.713776</ele>
        <time>2010-07-03T09:56:11Z</time>
      </trkpt>
      <trkpt lat="43.56789" lon="6.64703">
        <ele>201.880508</ele>
        <time>2010-07-03T09:56:15Z</time>
      </trkpt>
      <trkpt lat="43.56802" lon="6.6472">
        <ele>200.301773</ele>
        <time>2010-07-03T09:56:20Z</time>
      </trkpt>
      <trkpt lat="43.56813" lon="6.64729">
        <ele>198.538254</ele>
        <time>2010-07-03T09:56:23Z</time>
      </trkpt>
      <trkpt lat="43.5683" lon="6.64739">
        <ele>198.265503</ele>
        <time>2010-07-03T09:56:29Z</time>
      </trkpt>
      <trkpt lat="43.56845" lon="6.6475">
        <ele>198.978058</ele>
        <time>2010-07-03T09:56:34Z</time>
      </trkpt>
      <trkpt lat="43.5686" lon="6.64759">
        <ele>199.357864</ele>
        <time>2010-07-03T09:56:40Z</time>
      </trkpt>
      <trkpt lat="43.56858" lon="6.64744">
        <ele>199.864273</ele>
        <time>2010-07-03T09:56:44Z</time>
      </trkpt>
      <trkpt lat="43.56856" lon="6.64735">
        <ele>200.034851</ele>
        <time>2010-07-03T09:56:46Z</time>
      </trkpt>
      <trkpt lat="43.56858" lon="6.6472">
        <ele>200.738617</ele>
        <time>2010-07-03T09:56:50Z</time>
      </trkpt>
      <trkpt lat="43.56864" lon="6.64666">
        <ele>200.853638</ele>
        <time>2010-07-03T09:57:05Z</time>
      </trkpt>
      <trkpt lat="43.56869" lon="6.64654">
        <ele>201.74025</ele>
        <time>2010-07-03T09:57:10Z</time>
      </trkpt>
      <trkpt lat="43.56873" lon="6.64639">
        <ele>202.846924</ele>
        <time>2010-07-03T09:57:16Z</time>
      </trkpt>
      <trkpt lat="43.56875" lon="6.64632">
        <ele>203.390778</ele>
        <time>2010-07-03T09:57:19Z</time>
      </trkpt>
      <trkpt lat="43.56877" lon="6.64621">
        <ele>203.77446</ele>
        <time>2010-07-03T09:57:23Z</time>
      </trkpt>
      <trkpt lat="43.56877" lon="6.64604">
        <ele>203.051651</ele>
        <time>2010-07-03T09:57:29Z</time>
      </trkpt>
      <trkpt lat="43.56875" lon="6.64585">
        <ele>201.318939</ele>
        <time>2010-07-03T09:57:35Z</time>
      </trkpt>
      <trkpt lat="43.56877" lon="6.64572">
        <ele>202.603439</ele>
        <time>2010-07-03T09:57:40Z</time>
      </trkpt>
      <trkpt lat="43.56884" lon="6.64555">
        <ele>205.752441</ele>
        <time>2010-07-03T09:57:46Z</time>
      </trkpt>
      <trkpt lat="43.56897" lon="6.64544">
        <ele>210.815613</ele>
        <time>2010-07-03T09:57:52Z</time>
      </trkpt>
      <trkpt lat="43.56884" lon="6.64529">
        <ele>206.591309</ele>
        <time>2010-07-03T09:57:59Z</time>
      </trkpt>
      <trkpt lat="43.56879" lon="6.64523">
        <ele>205.362457</ele>
        <time>2010-07-03T09:58:02Z</time>
      </trkpt>
      <trkpt lat="43.56875" lon="6.64512">
        <ele>205.495911</ele>
        <time>2010-07-03T09:58:06Z</time>
      </trkpt>
      <trkpt lat="43.56873" lon="6.64497">
        <ele>207.293854</ele>
        <time>2010-07-03T09:58:11Z</time>
      </trkpt>
      <trkpt lat="43.56871" lon="6.6448">
        <ele>209.673233</ele>
        <time>2010-07-03T09:58:17Z</time>
      </trkpt>
      <trkpt lat="43.56867" lon="6.64465">
        <ele>211.332367</ele>
        <time>2010-07-03T09:58:22Z</time>
      </trkpt>
      <trkpt lat="43.56867" lon="6.64452">
        <ele>211.552963</ele>
        <time>2010-07-03T09:58:25Z</time>
      </trkpt>
      <trkpt lat="43.56869" lon="6.6445">
        <ele>211.703964</ele>
        <time>2010-07-03T09:58:26Z</time>
      </trkpt>
      <trkpt lat="43.56875" lon="6.64437">
        <ele>211.324234</ele>
        <time>2010-07-03T09:58:30Z</time>
      </trkpt>
      <trkpt lat="43.56877" lon="6.64433">
        <ele>211.246155</ele>
        <time>2010-07-03T09:58:31Z</time>
      </trkpt>
      <trkpt lat="43.56879" lon="6.64426">
        <ele>210.957047</ele>
        <time>2010-07-03T09:58:33Z</time>
      </trkpt>
      <trkpt lat="43.56882" lon="6.6442">
        <ele>210.694794</ele>
        <time>2010-07-03T09:58:35Z</time>
      </trkpt>
      <trkpt lat="43.56886" lon="6.644">
        <ele>209.51741</ele>
        <time>2010-07-03T09:58:40Z</time>
      </trkpt>
      <trkpt lat="43.56901" lon="6.64387">
        <ele>210.409409</ele>
        <time>2010-07-03T09:58:46Z</time>
      </trkpt>
      <trkpt lat="43.56935" lon="6.6436">
        <ele>208.156906</ele>
        <time>2010-07-03T09:58:59Z</time>
      </trkpt>
      <trkpt lat="43.56948" lon="6.64351">
        <ele>207.173828</ele>
        <time>2010-07-03T09:59:04Z</time>
      </trkpt>
      <trkpt lat="43.56963" lon="6.64366">
        <ele>211.059418</ele>
        <time>2010-07-03T09:59:10Z</time>
      </trkpt>
      <trkpt lat="43.5697" lon="6.64375">
        <ele>212.776993</ele>
        <time>2010-07-03T09:59:12Z</time>
      </trkpt>
      <trkpt lat="43.56985" lon="6.6437">
        <ele>214.138</ele>
        <time>2010-07-03T09:59:19Z</time>
      </trkpt>
      <trkpt lat="43.56985" lon="6.64347">
        <ele>211.349716</ele>
        <time>2010-07-03T09:59:25Z</time>
      </trkpt>
      <trkpt lat="43.56987" lon="6.64345">
        <ele>211.501282</ele>
        <time>2010-07-03T09:59:26Z</time>
      </trkpt>
      <trkpt lat="43.56993" lon="6.64336">
        <ele>211.826126</ele>
        <time>2010-07-03T09:59:29Z</time>
      </trkpt>
      <trkpt lat="43.57004" lon="6.64323">
        <ele>212.19313</ele>
        <time>2010-07-03T09:59:34Z</time>
      </trkpt>
      <trkpt lat="43.57019" lon="6.64306">
        <ele>212.284821</ele>
        <time>2010-07-03T09:59:41Z</time>
      </trkpt>
      <trkpt lat="43.57034" lon="6.64293">
        <ele>213.074783</ele>
        <time>2010-07-03T09:59:47Z</time>
      </trkpt>
      <trkpt lat="43.57047" lon="6.64287">
        <ele>214.371246</ele>
        <time>2010-07-03T09:59:51Z</time>
      </trkpt>
      <trkpt lat="43.5706" lon="6.64282">
        <ele>216.647202</ele>
        <time>2010-07-03T09:59:54Z</time>
      </trkpt>
      <trkpt lat="43.57068" lon="6.64282">
        <ele>216.771973</ele>
        <time>2010-07-03T09:59:56Z</time>
      </trkpt>
      <trkpt lat="43.57083" lon="6.64284">
        <ele>216.204788</ele>
        <time>2010-07-03T09:59:59Z</time>
      </trkpt>
      <trkpt lat="43.57085" lon="6.64265">
        <ele>216.794556</ele>
        <time>2010-07-03T10:00:05Z</time>
      </trkpt>
      <trkpt lat="43.57079" lon="6.64261">
        <ele>216.942902</ele>
        <time>2010-07-03T10:00:09Z</time>
      </trkpt>
      <trkpt lat="43.57075" lon="6.64259">
        <ele>216.989441</ele>
        <time>2010-07-03T10:00:11Z</time>
      </trkpt>
      <trkpt lat="43.57062" lon="6.6425">
        <ele>216.893463</ele>
        <time>2010-07-03T10:00:18Z</time>
      </trkpt>
      <trkpt lat="43.57055" lon="6.64246">
        <ele>216.424438</ele>
        <time>2010-07-03T10:00:22Z</time>
      </trkpt>
      <trkpt lat="43.57045" lon="6.64246">
        <ele>215.604996</ele>
        <time>2010-07-03T10:00:26Z</time>
      </trkpt>
      <trkpt lat="43.57023" lon="6.64248">
        <ele>213.626328</ele>
        <time>2010-07-03T10:00:32Z</time>
      </trkpt>
      <trkpt lat="43.56997" lon="6.64261">
        <ele>209.60582</ele>
        <time>2010-07-03T10:00:41Z</time>
      </trkpt>
      <trkpt lat="43.5698" lon="6.64263">
        <ele>207.501205</ele>
        <time>2010-07-03T10:00:46Z</time>
      </trkpt>
      <trkpt lat="43.56974" lon="6.64237">
        <ele>210.442612</ele>
        <time>2010-07-03T10:00:52Z</time>
      </trkpt>
      <trkpt lat="43.56974" lon="6.64229">
        <ele>211.670258</ele>
        <time>2010-07-03T10:00:54Z</time>
      </trkpt>
      <trkpt lat="43.56976" lon="6.64207">
        <ele>213.885544</ele>
        <time>2010-07-03T10:00:58Z</time>
      </trkpt>
      <trkpt lat="43.56982" lon="6.64192">
        <ele>215.276764</ele>
        <time>2010-07-03T10:01:01Z</time>
      </trkpt>
      <trkpt lat="43.57" lon="6.64158">
        <ele>218.33992</ele>
        <time>2010-07-03T10:01:07Z</time>
      </trkpt>
      <trkpt lat="43.57002" lon="6.64151">
        <ele>217.779251</ele>
        <time>2010-07-03T10:01:08Z</time>
      </trkpt>
      <trkpt lat="43.57008" lon="6.6413">
        <ele>215.925049</ele>
        <time>2010-07-03T10:01:11Z</time>
      </trkpt>
      <trkpt lat="43.57021" lon="6.64085">
        <ele>210.689804</ele>
        <time>2010-07-03T10:01:17Z</time>
      </trkpt>
      <trkpt lat="43.57064" lon="6.64072">
        <ele>207.604736</ele>
        <time>2010-07-03T10:01:25Z</time>
      </trkpt>
      <trkpt lat="43.57088" lon="6.64068">
        <ele>207.333435</ele>
        <time>2010-07-03T10:01:32Z</time>
      </trkpt>
      <trkpt lat="43.57092" lon="6.64027">
        <ele>199.476379</ele>
        <time>2010-07-03T10:01:39Z</time>
      </trkpt>
      <trkpt lat="43.57107" lon="6.64006">
        <ele>196.62944</ele>
        <time>2010-07-03T10:01:43Z</time>
      </trkpt>
      <trkpt lat="43.57126" lon="6.63993">
        <ele>194.213089</ele>
        <time>2010-07-03T10:01:47Z</time>
      </trkpt>
      <trkpt lat="43.57148" lon="6.64003">
        <ele>194.012161</ele>
        <time>2010-07-03T10:01:51Z</time>
      </trkpt>
      <trkpt lat="43.57171" lon="6.64033">
        <ele>197.969238</ele>
        <time>2010-07-03T10:01:58Z</time>
      </trkpt>
      <trkpt lat="43.57188" lon="6.64046">
        <ele>198.407181</ele>
        <time>2010-07-03T10:02:03Z</time>
      </trkpt>
      <trkpt lat="43.57195" lon="6.64053">
        <ele>198.445435</ele>
        <time>2010-07-03T10:02:05Z</time>
      </trkpt>
      <trkpt lat="43.57208" lon="6.64072">
        <ele>200.873611</ele>
        <time>2010-07-03T10:02:10Z</time>
      </trkpt>
      <trkpt lat="43.5721" lon="6.64038">
        <ele>197.823425</ele>
        <time>2010-07-03T10:02:20Z</time>
      </trkpt>
      <trkpt lat="43.57208" lon="6.64036">
        <ele>197.825821</ele>
        <time>2010-07-03T10:02:21Z</time>
      </trkpt>
      <trkpt lat="43.57206" lon="6.64023">
        <ele>198.282852</ele>
        <time>2010-07-03T10:02:25Z</time>
      </trkpt>
      <trkpt lat="43.57199" lon="6.64006">
        <ele>197.842041</ele>
        <time>2010-07-03T10:02:31Z</time>
      </trkpt>
      <trkpt lat="43.57193" lon="6.63978">
        <ele>196.069626</ele>
        <time>2010-07-03T10:02:41Z</time>
      </trkpt>
      <trkpt lat="43.57193" lon="6.6396">
        <ele>195.965424</ele>
        <time>2010-07-03T10:02:46Z</time>
      </trkpt>
      <trkpt lat="43.57208" lon="6.63945">
        <ele>200.011673</ele>
        <time>2010-07-03T10:02:53Z</time>
      </trkpt>
      <trkpt lat="43.57219" lon="6.63937">
        <ele>202.283157</ele>
        <time>2010-07-03T10:02:57Z</time>
      </trkpt>
      <trkpt lat="43.57231" lon="6.63926">
        <ele>203.749847</ele>
        <time>2010-07-03T10:03:04Z</time>
      </trkpt>
      <trkpt lat="43.57255" lon="6.63918">
        <ele>204.994064</ele>
        <time>2010-07-03T10:03:16Z</time>
      </trkpt>
      <trkpt lat="43.57264" lon="6.63905">
        <ele>202.783295</ele>
        <time>2010-07-03T10:03:22Z</time>
      </trkpt>
      <trkpt lat="43.57264" lon="6.63918">
        <ele>206.4496</ele>
        <time>2010-07-03T10:03:27Z</time>
      </trkpt>
      <trkpt lat="43.57261" lon="6.6392">
        <ele>206.686111</ele>
        <time>2010-07-03T10:03:29Z</time>
      </trkpt>
      <trkpt lat="43.57255" lon="6.63926">
        <ele>207.401855</ele>
        <time>2010-07-03T10:03:34Z</time>
      </trkpt>
      <trkpt lat="43.57244" lon="6.63948">
        <ele>206.980103</ele>
        <time>2010-07-03T10:03:46Z</time>
      </trkpt>
      <trkpt lat="43.57242" lon="6.6395">
        <ele>206.590393</ele>
        <time>2010-07-03T10:03:47Z</time>
      </trkpt>
      <trkpt lat="43.57238" lon="6.6396">
        <ele>205.809464</ele>
        <time>2010-07-03T10:03:53Z</time>
      </trkpt>
      <trkpt lat="43.57236" lon="6.63973">
        <ele>205.414581</ele>
        <time>2010-07-03T10:03:59Z</time>
      </trkpt>
      <trkpt lat="43.57236" lon="6.63984">
        <ele>205.427475</ele>
        <time>2010-07-03T10:04:04Z</time>
      </trkpt>
      <trkpt lat="43.57253" lon="6.63997">
        <ele>208.152054</ele>
        <time>2010-07-03T10:04:14Z</time>
      </trkpt>
      <trkpt lat="43.57255" lon="6.63999">
        <ele>208.128204</ele>
        <time>2010-07-03T10:04:16Z</time>
      </trkpt>
      <trkpt lat="43.57266" lon="6.64003">
        <ele>209.148331</ele>
        <time>2010-07-03T10:04:23Z</time>
      </trkpt>
      <trkpt lat="43.57274" lon="6.64006">
        <ele>210.206024</ele>
        <time>2010-07-03T10:04:28Z</time>
      </trkpt>
      <trkpt lat="43.57276" lon="6.63995">
        <ele>212.584518</ele>
        <time>2010-07-03T10:04:32Z</time>
      </trkpt>
      <trkpt lat="43.57276" lon="6.63993">
        <ele>212.612045</ele>
        <time>2010-07-03T10:04:33Z</time>
      </trkpt>
      <trkpt lat="43.57279" lon="6.63988">
        <ele>213.002029</ele>
        <time>2010-07-03T10:04:35Z</time>
      </trkpt>
      <trkpt lat="43.57281" lon="6.63984">
        <ele>213.404648</ele>
        <time>2010-07-03T10:04:37Z</time>
      </trkpt>
      <trkpt lat="43.57283" lon="6.63973">
        <ele>213.909637</ele>
        <time>2010-07-03T10:04:42Z</time>
      </trkpt>
      <trkpt lat="43.57285" lon="6.63967">
        <ele>214.37796</ele>
        <time>2010-07-03T10:04:45Z</time>
      </trkpt>
      <trkpt lat="43.57289" lon="6.63958">
        <ele>215.293732</ele>
        <time>2010-07-03T10:04:50Z</time>
      </trkpt>
      <trkpt lat="43.57291" lon="6.63956">
        <ele>215.730103</ele>
        <time>2010-07-03T10:04:52Z</time>
      </trkpt>
      <trkpt lat="43.57298" lon="6.63948">
        <ele>217.129715</ele>
        <time>2010-07-03T10:04:58Z</time>
      </trkpt>
      <trkpt lat="43.57317" lon="6.63941">
        <ele>219.441849</ele>
        <time>2010-07-03T10:05:10Z</time>
      </trkpt>
      <trkpt lat="43.57319" lon="6.63941">
        <ele>219.649475</ele>
        <time>2010-07-03T10:05:11Z</time>
      </trkpt>
      <trkpt lat="43.57358" lon="6.63941">
        <ele>222.919937</ele>
        <time>2010-07-03T10:05:34Z</time>
      </trkpt>
      <trkpt lat="43.5736" lon="6.63941">
        <ele>223.059357</ele>
        <time>2010-07-03T10:05:35Z</time>
      </trkpt>
      <trkpt lat="43.5736" lon="6.63941">
        <ele>223.059357</ele>
        <time>2010-07-03T10:05:36Z</time>
      </trkpt>
      <trkpt lat="43.57377" lon="6.63939">
        <ele>223.625214</ele>
        <time>2010-07-03T10:05:47Z</time>
      </trkpt>
      <trkpt lat="43.57407" lon="6.63945">
        <ele>223.797623</ele>
        <time>2010-07-03T10:06:05Z</time>
      </trkpt>
      <trkpt lat="43.57416" lon="6.63952">
        <ele>223.884583</ele>
        <time>2010-07-03T10:06:11Z</time>
      </trkpt>
      <trkpt lat="43.57427" lon="6.63971">
        <ele>226.322586</ele>
        <time>2010-07-03T10:06:22Z</time>
      </trkpt>
      <trkpt lat="43.57433" lon="6.64014">
        <ele>233.379517</ele>
        <time>2010-07-03T10:06:41Z</time>
      </trkpt>
      <trkpt lat="43.5744" lon="6.64036">
        <ele>234.79245</ele>
        <time>2010-07-03T10:06:52Z</time>
      </trkpt>
      <trkpt lat="43.57444" lon="6.64053">
        <ele>236.103043</ele>
        <time>2010-07-03T10:06:59Z</time>
      </trkpt>
      <trkpt lat="43.57444" lon="6.64061">
        <ele>236.6642</ele>
        <time>2010-07-03T10:07:02Z</time>
      </trkpt>
      <trkpt lat="43.57444" lon="6.64066">
        <ele>236.947159</ele>
        <time>2010-07-03T10:07:03Z</time>
      </trkpt>
      <trkpt lat="43.57448" lon="6.64076">
        <ele>236.922806</ele>
        <time>2010-07-03T10:07:07Z</time>
      </trkpt>
      <trkpt lat="43.57459" lon="6.64106">
        <ele>236.130219</ele>
        <time>2010-07-03T10:07:17Z</time>
      </trkpt>
      <trkpt lat="43.57465" lon="6.64113">
        <ele>237.01181</ele>
        <time>2010-07-03T10:07:21Z</time>
      </trkpt>
      <trkpt lat="43.57476" lon="6.64126">
        <ele>238.364059</ele>
        <time>2010-07-03T10:07:29Z</time>
      </trkpt>
      <trkpt lat="43.57497" lon="6.64136">
        <ele>239.503372</ele>
        <time>2010-07-03T10:07:41Z</time>
      </trkpt>
      <trkpt lat="43.57506" lon="6.64145">
        <ele>239.427887</ele>
        <time>2010-07-03T10:07:46Z</time>
      </trkpt>
      <trkpt lat="43.5751" lon="6.6416">
        <ele>238.85997</ele>
        <time>2010-07-03T10:07:53Z</time>
      </trkpt>
      <trkpt lat="43.57512" lon="6.64166">
        <ele>238.829559</ele>
        <time>2010-07-03T10:07:56Z</time>
      </trkpt>
      <trkpt lat="43.57517" lon="6.64177">
        <ele>239.075211</ele>
        <time>2010-07-03T10:08:00Z</time>
      </trkpt>
      <trkpt lat="43.57521" lon="6.64188">
        <ele>238.869293</ele>
        <time>2010-07-03T10:08:05Z</time>
      </trkpt>
      <trkpt lat="43.57532" lon="6.64194">
        <ele>239.318451</ele>
        <time>2010-07-03T10:08:11Z</time>
      </trkpt>
      <trkpt lat="43.57579" lon="6.64199">
        <ele>241.628143</ele>
        <time>2010-07-03T10:08:35Z</time>
      </trkpt>
      <trkpt lat="43.57588" lon="6.64196">
        <ele>241.990051</ele>
        <time>2010-07-03T10:08:40Z</time>
      </trkpt>
      <trkpt lat="43.57596" lon="6.64181">
        <ele>243.112152</ele>
        <time>2010-07-03T10:08:47Z</time>
      </trkpt>
      <trkpt lat="43.57603" lon="6.64173">
        <ele>243.910477</ele>
        <time>2010-07-03T10:08:53Z</time>
      </trkpt>
      <trkpt lat="43.57609" lon="6.64164">
        <ele>244.75293</ele>
        <time>2010-07-03T10:08:58Z</time>
      </trkpt>
      <trkpt lat="43.5762" lon="6.64166">
        <ele>245.079956</ele>
        <time>2010-07-03T10:09:02Z</time>
      </trkpt>
      <trkpt lat="43.57628" lon="6.64169">
        <ele>245.336197</ele>
        <time>2010-07-03T10:09:06Z</time>
      </trkpt>
      <trkpt lat="43.57637" lon="6.64175">
        <ele>245.435257</ele>
        <time>2010-07-03T10:09:10Z</time>
      </trkpt>
      <trkpt lat="43.57648" lon="6.64188">
        <ele>245.505173</ele>
        <time>2010-07-03T10:09:17Z</time>
      </trkpt>
      <trkpt lat="43.57669" lon="6.64207">
        <ele>245.885239</ele>
        <time>2010-07-03T10:09:29Z</time>
      </trkpt>
      <trkpt lat="43.57688" lon="6.64224">
        <ele>246.921341</ele>
        <time>2010-07-03T10:09:41Z</time>
      </trkpt>
      <trkpt lat="43.57706" lon="6.64233">
        <ele>247.150528</ele>
        <time>2010-07-03T10:09:50Z</time>
      </trkpt>
      <trkpt lat="43.5774" lon="6.64265">
        <ele>247.587173</ele>
        <time>2010-07-03T10:10:11Z</time>
      </trkpt>
      <trkpt lat="43.57749" lon="6.64274">
        <ele>247.829468</ele>
        <time>2010-07-03T10:10:17Z</time>
      </trkpt>
      <trkpt lat="43.57757" lon="6.64287">
        <ele>248.2332</ele>
        <time>2010-07-03T10:10:23Z</time>
      </trkpt>
      <trkpt lat="43.57766" lon="6.64295">
        <ele>248.668686</ele>
        <time>2010-07-03T10:10:29Z</time>
      </trkpt>
      <trkpt lat="43.57791" lon="6.64349">
        <ele>253.647873</ele>
        <time>2010-07-03T10:10:53Z</time>
      </trkpt>
      <trkpt lat="43.57809" lon="6.64372">
        <ele>257.019775</ele>
        <time>2010-07-03T10:11:04Z</time>
      </trkpt>
      <trkpt lat="43.57813" lon="6.6439">
        <ele>258.651581</ele>
        <time>2010-07-03T10:11:10Z</time>
      </trkpt>
      <trkpt lat="43.57815" lon="6.64407">
        <ele>260.067688</ele>
        <time>2010-07-03T10:11:16Z</time>
      </trkpt>
      <trkpt lat="43.57813" lon="6.64418">
        <ele>259.87384</ele>
        <time>2010-07-03T10:11:22Z</time>
      </trkpt>
      <trkpt lat="43.57813" lon="6.6445">
        <ele>260.125641</ele>
        <time>2010-07-03T10:11:34Z</time>
      </trkpt>
      <trkpt lat="43.57813" lon="6.64463">
        <ele>260.218079</ele>
        <time>2010-07-03T10:11:41Z</time>
      </trkpt>
      <trkpt lat="43.57815" lon="6.64471">
        <ele>260.390747</ele>
        <time>2010-07-03T10:11:47Z</time>
      </trkpt>
      <trkpt lat="43.57817" lon="6.64478">
        <ele>260.353546</ele>
        <time>2010-07-03T10:11:54Z</time>
      </trkpt>
      <trkpt lat="43.57817" lon="6.64478">
        <ele>260.353546</ele>
        <time>2010-07-03T10:12:02Z</time>
      </trkpt>
      <trkpt lat="43.57819" lon="6.64486">
        <ele>260.200836</ele>
        <time>2010-07-03T10:12:06Z</time>
      </trkpt>
      <trkpt lat="43.57821" lon="6.64493">
        <ele>260.056854</ele>
        <time>2010-07-03T10:12:10Z</time>
      </trkpt>
      <trkpt lat="43.57832" lon="6.64503">
        <ele>260.319855</ele>
        <time>2010-07-03T10:12:17Z</time>
      </trkpt>
      <trkpt lat="43.57841" lon="6.6451">
        <ele>260.62854</ele>
        <time>2010-07-03T10:12:22Z</time>
      </trkpt>
      <trkpt lat="43.57854" lon="6.64505">
        <ele>261.730377</ele>
        <time>2010-07-03T10:12:28Z</time>
      </trkpt>
      <trkpt lat="43.57864" lon="6.64493">
        <ele>263.068756</ele>
        <time>2010-07-03T10:12:40Z</time>
      </trkpt>
      <trkpt lat="43.57867" lon="6.64484">
        <ele>263.607788</ele>
        <time>2010-07-03T10:12:47Z</time>
      </trkpt>
      <trkpt lat="43.57862" lon="6.64473">
        <ele>263.808075</ele>
        <time>2010-07-03T10:13:10Z</time>
      </trkpt>
      <trkpt lat="43.57873" lon="6.64456">
        <ele>264.801208</ele>
        <time>2010-07-03T10:13:23Z</time>
      </trkpt>
      <trkpt lat="43.57875" lon="6.64452">
        <ele>265.004791</ele>
        <time>2010-07-03T10:13:29Z</time>
      </trkpt>
      <trkpt lat="43.57879" lon="6.64452">
        <ele>265.296082</ele>
        <time>2010-07-03T10:13:35Z</time>
      </trkpt>
      <trkpt lat="43.57882" lon="6.64452">
        <ele>265.441711</ele>
        <time>2010-07-03T10:13:39Z</time>
      </trkpt>
      <trkpt lat="43.57882" lon="6.64452">
        <ele>265.441711</ele>
        <time>2010-07-03T10:14:08Z</time>
      </trkpt>
      <trkpt lat="43.57884" lon="6.64454">
        <ele>265.558411</ele>
        <time>2010-07-03T10:14:16Z</time>
      </trkpt>
      <trkpt lat="43.57888" lon="6.64458">
        <ele>265.791809</ele>
        <time>2010-07-03T10:14:22Z</time>
      </trkpt>
      <trkpt lat="43.57901" lon="6.64463">
        <ele>266.607758</ele>
        <time>2010-07-03T10:14:28Z</time>
      </trkpt>
      <trkpt lat="43.57914" lon="6.64463">
        <ele>267.36438</ele>
        <time>2010-07-03T10:14:34Z</time>
      </trkpt>
      <trkpt lat="43.57927" lon="6.64456">
        <ele>268.081024</ele>
        <time>2010-07-03T10:14:41Z</time>
      </trkpt>
      <trkpt lat="43.57942" lon="6.64443">
        <ele>269.425995</ele>
        <time>2010-07-03T10:14:48Z</time>
      </trkpt>
      <trkpt lat="43.57957" lon="6.64439">
        <ele>270.665192</ele>
        <time>2010-07-03T10:14:54Z</time>
      </trkpt>
      <trkpt lat="43.57993" lon="6.64428">
        <ele>273.840088</ele>
        <time>2010-07-03T10:15:05Z</time>
      </trkpt>
      <trkpt lat="43.58" lon="6.64428">
        <ele>274.289673</ele>
        <time>2010-07-03T10:15:08Z</time>
      </trkpt>
      <trkpt lat="43.58" lon="6.64418">
        <ele>274.960449</ele>
        <time>2010-07-03T10:15:13Z</time>
      </trkpt>
      <trkpt lat="43.57997" lon="6.64418">
        <ele>274.805481</ele>
        <time>2010-07-03T10:15:14Z</time>
      </trkpt>
      <trkpt lat="43.57991" lon="6.6439">
        <ele>274.816437</ele>
        <time>2010-07-03T10:15:24Z</time>
      </trkpt>
      <trkpt lat="43.57987" lon="6.64379">
        <ele>274.49881</ele>
        <time>2010-07-03T10:15:28Z</time>
      </trkpt>
      <trkpt lat="43.57991" lon="6.64368">
        <ele>275.133545</ele>
        <time>2010-07-03T10:15:32Z</time>
      </trkpt>
      <trkpt lat="43.57995" lon="6.64349">
        <ele>275.322815</ele>
        <time>2010-07-03T10:15:38Z</time>
      </trkpt>
      <trkpt lat="43.57989" lon="6.64332">
        <ele>273.565063</ele>
        <time>2010-07-03T10:15:44Z</time>
      </trkpt>
      <trkpt lat="43.57989" lon="6.64319">
        <ele>272.872772</ele>
        <time>2010-07-03T10:15:48Z</time>
      </trkpt>
      <trkpt lat="43.57987" lon="6.64299">
        <ele>271.556091</ele>
        <time>2010-07-03T10:15:53Z</time>
      </trkpt>
      <trkpt lat="43.57978" lon="6.64284">
        <ele>269.495819</ele>
        <time>2010-07-03T10:16:00Z</time>
      </trkpt>
      <trkpt lat="43.57963" lon="6.64267">
        <ele>267.174744</ele>
        <time>2010-07-03T10:16:11Z</time>
      </trkpt>
      <trkpt lat="43.57959" lon="6.64259">
        <ele>266.314026</ele>
        <time>2010-07-03T10:16:17Z</time>
      </trkpt>
      <trkpt lat="43.57957" lon="6.64252">
        <ele>265.791016</ele>
        <time>2010-07-03T10:16:23Z</time>
      </trkpt>
      <trkpt lat="43.57944" lon="6.64235">
        <ele>263.460205</ele>
        <time>2010-07-03T10:16:34Z</time>
      </trkpt>
      <trkpt lat="43.57933" lon="6.64224">
        <ele>261.624817</ele>
        <time>2010-07-03T10:16:40Z</time>
      </trkpt>
      <trkpt lat="43.5792" lon="6.64188">
        <ele>258.547974</ele>
        <time>2010-07-03T10:16:54Z</time>
      </trkpt>
      <trkpt lat="43.57918" lon="6.64177">
        <ele>257.642059</ele>
        <time>2010-07-03T10:16:58Z</time>
      </trkpt>
      <trkpt lat="43.57912" lon="6.64162">
        <ele>255.383102</ele>
        <time>2010-07-03T10:17:04Z</time>
      </trkpt>
      <trkpt lat="43.57907" lon="6.64149">
        <ele>253.39888</ele>
        <time>2010-07-03T10:17:07Z</time>
      </trkpt>
      <trkpt lat="43.57905" lon="6.64134">
        <ele>251.793762</ele>
        <time>2010-07-03T10:17:10Z</time>
      </trkpt>
      <trkpt lat="43.57901" lon="6.64119">
        <ele>249.982803</ele>
        <time>2010-07-03T10:17:13Z</time>
      </trkpt>
      <trkpt lat="43.57897" lon="6.64098">
        <ele>247.850861</ele>
        <time>2010-07-03T10:17:18Z</time>
      </trkpt>
      <trkpt lat="43.57884" lon="6.64057">
        <ele>243.940414</ele>
        <time>2010-07-03T10:17:28Z</time>
      </trkpt>
      <trkpt lat="43.57879" lon="6.64046">
        <ele>243.069626</ele>
        <time>2010-07-03T10:17:35Z</time>
      </trkpt>
      <trkpt lat="43.57879" lon="6.64046">
        <ele>243.069626</ele>
        <time>2010-07-03T10:17:52Z</time>
      </trkpt>
      <trkpt lat="43.57879" lon="6.64044">
        <ele>242.95755</ele>
        <time>2010-07-03T10:19:29Z</time>
      </trkpt>
      <trkpt lat="43.57871" lon="6.64029">
        <ele>241.117462</ele>
        <time>2010-07-03T10:19:34Z</time>
      </trkpt>
      <trkpt lat="43.57869" lon="6.64025">
        <ele>240.62204</ele>
        <time>2010-07-03T10:19:35Z</time>
      </trkpt>
      <trkpt lat="43.57869" lon="6.64021">
        <ele>240.347809</ele>
        <time>2010-07-03T10:19:36Z</time>
      </trkpt>
      <trkpt lat="43.57864" lon="6.64016">
        <ele>239.651794</ele>
        <time>2010-07-03T10:19:38Z</time>
      </trkpt>
      <trkpt lat="43.5786" lon="6.6401">
        <ele>238.838684</ele>
        <time>2010-07-03T10:19:40Z</time>
      </trkpt>
      <trkpt lat="43.57858" lon="6.64003">
        <ele>238.247925</ele>
        <time>2010-07-03T10:19:42Z</time>
      </trkpt>
      <trkpt lat="43.57854" lon="6.64001">
        <ele>237.718552</ele>
        <time>2010-07-03T10:19:46Z</time>
      </trkpt>
      <trkpt lat="43.57852" lon="6.63999">
        <ele>237.39476</ele>
        <time>2010-07-03T10:19:49Z</time>
      </trkpt>
      <trkpt lat="43.57849" lon="6.63997">
        <ele>237.074142</ele>
        <time>2010-07-03T10:19:50Z</time>
      </trkpt>
      <trkpt lat="43.57845" lon="6.63988">
        <ele>236.208405</ele>
        <time>2010-07-03T10:19:54Z</time>
      </trkpt>
      <trkpt lat="43.57841" lon="6.6398">
        <ele>235.370148</ele>
        <time>2010-07-03T10:19:58Z</time>
      </trkpt>
      <trkpt lat="43.57836" lon="6.63943">
        <ele>232.006836</ele>
        <time>2010-07-03T10:20:09Z</time>
      </trkpt>
      <trkpt lat="43.57832" lon="6.63911">
        <ele>228.836365</ele>
        <time>2010-07-03T10:20:18Z</time>
      </trkpt>
      <trkpt lat="43.57832" lon="6.63907">
        <ele>228.429291</ele>
        <time>2010-07-03T10:20:19Z</time>
      </trkpt>
      <trkpt lat="43.57826" lon="6.63875">
        <ele>225.007385</ele>
        <time>2010-07-03T10:20:27Z</time>
      </trkpt>
      <trkpt lat="43.57826" lon="6.6387">
        <ele>224.542862</ele>
        <time>2010-07-03T10:20:28Z</time>
      </trkpt>
      <trkpt lat="43.57817" lon="6.63862">
        <ele>223.060928</ele>
        <time>2010-07-03T10:20:31Z</time>
      </trkpt>
      <trkpt lat="43.57811" lon="6.63857">
        <ele>222.098328</ele>
        <time>2010-07-03T10:20:33Z</time>
      </trkpt>
      <trkpt lat="43.57804" lon="6.63855">
        <ele>221.36615</ele>
        <time>2010-07-03T10:20:35Z</time>
      </trkpt>
      <trkpt lat="43.57798" lon="6.63847">
        <ele>220.086777</ele>
        <time>2010-07-03T10:20:38Z</time>
      </trkpt>
      <trkpt lat="43.57779" lon="6.63821">
        <ele>220.373764</ele>
        <time>2010-07-03T10:20:48Z</time>
      </trkpt>
      <trkpt lat="43.57751" lon="6.63776">
        <ele>216.540817</ele>
        <time>2010-07-03T10:21:03Z</time>
      </trkpt>
      <trkpt lat="43.57736" lon="6.63769">
        <ele>214.577011</ele>
        <time>2010-07-03T10:21:07Z</time>
      </trkpt>
      <trkpt lat="43.57731" lon="6.63769">
        <ele>214.253235</ele>
        <time>2010-07-03T10:21:08Z</time>
      </trkpt>
      <trkpt lat="43.57718" lon="6.63769">
        <ele>213.27594</ele>
        <time>2010-07-03T10:21:11Z</time>
      </trkpt>
      <trkpt lat="43.57667" lon="6.63793">
        <ele>209.492081</ele>
        <time>2010-07-03T10:21:24Z</time>
      </trkpt>
      <trkpt lat="43.57661" lon="6.63795">
        <ele>209.274826</ele>
        <time>2010-07-03T10:21:25Z</time>
      </trkpt>
      <trkpt lat="43.57646" lon="6.63804">
        <ele>209.191711</ele>
        <time>2010-07-03T10:21:28Z</time>
      </trkpt>
      <trkpt lat="43.5763" lon="6.638">
        <ele>207.36908</ele>
        <time>2010-07-03T10:21:35Z</time>
      </trkpt>
      <trkpt lat="43.57628" lon="6.638">
        <ele>207.183594</ele>
        <time>2010-07-03T10:21:37Z</time>
      </trkpt>
      <trkpt lat="43.5757" lon="6.63827">
        <ele>206.396774</ele>
        <time>2010-07-03T10:22:03Z</time>
      </trkpt>
      <trkpt lat="43.57553" lon="6.63838">
        <ele>206.575333</ele>
        <time>2010-07-03T10:22:11Z</time>
      </trkpt>
      <trkpt lat="43.575" lon="6.63877">
        <ele>206.070129</ele>
        <time>2010-07-03T10:22:27Z</time>
      </trkpt>
      <trkpt lat="43.57461" lon="6.63903">
        <ele>208.743103</ele>
        <time>2010-07-03T10:22:38Z</time>
      </trkpt>
      <trkpt lat="43.57437" lon="6.63915">
        <ele>212.403824</ele>
        <time>2010-07-03T10:22:46Z</time>
      </trkpt>
      <trkpt lat="43.57437" lon="6.63903">
        <ele>208.659622</ele>
        <time>2010-07-03T10:22:51Z</time>
      </trkpt>
      <trkpt lat="43.5744" lon="6.63896">
        <ele>206.800858</ele>
        <time>2010-07-03T10:22:56Z</time>
      </trkpt>
      <trkpt lat="43.57437" lon="6.63881">
        <ele>202.88063</ele>
        <time>2010-07-03T10:23:17Z</time>
      </trkpt>
      <trkpt lat="43.57435" lon="6.63879">
        <ele>202.79483</ele>
        <time>2010-07-03T10:23:23Z</time>
      </trkpt>
      <trkpt lat="43.57422" lon="6.63868">
        <ele>202.30899</ele>
        <time>2010-07-03T10:23:40Z</time>
      </trkpt>
      <trkpt lat="43.57418" lon="6.63862">
        <ele>201.879547</ele>
        <time>2010-07-03T10:23:43Z</time>
      </trkpt>
      <trkpt lat="43.57414" lon="6.63855">
        <ele>201.410172</ele>
        <time>2010-07-03T10:23:46Z</time>
      </trkpt>
      <trkpt lat="43.57394" lon="6.63847">
        <ele>200.790222</ele>
        <time>2010-07-03T10:23:53Z</time>
      </trkpt>
      <trkpt lat="43.57388" lon="6.63847">
        <ele>200.63237</ele>
        <time>2010-07-03T10:23:54Z</time>
      </trkpt>
      <trkpt lat="43.57375" lon="6.63842">
        <ele>199.906525</ele>
        <time>2010-07-03T10:23:57Z</time>
      </trkpt>
      <trkpt lat="43.57362" lon="6.63836">
        <ele>199.026169</ele>
        <time>2010-07-03T10:24:01Z</time>
      </trkpt>
      <trkpt lat="43.57354" lon="6.63834">
        <ele>198.646637</ele>
        <time>2010-07-03T10:24:06Z</time>
      </trkpt>
      <trkpt lat="43.57343" lon="6.6383">
        <ele>197.941147</ele>
        <time>2010-07-03T10:24:11Z</time>
      </trkpt>
      <trkpt lat="43.57326" lon="6.63817">
        <ele>196.220062</ele>
        <time>2010-07-03T10:24:22Z</time>
      </trkpt>
      <trkpt lat="43.57304" lon="6.63804">
        <ele>197.013123</ele>
        <time>2010-07-03T10:24:34Z</time>
      </trkpt>
      <trkpt lat="43.57296" lon="6.63793">
        <ele>199.157486</ele>
        <time>2010-07-03T10:24:40Z</time>
      </trkpt>
      <trkpt lat="43.57291" lon="6.63776">
        <ele>203.346909</ele>
        <time>2010-07-03T10:24:47Z</time>
      </trkpt>
      <trkpt lat="43.57294" lon="6.63767">
        <ele>205.946472</ele>
        <time>2010-07-03T10:24:50Z</time>
      </trkpt>
      <trkpt lat="43.57296" lon="6.63763">
        <ele>207.407745</ele>
        <time>2010-07-03T10:24:52Z</time>
      </trkpt>
      <trkpt lat="43.57298" lon="6.63748">
        <ele>211.66124</ele>
        <time>2010-07-03T10:24:58Z</time>
      </trkpt>
      <trkpt lat="43.57298" lon="6.63731">
        <ele>212.334244</ele>
        <time>2010-07-03T10:25:04Z</time>
      </trkpt>
      <trkpt lat="43.57294" lon="6.63716">
        <ele>212.279526</ele>
        <time>2010-07-03T10:25:10Z</time>
      </trkpt>
      <trkpt lat="43.57291" lon="6.63701">
        <ele>212.502487</ele>
        <time>2010-07-03T10:25:16Z</time>
      </trkpt>
      <trkpt lat="43.57296" lon="6.63684">
        <ele>213.35405</ele>
        <time>2010-07-03T10:25:23Z</time>
      </trkpt>
      <trkpt lat="43.57313" lon="6.63643">
        <ele>211.754822</ele>
        <time>2010-07-03T10:25:41Z</time>
      </trkpt>
      <trkpt lat="43.57317" lon="6.63639">
        <ele>212.32074</ele>
        <time>2010-07-03T10:25:43Z</time>
      </trkpt>
      <trkpt lat="43.57322" lon="6.63632">
        <ele>212.758804</ele>
        <time>2010-07-03T10:25:47Z</time>
      </trkpt>
      <trkpt lat="43.57326" lon="6.63619">
        <ele>212.159119</ele>
        <time>2010-07-03T10:25:53Z</time>
      </trkpt>
      <trkpt lat="43.5733" lon="6.63609">
        <ele>211.507004</ele>
        <time>2010-07-03T10:25:58Z</time>
      </trkpt>
      <trkpt lat="43.57343" lon="6.636">
        <ele>213.276047</ele>
        <time>2010-07-03T10:26:05Z</time>
      </trkpt>
      <trkpt lat="43.57349" lon="6.636">
        <ele>214.85022</ele>
        <time>2010-07-03T10:26:08Z</time>
      </trkpt>
      <trkpt lat="43.57364" lon="6.63596">
        <ele>217.780579</ele>
        <time>2010-07-03T10:26:16Z</time>
      </trkpt>
      <trkpt lat="43.57386" lon="6.63576">
        <ele>221.646774</ele>
        <time>2010-07-03T10:26:29Z</time>
      </trkpt>
      <trkpt lat="43.57418" lon="6.63525">
        <ele>224.242798</ele>
        <time>2010-07-03T10:26:53Z</time>
      </trkpt>
      <trkpt lat="43.5744" lon="6.63491">
        <ele>224.140701</ele>
        <time>2010-07-03T10:27:10Z</time>
      </trkpt>
      <trkpt lat="43.57452" lon="6.63486">
        <ele>226.136765</ele>
        <time>2010-07-03T10:27:17Z</time>
      </trkpt>
      <trkpt lat="43.57457" lon="6.63486">
        <ele>226.733002</ele>
        <time>2010-07-03T10:27:20Z</time>
      </trkpt>
      <trkpt lat="43.57463" lon="6.63491">
        <ele>228.3629</ele>
        <time>2010-07-03T10:27:23Z</time>
      </trkpt>
      <trkpt lat="43.57482" lon="6.63508">
        <ele>234.32991</ele>
        <time>2010-07-03T10:27:34Z</time>
      </trkpt>
      <trkpt lat="43.57493" lon="6.63512">
        <ele>236.536545</ele>
        <time>2010-07-03T10:27:40Z</time>
      </trkpt>
      <trkpt lat="43.57506" lon="6.63512">
        <ele>237.799622</ele>
        <time>2010-07-03T10:27:46Z</time>
      </trkpt>
      <trkpt lat="43.57519" lon="6.63499">
        <ele>237.015564</ele>
        <time>2010-07-03T10:27:53Z</time>
      </trkpt>
      <trkpt lat="43.57523" lon="6.63499">
        <ele>237.640915</ele>
        <time>2010-07-03T10:27:55Z</time>
      </trkpt>
      <trkpt lat="43.57536" lon="6.6348">
        <ele>237.663483</ele>
        <time>2010-07-03T10:28:04Z</time>
      </trkpt>
      <trkpt lat="43.57536" lon="6.63478">
        <ele>237.444321</ele>
        <time>2010-07-03T10:28:05Z</time>
      </trkpt>
      <trkpt lat="43.57549" lon="6.6343">
        <ele>236.666809</ele>
        <time>2010-07-03T10:28:22Z</time>
      </trkpt>
      <trkpt lat="43.57558" lon="6.63422">
        <ele>237.176849</ele>
        <time>2010-07-03T10:28:28Z</time>
      </trkpt>
      <trkpt lat="43.57568" lon="6.63418">
        <ele>238.183914</ele>
        <time>2010-07-03T10:28:34Z</time>
      </trkpt>
      <trkpt lat="43.57575" lon="6.63424">
        <ele>239.638565</ele>
        <time>2010-07-03T10:28:37Z</time>
      </trkpt>
      <trkpt lat="43.57579" lon="6.63426">
        <ele>240.42897</ele>
        <time>2010-07-03T10:28:39Z</time>
      </trkpt>
      <trkpt lat="43.57585" lon="6.63428">
        <ele>241.525711</ele>
        <time>2010-07-03T10:28:42Z</time>
      </trkpt>
      <trkpt lat="43.57594" lon="6.63426">
        <ele>242.12973</ele>
        <time>2010-07-03T10:28:45Z</time>
      </trkpt>
      <trkpt lat="43.57596" lon="6.63424">
        <ele>241.960388</ele>
        <time>2010-07-03T10:28:47Z</time>
      </trkpt>
      <trkpt lat="43.57607" lon="6.63415">
        <ele>241.360123</ele>
        <time>2010-07-03T10:28:53Z</time>
      </trkpt>
      <trkpt lat="43.57624" lon="6.63388">
        <ele>237.634842</ele>
        <time>2010-07-03T10:29:05Z</time>
      </trkpt>
      <trkpt lat="43.57637" lon="6.63383">
        <ele>237.45665</ele>
        <time>2010-07-03T10:29:10Z</time>
      </trkpt>
      <trkpt lat="43.57654" lon="6.63388">
        <ele>237.90126</ele>
        <time>2010-07-03T10:29:16Z</time>
      </trkpt>
      <trkpt lat="43.57671" lon="6.63396">
        <ele>238.511902</ele>
        <time>2010-07-03T10:29:22Z</time>
      </trkpt>
      <trkpt lat="43.57678" lon="6.63392">
        <ele>237.925339</ele>
        <time>2010-07-03T10:29:24Z</time>
      </trkpt>
      <trkpt lat="43.57699" lon="6.6337">
        <ele>237.901855</ele>
        <time>2010-07-03T10:29:32Z</time>
      </trkpt>
      <trkpt lat="43.57699" lon="6.63366">
        <ele>237.510544</ele>
        <time>2010-07-03T10:29:33Z</time>
      </trkpt>
      <trkpt lat="43.57708" lon="6.63325">
        <ele>236.856216</ele>
        <time>2010-07-03T10:29:41Z</time>
      </trkpt>
      <trkpt lat="43.57716" lon="6.63321">
        <ele>237.713318</ele>
        <time>2010-07-03T10:29:43Z</time>
      </trkpt>
      <trkpt lat="43.57731" lon="6.6331">
        <ele>239.020996</ele>
        <time>2010-07-03T10:29:47Z</time>
      </trkpt>
      <trkpt lat="43.57731" lon="6.63287">
        <ele>238.982681</ele>
        <time>2010-07-03T10:29:54Z</time>
      </trkpt>
      <trkpt lat="43.57723" lon="6.6328">
        <ele>238.752304</ele>
        <time>2010-07-03T10:29:58Z</time>
      </trkpt>
      <trkpt lat="43.5771" lon="6.63274">
        <ele>238.29892</ele>
        <time>2010-07-03T10:30:04Z</time>
      </trkpt>
      <trkpt lat="43.57686" lon="6.63257">
        <ele>237.905228</ele>
        <time>2010-07-03T10:30:15Z</time>
      </trkpt>
      <trkpt lat="43.5768" lon="6.63257">
        <ele>236.982925</ele>
        <time>2010-07-03T10:30:18Z</time>
      </trkpt>
      <trkpt lat="43.57669" lon="6.63257">
        <ele>235.435791</ele>
        <time>2010-07-03T10:30:23Z</time>
      </trkpt>
      <trkpt lat="43.57641" lon="6.63248">
        <ele>232.225555</ele>
        <time>2010-07-03T10:30:35Z</time>
      </trkpt>
      <trkpt lat="43.57633" lon="6.63235">
        <ele>232.043167</ele>
        <time>2010-07-03T10:30:42Z</time>
      </trkpt>
      <trkpt lat="43.57633" lon="6.63227">
        <ele>232.920349</ele>
        <time>2010-07-03T10:30:46Z</time>
      </trkpt>
      <trkpt lat="43.57635" lon="6.63212">
        <ele>234.396301</ele>
        <time>2010-07-03T10:30:52Z</time>
      </trkpt>
      <trkpt lat="43.57652" lon="6.63192">
        <ele>237.574692</ele>
        <time>2010-07-03T10:31:04Z</time>
      </trkpt>
      <trkpt lat="43.57661" lon="6.63188">
        <ele>238.668793</ele>
        <time>2010-07-03T10:31:10Z</time>
      </trkpt>
      <trkpt lat="43.57686" lon="6.63188">
        <ele>241.592041</ele>
        <time>2010-07-03T10:31:22Z</time>
      </trkpt>
      <trkpt lat="43.57693" lon="6.63184">
        <ele>242.362244</ele>
        <time>2010-07-03T10:31:25Z</time>
      </trkpt>
      <trkpt lat="43.57699" lon="6.63182">
        <ele>242.917114</ele>
        <time>2010-07-03T10:31:27Z</time>
      </trkpt>
      <trkpt lat="43.5771" lon="6.63179">
        <ele>243.833801</ele>
        <time>2010-07-03T10:31:31Z</time>
      </trkpt>
      <trkpt lat="43.57716" lon="6.63179">
        <ele>244.344284</ele>
        <time>2010-07-03T10:31:34Z</time>
      </trkpt>
      <trkpt lat="43.57736" lon="6.63154">
        <ele>246.892319</ele>
        <time>2010-07-03T10:31:47Z</time>
      </trkpt>
      <trkpt lat="43.57738" lon="6.63143">
        <ele>247.037735</ele>
        <time>2010-07-03T10:31:52Z</time>
      </trkpt>
      <trkpt lat="43.57729" lon="6.63145">
        <ele>246.33522</ele>
        <time>2010-07-03T10:31:56Z</time>
      </trkpt>
      <trkpt lat="43.57723" lon="6.63149">
        <ele>245.792297</ele>
        <time>2010-07-03T10:31:59Z</time>
      </trkpt>
      <trkpt lat="43.57708" lon="6.63154">
        <ele>244.481659</ele>
        <time>2010-07-03T10:32:05Z</time>
      </trkpt>
      <trkpt lat="43.57699" lon="6.63154">
        <ele>243.731476</ele>
        <time>2010-07-03T10:32:21Z</time>
      </trkpt>
      <trkpt lat="43.57699" lon="6.63149">
        <ele>243.775085</ele>
        <time>2010-07-03T10:32:52Z</time>
      </trkpt>
      <trkpt lat="43.57695" lon="6.63139">
        <ele>243.532883</ele>
        <time>2010-07-03T10:32:55Z</time>
      </trkpt>
      <trkpt lat="43.57693" lon="6.63128">
        <ele>243.482178</ele>
        <time>2010-07-03T10:33:01Z</time>
      </trkpt>
      <trkpt lat="43.57693" lon="6.63124">
        <ele>243.525085</ele>
        <time>2010-07-03T10:33:35Z</time>
      </trkpt>
      <trkpt lat="43.57699" lon="6.63117">
        <ele>244.118912</ele>
        <time>2010-07-03T10:33:38Z</time>
      </trkpt>
      <trkpt lat="43.5771" lon="6.63106">
        <ele>244.995956</ele>
        <time>2010-07-03T10:33:44Z</time>
      </trkpt>
      <trkpt lat="43.57712" lon="6.63106">
        <ele>245.146393</ele>
        <time>2010-07-03T10:33:46Z</time>
      </trkpt>
      <trkpt lat="43.57761" lon="6.63102">
        <ele>248.459137</ele>
        <time>2010-07-03T10:34:09Z</time>
      </trkpt>
      <trkpt lat="43.57791" lon="6.63102">
        <ele>250.390244</ele>
        <time>2010-07-03T10:34:22Z</time>
      </trkpt>
      <trkpt lat="43.57806" lon="6.63111">
        <ele>252.142578</ele>
        <time>2010-07-03T10:34:29Z</time>
      </trkpt>
      <trkpt lat="43.57817" lon="6.63106">
        <ele>252.92215</ele>
        <time>2010-07-03T10:34:32Z</time>
      </trkpt>
      <trkpt lat="43.57819" lon="6.63106">
        <ele>253.097214</ele>
        <time>2010-07-03T10:34:33Z</time>
      </trkpt>
      <trkpt lat="43.57824" lon="6.63106">
        <ele>253.447357</ele>
        <time>2010-07-03T10:34:35Z</time>
      </trkpt>
      <trkpt lat="43.57841" lon="6.63113">
        <ele>255.242584</ele>
        <time>2010-07-03T10:34:40Z</time>
      </trkpt>
      <trkpt lat="43.5786" lon="6.63109">
        <ele>256.691772</ele>
        <time>2010-07-03T10:34:46Z</time>
      </trkpt>
      <trkpt lat="43.57875" lon="6.63091">
        <ele>257.086212</ele>
        <time>2010-07-03T10:34:51Z</time>
      </trkpt>
      <trkpt lat="43.5789" lon="6.63068">
        <ele>256.826324</ele>
        <time>2010-07-03T10:34:56Z</time>
      </trkpt>
      <trkpt lat="43.57892" lon="6.63053">
        <ele>256.193848</ele>
        <time>2010-07-03T10:34:59Z</time>
      </trkpt>
      <trkpt lat="43.57894" lon="6.63049">
        <ele>256.289917</ele>
        <time>2010-07-03T10:35:00Z</time>
      </trkpt>
      <trkpt lat="43.57886" lon="6.63036">
        <ele>255.947174</ele>
        <time>2010-07-03T10:35:04Z</time>
      </trkpt>
      <trkpt lat="43.57875" lon="6.63018">
        <ele>255.1129</ele>
        <time>2010-07-03T10:35:10Z</time>
      </trkpt>
      <trkpt lat="43.57867" lon="6.62999">
        <ele>253.598206</ele>
        <time>2010-07-03T10:35:16Z</time>
      </trkpt>
      <trkpt lat="43.57847" lon="6.62965">
        <ele>250.69928</ele>
        <time>2010-07-03T10:35:28Z</time>
      </trkpt>
      <trkpt lat="43.57843" lon="6.62943">
        <ele>250.995804</ele>
        <time>2010-07-03T10:35:34Z</time>
      </trkpt>
      <trkpt lat="43.57841" lon="6.62922">
        <ele>251.757889</ele>
        <time>2010-07-03T10:35:40Z</time>
      </trkpt>
      <trkpt lat="43.57843" lon="6.62892">
        <ele>252.82048</ele>
        <time>2010-07-03T10:35:59Z</time>
      </trkpt>
      <trkpt lat="43.57849" lon="6.62888">
        <ele>253.858765</ele>
        <time>2010-07-03T10:36:28Z</time>
      </trkpt>
      <trkpt lat="43.57864" lon="6.62877">
        <ele>256.210266</ele>
        <time>2010-07-03T10:36:40Z</time>
      </trkpt>
      <trkpt lat="43.57884" lon="6.62836">
        <ele>257.056335</ele>
        <time>2010-07-03T10:36:58Z</time>
      </trkpt>
      <trkpt lat="43.57909" lon="6.62823">
        <ele>259.141876</ele>
        <time>2010-07-03T10:37:10Z</time>
      </trkpt>
      <trkpt lat="43.5792" lon="6.62825">
        <ele>260.489716</ele>
        <time>2010-07-03T10:37:14Z</time>
      </trkpt>
      <trkpt lat="43.57929" lon="6.62827">
        <ele>261.569244</ele>
        <time>2010-07-03T10:37:17Z</time>
      </trkpt>
      <trkpt lat="43.57933" lon="6.62825">
        <ele>261.711609</ele>
        <time>2010-07-03T10:37:19Z</time>
      </trkpt>
      <trkpt lat="43.57939" lon="6.62821">
        <ele>261.723877</ele>
        <time>2010-07-03T10:37:22Z</time>
      </trkpt>
      <trkpt lat="43.57965" lon="6.62808">
        <ele>261.736237</ele>
        <time>2010-07-03T10:37:35Z</time>
      </trkpt>
      <trkpt lat="43.58012" lon="6.62812">
        <ele>263.662048</ele>
        <time>2010-07-03T10:37:59Z</time>
      </trkpt>
      <trkpt lat="43.58023" lon="6.62817">
        <ele>264.501434</ele>
        <time>2010-07-03T10:38:04Z</time>
      </trkpt>
      <trkpt lat="43.58034" lon="6.6283">
        <ele>266.25824</ele>
        <time>2010-07-03T10:38:11Z</time>
      </trkpt>
      <trkpt lat="43.58042" lon="6.6284">
        <ele>267.612579</ele>
        <time>2010-07-03T10:38:17Z</time>
      </trkpt>
      <trkpt lat="43.58045" lon="6.62851">
        <ele>268.289001</ele>
        <time>2010-07-03T10:38:21Z</time>
      </trkpt>
      <trkpt lat="43.58053" lon="6.62879">
        <ele>270.143158</ele>
        <time>2010-07-03T10:38:34Z</time>
      </trkpt>
      <trkpt lat="43.58062" lon="6.62866">
        <ele>270.480286</ele>
        <time>2010-07-03T10:38:39Z</time>
      </trkpt>
      <trkpt lat="43.58092" lon="6.6278">
        <ele>269.005768</ele>
        <time>2010-07-03T10:38:54Z</time>
      </trkpt>
      <trkpt lat="43.5815" lon="6.62679">
        <ele>267.679321</ele>
        <time>2010-07-03T10:39:09Z</time>
      </trkpt>
      <trkpt lat="43.58154" lon="6.62673">
        <ele>267.879028</ele>
        <time>2010-07-03T10:39:10Z</time>
      </trkpt>
      <trkpt lat="43.58154" lon="6.62637">
        <ele>266.072083</ele>
        <time>2010-07-03T10:39:14Z</time>
      </trkpt>
      <trkpt lat="43.58152" lon="6.62621">
        <ele>266.067505</ele>
        <time>2010-07-03T10:39:16Z</time>
      </trkpt>
      <trkpt lat="43.5813" lon="6.62521">
        <ele>266.602936</ele>
        <time>2010-07-03T10:39:32Z</time>
      </trkpt>
      <trkpt lat="43.58128" lon="6.62506">
        <ele>266.896606</ele>
        <time>2010-07-03T10:39:35Z</time>
      </trkpt>
      <trkpt lat="43.58124" lon="6.62443">
        <ele>269.313507</ele>
        <time>2010-07-03T10:39:47Z</time>
      </trkpt>
      <trkpt lat="43.58107" lon="6.62396">
        <ele>271.804871</ele>
        <time>2010-07-03T10:39:59Z</time>
      </trkpt>
      <trkpt lat="43.58077" lon="6.62343">
        <ele>275.646881</ele>
        <time>2010-07-03T10:40:17Z</time>
      </trkpt>
      <trkpt lat="43.58057" lon="6.62285">
        <ele>278.272644</ele>
        <time>2010-07-03T10:40:35Z</time>
      </trkpt>
      <trkpt lat="43.58049" lon="6.62203">
        <ele>277.744446</ele>
        <time>2010-07-03T10:40:53Z</time>
      </trkpt>
      <trkpt lat="43.58038" lon="6.62173">
        <ele>275.868896</ele>
        <time>2010-07-03T10:40:57Z</time>
      </trkpt>
      <trkpt lat="43.57985" lon="6.62074">
        <ele>264.40332</ele>
        <time>2010-07-03T10:41:09Z</time>
      </trkpt>
      <trkpt lat="43.5798" lon="6.62068">
        <ele>263.817383</ele>
        <time>2010-07-03T10:41:10Z</time>
      </trkpt>
      <trkpt lat="43.57937" lon="6.62074">
        <ele>264.83609</ele>
        <time>2010-07-03T10:41:15Z</time>
      </trkpt>
      <trkpt lat="43.57929" lon="6.62079">
        <ele>265.067627</ele>
        <time>2010-07-03T10:41:16Z</time>
      </trkpt>
      <trkpt lat="43.57884" lon="6.62098">
        <ele>264.845703</ele>
        <time>2010-07-03T10:41:21Z</time>
      </trkpt>
      <trkpt lat="43.57826" lon="6.62113">
        <ele>263.674622</ele>
        <time>2010-07-03T10:41:27Z</time>
      </trkpt>
      <trkpt lat="43.57806" lon="6.62119">
        <ele>262.22345</ele>
        <time>2010-07-03T10:41:29Z</time>
      </trkpt>
      <trkpt lat="43.57755" lon="6.6213">
        <ele>257.715668</ele>
        <time>2010-07-03T10:41:34Z</time>
      </trkpt>
      <trkpt lat="43.57712" lon="6.62141">
        <ele>254.712723</ele>
        <time>2010-07-03T10:41:38Z</time>
      </trkpt>
      <trkpt lat="43.5768" lon="6.62147">
        <ele>251.61731</ele>
        <time>2010-07-03T10:41:41Z</time>
      </trkpt>
      <trkpt lat="43.57669" lon="6.62149">
        <ele>250.41095</ele>
        <time>2010-07-03T10:41:42Z</time>
      </trkpt>
      <trkpt lat="43.57615" lon="6.62156">
        <ele>246.200363</ele>
        <time>2010-07-03T10:41:47Z</time>
      </trkpt>
      <trkpt lat="43.57562" lon="6.62162">
        <ele>245.745819</ele>
        <time>2010-07-03T10:41:52Z</time>
      </trkpt>
      <trkpt lat="43.57551" lon="6.62167">
        <ele>246.464264</ele>
        <time>2010-07-03T10:41:53Z</time>
      </trkpt>
      <trkpt lat="43.57521" lon="6.62177">
        <ele>245.277908</ele>
        <time>2010-07-03T10:41:56Z</time>
      </trkpt>
      <trkpt lat="43.57512" lon="6.62177">
        <ele>244.396515</ele>
        <time>2010-07-03T10:41:57Z</time>
      </trkpt>
      <trkpt lat="43.57502" lon="6.62177">
        <ele>242.998016</ele>
        <time>2010-07-03T10:41:58Z</time>
      </trkpt>
      <trkpt lat="43.57515" lon="6.62141">
        <ele>238.015869</ele>
        <time>2010-07-03T10:42:02Z</time>
      </trkpt>
      <trkpt lat="43.5753" lon="6.62128">
        <ele>237.765228</ele>
        <time>2010-07-03T10:42:04Z</time>
      </trkpt>
      <trkpt lat="43.5759" lon="6.62087">
        <ele>235.317398</ele>
        <time>2010-07-03T10:42:12Z</time>
      </trkpt>
      <trkpt lat="43.57624" lon="6.62042">
        <ele>234.225189</ele>
        <time>2010-07-03T10:42:17Z</time>
      </trkpt>
      <trkpt lat="43.57639" lon="6.62008">
        <ele>233.540405</ele>
        <time>2010-07-03T10:42:20Z</time>
      </trkpt>
      <trkpt lat="43.57654" lon="6.61963">
        <ele>231.476517</ele>
        <time>2010-07-03T10:42:24Z</time>
      </trkpt>
      <trkpt lat="43.5768" lon="6.61896">
        <ele>227.016266</ele>
        <time>2010-07-03T10:42:30Z</time>
      </trkpt>
      <trkpt lat="43.57721" lon="6.61793">
        <ele>219.459686</ele>
        <time>2010-07-03T10:42:39Z</time>
      </trkpt>
      <trkpt lat="43.57727" lon="6.61783">
        <ele>217.84584</ele>
        <time>2010-07-03T10:42:40Z</time>
      </trkpt>
      <trkpt lat="43.57731" lon="6.61774">
        <ele>216.519104</ele>
        <time>2010-07-03T10:42:43Z</time>
      </trkpt>
      <trkpt lat="43.57733" lon="6.61772">
        <ele>216.183624</ele>
        <time>2010-07-03T10:42:44Z</time>
      </trkpt>
      <trkpt lat="43.57721" lon="6.61757">
        <ele>213.888168</ele>
        <time>2010-07-03T10:42:53Z</time>
      </trkpt>
      <trkpt lat="43.57706" lon="6.61761">
        <ele>214.581192</ele>
        <time>2010-07-03T10:42:57Z</time>
      </trkpt>
      <trkpt lat="43.57678" lon="6.61763">
        <ele>213.040543</ele>
        <time>2010-07-03T10:43:04Z</time>
      </trkpt>
      <trkpt lat="43.57656" lon="6.6177">
        <ele>212.084671</ele>
        <time>2010-07-03T10:43:09Z</time>
      </trkpt>
      <trkpt lat="43.57654" lon="6.61767">
        <ele>211.607178</ele>
        <time>2010-07-03T10:43:10Z</time>
      </trkpt>
      <trkpt lat="43.5765" lon="6.61767">
        <ele>211.153519</ele>
        <time>2010-07-03T10:43:11Z</time>
      </trkpt>
      <trkpt lat="43.57635" lon="6.61759">
        <ele>208.678864</ele>
        <time>2010-07-03T10:43:15Z</time>
      </trkpt>
      <trkpt lat="43.5763" lon="6.61757">
        <ele>208.032089</ele>
        <time>2010-07-03T10:43:16Z</time>
      </trkpt>
      <trkpt lat="43.57611" lon="6.61744">
        <ele>204.946396</ele>
        <time>2010-07-03T10:43:21Z</time>
      </trkpt>
      <trkpt lat="43.57585" lon="6.61729">
        <ele>200.380981</ele>
        <time>2010-07-03T10:43:28Z</time>
      </trkpt>
      <trkpt lat="43.57585" lon="6.61718">
        <ele>199.235596</ele>
        <time>2010-07-03T10:43:30Z</time>
      </trkpt>
      <trkpt lat="43.57585" lon="6.61712">
        <ele>198.540787</ele>
        <time>2010-07-03T10:43:31Z</time>
      </trkpt>
      <trkpt lat="43.57585" lon="6.61705">
        <ele>197.847153</ele>
        <time>2010-07-03T10:43:32Z</time>
      </trkpt>
      <trkpt lat="43.57588" lon="6.61675">
        <ele>194.85495</ele>
        <time>2010-07-03T10:43:37Z</time>
      </trkpt>
      <trkpt lat="43.57598" lon="6.61658">
        <ele>193.586838</ele>
        <time>2010-07-03T10:43:41Z</time>
      </trkpt>
      <trkpt lat="43.57603" lon="6.61654">
        <ele>193.245193</ele>
        <time>2010-07-03T10:43:42Z</time>
      </trkpt>
      <trkpt lat="43.5759" lon="6.61639">
        <ele>189.654358</ele>
        <time>2010-07-03T10:43:48Z</time>
      </trkpt>
      <trkpt lat="43.57579" lon="6.61643">
        <ele>189.455261</ele>
        <time>2010-07-03T10:43:51Z</time>
      </trkpt>
      <trkpt lat="43.57575" lon="6.61645">
        <ele>189.418945</ele>
        <time>2010-07-03T10:43:52Z</time>
      </trkpt>
      <trkpt lat="43.57566" lon="6.61649">
        <ele>189.238403</ele>
        <time>2010-07-03T10:43:54Z</time>
      </trkpt>
      <trkpt lat="43.57555" lon="6.61647">
        <ele>187.862701</ele>
        <time>2010-07-03T10:43:56Z</time>
      </trkpt>
      <trkpt lat="43.57549" lon="6.61645">
        <ele>186.956863</ele>
        <time>2010-07-03T10:43:57Z</time>
      </trkpt>
      <trkpt lat="43.57523" lon="6.61645">
        <ele>184.464905</ele>
        <time>2010-07-03T10:44:01Z</time>
      </trkpt>
      <trkpt lat="43.57508" lon="6.61647">
        <ele>183.591888</ele>
        <time>2010-07-03T10:44:04Z</time>
      </trkpt>
      <trkpt lat="43.57502" lon="6.61649">
        <ele>183.255524</ele>
        <time>2010-07-03T10:44:05Z</time>
      </trkpt>
      <trkpt lat="43.57482" lon="6.61656">
        <ele>182.030716</ele>
        <time>2010-07-03T10:44:08Z</time>
      </trkpt>
      <trkpt lat="43.57435" lon="6.6168">
        <ele>181.022278</ele>
        <time>2010-07-03T10:44:17Z</time>
      </trkpt>
      <trkpt lat="43.57424" lon="6.61697">
        <ele>182.406616</ele>
        <time>2010-07-03T10:44:20Z</time>
      </trkpt>
      <trkpt lat="43.57412" lon="6.61712">
        <ele>183.743546</ele>
        <time>2010-07-03T10:44:23Z</time>
      </trkpt>
      <trkpt lat="43.5739" lon="6.61716">
        <ele>184.682877</ele>
        <time>2010-07-03T10:44:29Z</time>
      </trkpt>
      <trkpt lat="43.57373" lon="6.61705">
        <ele>183.126984</ele>
        <time>2010-07-03T10:44:35Z</time>
      </trkpt>
      <trkpt lat="43.5736" lon="6.61692">
        <ele>182.149048</ele>
        <time>2010-07-03T10:44:43Z</time>
      </trkpt>
      <trkpt lat="43.5736" lon="6.61692">
        <ele>182.149048</ele>
        <time>2010-07-03T10:44:44Z</time>
      </trkpt>
      <trkpt lat="43.57356" lon="6.61688">
        <ele>181.899353</ele>
        <time>2010-07-03T10:44:49Z</time>
      </trkpt>
      <trkpt lat="43.57343" lon="6.61684">
        <ele>181.645401</ele>
        <time>2010-07-03T10:44:58Z</time>
      </trkpt>
      <trkpt lat="43.5733" lon="6.61684">
        <ele>180.994873</ele>
        <time>2010-07-03T10:45:04Z</time>
      </trkpt>
      <trkpt lat="43.57253" lon="6.61707">
        <ele>176.408066</ele>
        <time>2010-07-03T10:45:24Z</time>
      </trkpt>
      <trkpt lat="43.57231" lon="6.61712">
        <ele>177.189346</ele>
        <time>2010-07-03T10:45:29Z</time>
      </trkpt>
      <trkpt lat="43.57135" lon="6.6171">
        <ele>179.486069</ele>
        <time>2010-07-03T10:45:53Z</time>
      </trkpt>
      <trkpt lat="43.57051" lon="6.61731">
        <ele>177.659302</ele>
        <time>2010-07-03T10:46:17Z</time>
      </trkpt>
      <trkpt lat="43.57013" lon="6.61731">
        <ele>176.823975</ele>
        <time>2010-07-03T10:46:28Z</time>
      </trkpt>
      <trkpt lat="43.56995" lon="6.61727">
        <ele>176.55899</ele>
        <time>2010-07-03T10:46:34Z</time>
      </trkpt>
      <trkpt lat="43.56989" lon="6.61716">
        <ele>176.173584</ele>
        <time>2010-07-03T10:46:37Z</time>
      </trkpt>
      <trkpt lat="43.56985" lon="6.61707">
        <ele>175.813293</ele>
        <time>2010-07-03T10:46:39Z</time>
      </trkpt>
      <trkpt lat="43.5697" lon="6.61686">
        <ele>175.245346</ele>
        <time>2010-07-03T10:46:44Z</time>
      </trkpt>
      <trkpt lat="43.56967" lon="6.61682">
        <ele>175.021393</ele>
        <time>2010-07-03T10:46:45Z</time>
      </trkpt>
      <trkpt lat="43.56948" lon="6.61611">
        <ele>172.278076</ele>
        <time>2010-07-03T10:46:58Z</time>
      </trkpt>
      <trkpt lat="43.5692" lon="6.6154">
        <ele>167.429626</ele>
        <time>2010-07-03T10:47:17Z</time>
      </trkpt>
      <trkpt lat="43.56907" lon="6.61525">
        <ele>165.067764</ele>
        <time>2010-07-03T10:47:22Z</time>
      </trkpt>
      <trkpt lat="43.5689" lon="6.61519">
        <ele>163.556076</ele>
        <time>2010-07-03T10:47:29Z</time>
      </trkpt>
      <trkpt lat="43.56877" lon="6.61519">
        <ele>163.15979</ele>
        <time>2010-07-03T10:47:34Z</time>
      </trkpt>
      <trkpt lat="43.56871" lon="6.61534">
        <ele>163.300507</ele>
        <time>2010-07-03T10:47:41Z</time>
      </trkpt>
      <trkpt lat="43.56871" lon="6.61536">
        <ele>163.349915</ele>
        <time>2010-07-03T10:47:42Z</time>
      </trkpt>
      <trkpt lat="43.56869" lon="6.61551">
        <ele>163.636261</ele>
        <time>2010-07-03T10:47:47Z</time>
      </trkpt>
      <trkpt lat="43.56867" lon="6.61598">
        <ele>166.685165</ele>
        <time>2010-07-03T10:48:04Z</time>
      </trkpt>
      <trkpt lat="43.56864" lon="6.61617">
        <ele>168.177841</ele>
        <time>2010-07-03T10:48:11Z</time>
      </trkpt>
      <trkpt lat="43.56856" lon="6.61641">
        <ele>170.599915</ele>
        <time>2010-07-03T10:48:23Z</time>
      </trkpt>
      <trkpt lat="43.56856" lon="6.61656">
        <ele>172.356461</ele>
        <time>2010-07-03T10:48:29Z</time>
      </trkpt>
      <trkpt lat="43.56856" lon="6.61671">
        <ele>174.119446</ele>
        <time>2010-07-03T10:48:35Z</time>
      </trkpt>
      <trkpt lat="43.56854" lon="6.61699">
        <ele>177.569397</ele>
        <time>2010-07-03T10:48:46Z</time>
      </trkpt>
      <trkpt lat="43.56849" lon="6.61716">
        <ele>179.649246</ele>
        <time>2010-07-03T10:48:53Z</time>
      </trkpt>
      <trkpt lat="43.56845" lon="6.61729">
        <ele>181.251373</ele>
        <time>2010-07-03T10:48:59Z</time>
      </trkpt>
      <trkpt lat="43.56837" lon="6.6175">
        <ele>183.674118</ele>
        <time>2010-07-03T10:49:10Z</time>
      </trkpt>
      <trkpt lat="43.56834" lon="6.61767">
        <ele>185.601151</ele>
        <time>2010-07-03T10:49:17Z</time>
      </trkpt>
      <trkpt lat="43.56834" lon="6.61778">
        <ele>186.823975</ele>
        <time>2010-07-03T10:49:22Z</time>
      </trkpt>
      <trkpt lat="43.56832" lon="6.61795">
        <ele>188.736832</ele>
        <time>2010-07-03T10:49:29Z</time>
      </trkpt>
      <trkpt lat="43.56834" lon="6.61808">
        <ele>189.822891</ele>
        <time>2010-07-03T10:49:34Z</time>
      </trkpt>
      <trkpt lat="43.56837" lon="6.61823">
        <ele>191.084167</ele>
        <time>2010-07-03T10:49:41Z</time>
      </trkpt>
      <trkpt lat="43.56837" lon="6.61836">
        <ele>192.135544</ele>
        <time>2010-07-03T10:49:46Z</time>
      </trkpt>
      <trkpt lat="43.56834" lon="6.6184">
        <ele>192.451324</ele>
        <time>2010-07-03T10:49:49Z</time>
      </trkpt>
      <trkpt lat="43.56832" lon="6.61843">
        <ele>192.591873</ele>
        <time>2010-07-03T10:49:50Z</time>
      </trkpt>
      <trkpt lat="43.5683" lon="6.61849">
        <ele>193.082886</ele>
        <time>2010-07-03T10:49:53Z</time>
      </trkpt>
      <trkpt lat="43.56822" lon="6.61866">
        <ele>194.268112</ele>
        <time>2010-07-03T10:50:03Z</time>
      </trkpt>
      <trkpt lat="43.568" lon="6.61896">
        <ele>195.827667</ele>
        <time>2010-07-03T10:50:21Z</time>
      </trkpt>
      <trkpt lat="43.5677" lon="6.61946">
        <ele>197.390137</ele>
        <time>2010-07-03T10:50:48Z</time>
      </trkpt>
      <trkpt lat="43.5677" lon="6.61946">
        <ele>197.390137</ele>
        <time>2010-07-03T10:50:58Z</time>
      </trkpt>
      <trkpt lat="43.5677" lon="6.6195">
        <ele>197.678833</ele>
        <time>2010-07-03T10:51:10Z</time>
      </trkpt>
      <trkpt lat="43.5677" lon="6.61963">
        <ele>198.544891</ele>
        <time>2010-07-03T10:51:16Z</time>
      </trkpt>
      <trkpt lat="43.56766" lon="6.61967">
        <ele>198.568314</ele>
        <time>2010-07-03T10:51:18Z</time>
      </trkpt>
      <trkpt lat="43.56757" lon="6.61976">
        <ele>198.643784</ele>
        <time>2010-07-03T10:51:21Z</time>
      </trkpt>
      <trkpt lat="43.56749" lon="6.61986">
        <ele>199.386185</ele>
        <time>2010-07-03T10:51:25Z</time>
      </trkpt>
      <trkpt lat="43.56742" lon="6.61991">
        <ele>199.733475</ele>
        <time>2010-07-03T10:51:27Z</time>
      </trkpt>
      <trkpt lat="43.56738" lon="6.61999">
        <ele>200.597809</ele>
        <time>2010-07-03T10:51:30Z</time>
      </trkpt>
      <trkpt lat="43.56729" lon="6.6201">
        <ele>201.554398</ele>
        <time>2010-07-03T10:51:35Z</time>
      </trkpt>
      <trkpt lat="43.56716" lon="6.62019">
        <ele>202.084702</ele>
        <time>2010-07-03T10:51:40Z</time>
      </trkpt>
      <trkpt lat="43.5668" lon="6.62012">
        <ele>200.324631</ele>
        <time>2010-07-03T10:51:51Z</time>
      </trkpt>
      <trkpt lat="43.56656" lon="6.62025">
        <ele>200.637115</ele>
        <time>2010-07-03T10:51:59Z</time>
      </trkpt>
      <trkpt lat="43.56622" lon="6.62042">
        <ele>200.859039</ele>
        <time>2010-07-03T10:52:11Z</time>
      </trkpt>
      <trkpt lat="43.56609" lon="6.62057">
        <ele>201.402786</ele>
        <time>2010-07-03T10:52:17Z</time>
      </trkpt>
      <trkpt lat="43.56601" lon="6.62068">
        <ele>201.415253</ele>
        <time>2010-07-03T10:52:21Z</time>
      </trkpt>
      <trkpt lat="43.5657" lon="6.62126">
        <ele>203.975418</ele>
        <time>2010-07-03T10:52:41Z</time>
      </trkpt>
      <trkpt lat="43.56568" lon="6.62145">
        <ele>205.735245</ele>
        <time>2010-07-03T10:52:47Z</time>
      </trkpt>
      <trkpt lat="43.56558" lon="6.62179">
        <ele>208.34433</ele>
        <time>2010-07-03T10:52:59Z</time>
      </trkpt>
      <trkpt lat="43.56538" lon="6.62225">
        <ele>210.432709</ele>
        <time>2010-07-03T10:53:17Z</time>
      </trkpt>
      <trkpt lat="43.56523" lon="6.62252">
        <ele>211.670837</ele>
        <time>2010-07-03T10:53:29Z</time>
      </trkpt>
      <trkpt lat="43.56508" lon="6.62274">
        <ele>212.413986</ele>
        <time>2010-07-03T10:53:40Z</time>
      </trkpt>
      <trkpt lat="43.56517" lon="6.6227">
        <ele>212.965118</ele>
        <time>2010-07-03T10:53:46Z</time>
      </trkpt>
      <trkpt lat="43.56519" lon="6.6227">
        <ele>213.233551</ele>
        <time>2010-07-03T10:53:47Z</time>
      </trkpt>
      <trkpt lat="43.5656" lon="6.62242">
        <ele>215.506424</ele>
        <time>2010-07-03T10:54:10Z</time>
      </trkpt>
      <trkpt lat="43.56583" lon="6.62227">
        <ele>216.814957</ele>
        <time>2010-07-03T10:54:23Z</time>
      </trkpt>
      <trkpt lat="43.56603" lon="6.62222">
        <ele>218.783035</ele>
        <time>2010-07-03T10:54:34Z</time>
      </trkpt>
      <trkpt lat="43.56609" lon="6.62225">
        <ele>219.54039</ele>
        <time>2010-07-03T10:54:37Z</time>
      </trkpt>
      <trkpt lat="43.56618" lon="6.62225">
        <ele>220.251205</ele>
        <time>2010-07-03T10:54:41Z</time>
      </trkpt>
      <trkpt lat="43.56626" lon="6.62227">
        <ele>221.142944</ele>
        <time>2010-07-03T10:54:45Z</time>
      </trkpt>
      <trkpt lat="43.56641" lon="6.62229">
        <ele>222.56778</ele>
        <time>2010-07-03T10:54:53Z</time>
      </trkpt>
      <trkpt lat="43.56652" lon="6.62227">
        <ele>223.045837</ele>
        <time>2010-07-03T10:54:59Z</time>
      </trkpt>
      <trkpt lat="43.56676" lon="6.62212">
        <ele>222.05925</ele>
        <time>2010-07-03T10:55:11Z</time>
      </trkpt>
      <trkpt lat="43.56684" lon="6.6221">
        <ele>221.986725</ele>
        <time>2010-07-03T10:55:16Z</time>
      </trkpt>
      <trkpt lat="43.56695" lon="6.6222">
        <ele>223.166534</ele>
        <time>2010-07-03T10:55:22Z</time>
      </trkpt>
      <trkpt lat="43.56701" lon="6.62225">
        <ele>223.359543</ele>
        <time>2010-07-03T10:55:25Z</time>
      </trkpt>
      <trkpt lat="43.56706" lon="6.62231">
        <ele>223.826401</ele>
        <time>2010-07-03T10:55:28Z</time>
      </trkpt>
      <trkpt lat="43.56712" lon="6.62244">
        <ele>224.905045</ele>
        <time>2010-07-03T10:55:34Z</time>
      </trkpt>
      <trkpt lat="43.56708" lon="6.62259">
        <ele>226.33197</ele>
        <time>2010-07-03T10:55:40Z</time>
      </trkpt>
      <trkpt lat="43.56706" lon="6.62265">
        <ele>226.917221</ele>
        <time>2010-07-03T10:55:42Z</time>
      </trkpt>
      <trkpt lat="43.56682" lon="6.62304">
        <ele>229.687302</ele>
        <time>2010-07-03T10:55:59Z</time>
      </trkpt>
      <trkpt lat="43.56676" lon="6.62321">
        <ele>230.70137</ele>
        <time>2010-07-03T10:56:05Z</time>
      </trkpt>
      <trkpt lat="43.56658" lon="6.6237">
        <ele>233.250687</ele>
        <time>2010-07-03T10:56:23Z</time>
      </trkpt>
      <trkpt lat="43.56661" lon="6.62388">
        <ele>234.682526</ele>
        <time>2010-07-03T10:56:29Z</time>
      </trkpt>
      <trkpt lat="43.56665" lon="6.62405">
        <ele>236.30162</ele>
        <time>2010-07-03T10:56:35Z</time>
      </trkpt>
      <trkpt lat="43.56669" lon="6.62416">
        <ele>237.393448</ele>
        <time>2010-07-03T10:56:40Z</time>
      </trkpt>
      <trkpt lat="43.56693" lon="6.62431">
        <ele>240.167267</ele>
        <time>2010-07-03T10:56:52Z</time>
      </trkpt>
      <trkpt lat="43.56699" lon="6.62426">
        <ele>240.238708</ele>
        <time>2010-07-03T10:56:55Z</time>
      </trkpt>
      <trkpt lat="43.56714" lon="6.62418">
        <ele>240.57045</ele>
        <time>2010-07-03T10:57:00Z</time>
      </trkpt>
      <trkpt lat="43.56721" lon="6.62411">
        <ele>240.592789</ele>
        <time>2010-07-03T10:57:03Z</time>
      </trkpt>
      <trkpt lat="43.56764" lon="6.62381">
        <ele>240.328445</ele>
        <time>2010-07-03T10:57:23Z</time>
      </trkpt>
      <trkpt lat="43.56791" lon="6.62375">
        <ele>241.279648</ele>
        <time>2010-07-03T10:57:35Z</time>
      </trkpt>
      <trkpt lat="43.56807" lon="6.62375">
        <ele>241.874268</ele>
        <time>2010-07-03T10:57:41Z</time>
      </trkpt>
      <trkpt lat="43.56819" lon="6.62379">
        <ele>242.668854</ele>
        <time>2010-07-03T10:57:47Z</time>
      </trkpt>
      <trkpt lat="43.56856" lon="6.62407">
        <ele>244.651093</ele>
        <time>2010-07-03T10:58:05Z</time>
      </trkpt>
      <trkpt lat="43.56862" lon="6.62424">
        <ele>244.950668</ele>
        <time>2010-07-03T10:58:11Z</time>
      </trkpt>
      <trkpt lat="43.56871" lon="6.62461">
        <ele>246.014648</ele>
        <time>2010-07-03T10:58:22Z</time>
      </trkpt>
      <trkpt lat="43.56871" lon="6.62508">
        <ele>245.631622</ele>
        <time>2010-07-03T10:58:29Z</time>
      </trkpt>
      <trkpt lat="43.56875" lon="6.62542">
        <ele>245.922516</ele>
        <time>2010-07-03T10:58:33Z</time>
      </trkpt>
      <trkpt lat="43.56894" lon="6.62602">
        <ele>246.715942</ele>
        <time>2010-07-03T10:58:41Z</time>
      </trkpt>
      <trkpt lat="43.56894" lon="6.62615">
        <ele>247.064102</ele>
        <time>2010-07-03T10:58:44Z</time>
      </trkpt>
      <trkpt lat="43.56894" lon="6.62619">
        <ele>247.267151</ele>
        <time>2010-07-03T10:58:45Z</time>
      </trkpt>
      <trkpt lat="43.56892" lon="6.62632">
        <ele>247.070999</ele>
        <time>2010-07-03T10:58:49Z</time>
      </trkpt>
      <trkpt lat="43.5689" lon="6.62641">
        <ele>246.671783</ele>
        <time>2010-07-03T10:58:52Z</time>
      </trkpt>
      <trkpt lat="43.5689" lon="6.62645">
        <ele>246.874832</ele>
        <time>2010-07-03T10:58:53Z</time>
      </trkpt>
      <trkpt lat="43.56888" lon="6.62673">
        <ele>247.186264</ele>
        <time>2010-07-03T10:59:03Z</time>
      </trkpt>
      <trkpt lat="43.56888" lon="6.62675">
        <ele>247.228058</ele>
        <time>2010-07-03T10:59:04Z</time>
      </trkpt>
      <trkpt lat="43.56888" lon="6.62677">
        <ele>247.269714</ele>
        <time>2010-07-03T10:59:05Z</time>
      </trkpt>
      <trkpt lat="43.56888" lon="6.62697">
        <ele>247.638748</ele>
        <time>2010-07-03T10:59:11Z</time>
      </trkpt>
      <trkpt lat="43.5689" lon="6.62714">
        <ele>248.73082</ele>
        <time>2010-07-03T10:59:17Z</time>
      </trkpt>
      <trkpt lat="43.56894" lon="6.62729">
        <ele>250.518539</ele>
        <time>2010-07-03T10:59:22Z</time>
      </trkpt>
      <trkpt lat="43.56894" lon="6.6275">
        <ele>250.923203</ele>
        <time>2010-07-03T10:59:29Z</time>
      </trkpt>
      <trkpt lat="43.56899" lon="6.62791">
        <ele>252.476105</ele>
        <time>2010-07-03T10:59:41Z</time>
      </trkpt>
      <trkpt lat="43.56907" lon="6.62817">
        <ele>249.888763</ele>
        <time>2010-07-03T10:59:49Z</time>
      </trkpt>
      <trkpt lat="43.56914" lon="6.62838">
        <ele>247.908417</ele>
        <time>2010-07-03T10:59:54Z</time>
      </trkpt>
      <trkpt lat="43.56942" lon="6.6287">
        <ele>250.957535</ele>
        <time>2010-07-03T11:00:03Z</time>
      </trkpt>
      <trkpt lat="43.56946" lon="6.62875">
        <ele>251.286377</ele>
        <time>2010-07-03T11:00:04Z</time>
      </trkpt>
      <trkpt lat="43.56948" lon="6.62881">
        <ele>250.723434</ele>
        <time>2010-07-03T11:00:05Z</time>
      </trkpt>
      <trkpt lat="43.5697" lon="6.62967">
        <ele>246.220413</ele>
        <time>2010-07-03T11:00:23Z</time>
      </trkpt>
      <trkpt lat="43.5697" lon="6.62993">
        <ele>244.32608</ele>
        <time>2010-07-03T11:00:30Z</time>
      </trkpt>
      <trkpt lat="43.56967" lon="6.63008">
        <ele>243.508545</ele>
        <time>2010-07-03T11:00:34Z</time>
      </trkpt>
      <trkpt lat="43.5697" lon="6.63059">
        <ele>241.549713</ele>
        <time>2010-07-03T11:00:47Z</time>
      </trkpt>
      <trkpt lat="43.56967" lon="6.63102">
        <ele>240.360687</ele>
        <time>2010-07-03T11:00:54Z</time>
      </trkpt>
      <trkpt lat="43.56952" lon="6.63164">
        <ele>240.841736</ele>
        <time>2010-07-03T11:01:00Z</time>
      </trkpt>
      <trkpt lat="43.56933" lon="6.63222">
        <ele>239.909424</ele>
        <time>2010-07-03T11:01:05Z</time>
      </trkpt>
      <trkpt lat="43.56912" lon="6.63278">
        <ele>232.415619</ele>
        <time>2010-07-03T11:01:10Z</time>
      </trkpt>
      <trkpt lat="43.56871" lon="6.634">
        <ele>224.821701</ele>
        <time>2010-07-03T11:01:21Z</time>
      </trkpt>
      <trkpt lat="43.56862" lon="6.63418">
        <ele>227.041519</ele>
        <time>2010-07-03T11:01:24Z</time>
      </trkpt>
      <trkpt lat="43.56856" lon="6.63445">
        <ele>230.123001</ele>
        <time>2010-07-03T11:01:32Z</time>
      </trkpt>
      <trkpt lat="43.56854" lon="6.63456">
        <ele>231.438324</ele>
        <time>2010-07-03T11:01:36Z</time>
      </trkpt>
      <trkpt lat="43.56847" lon="6.63471">
        <ele>233.711777</ele>
        <time>2010-07-03T11:01:41Z</time>
      </trkpt>
      <trkpt lat="43.56837" lon="6.63484">
        <ele>235.00412</ele>
        <time>2010-07-03T11:01:47Z</time>
      </trkpt>
      <trkpt lat="43.56789" lon="6.63544">
        <ele>238.908707</ele>
        <time>2010-07-03T11:02:11Z</time>
      </trkpt>
      <trkpt lat="43.56776" lon="6.63563">
        <ele>239.570053</ele>
        <time>2010-07-03T11:02:18Z</time>
      </trkpt>
      <trkpt lat="43.56768" lon="6.63583">
        <ele>238.654007</ele>
        <time>2010-07-03T11:02:23Z</time>
      </trkpt>
      <trkpt lat="43.56723" lon="6.63671">
        <ele>237.256058</ele>
        <time>2010-07-03T11:02:43Z</time>
      </trkpt>
      <trkpt lat="43.56716" lon="6.63688">
        <ele>236.429504</ele>
        <time>2010-07-03T11:02:45Z</time>
      </trkpt>
      <trkpt lat="43.5671" lon="6.63707">
        <ele>235.791229</ele>
        <time>2010-07-03T11:02:47Z</time>
      </trkpt>
      <trkpt lat="43.56695" lon="6.63733">
        <ele>235.135849</ele>
        <time>2010-07-03T11:02:50Z</time>
      </trkpt>
      <trkpt lat="43.56686" lon="6.63752">
        <ele>234.735123</ele>
        <time>2010-07-03T11:02:52Z</time>
      </trkpt>
      <trkpt lat="43.56682" lon="6.63774">
        <ele>233.612442</ele>
        <time>2010-07-03T11:02:54Z</time>
      </trkpt>
      <trkpt lat="43.56676" lon="6.63815">
        <ele>230.870529</ele>
        <time>2010-07-03T11:02:59Z</time>
      </trkpt>
      <trkpt lat="43.56671" lon="6.63827">
        <ele>229.362488</ele>
        <time>2010-07-03T11:03:01Z</time>
      </trkpt>
      <trkpt lat="43.56665" lon="6.63838">
        <ele>227.720322</ele>
        <time>2010-07-03T11:03:03Z</time>
      </trkpt>
      <trkpt lat="43.56643" lon="6.63866">
        <ele>226.204117</ele>
        <time>2010-07-03T11:03:10Z</time>
      </trkpt>
      <trkpt lat="43.56641" lon="6.6387">
        <ele>226.304504</ele>
        <time>2010-07-03T11:03:11Z</time>
      </trkpt>
      <trkpt lat="43.56633" lon="6.6387">
        <ele>226.971649</ele>
        <time>2010-07-03T11:03:13Z</time>
      </trkpt>
      <trkpt lat="43.56631" lon="6.6387">
        <ele>227.145279</ele>
        <time>2010-07-03T11:03:14Z</time>
      </trkpt>
      <trkpt lat="43.56618" lon="6.63872">
        <ele>226.267456</ele>
        <time>2010-07-03T11:03:17Z</time>
      </trkpt>
      <trkpt lat="43.56575" lon="6.63872">
        <ele>220.623123</ele>
        <time>2010-07-03T11:03:27Z</time>
      </trkpt>
      <trkpt lat="43.5657" lon="6.63872">
        <ele>219.561386</ele>
        <time>2010-07-03T11:03:28Z</time>
      </trkpt>
      <trkpt lat="43.56549" lon="6.63881">
        <ele>215.054947</ele>
        <time>2010-07-03T11:03:34Z</time>
      </trkpt>
      <trkpt lat="43.56538" lon="6.63913">
        <ele>213.569702</ele>
        <time>2010-07-03T11:03:40Z</time>
      </trkpt>
      <trkpt lat="43.56534" lon="6.63933">
        <ele>213.133072</ele>
        <time>2010-07-03T11:03:43Z</time>
      </trkpt>
      <trkpt lat="43.5653" lon="6.63945">
        <ele>211.590164</ele>
        <time>2010-07-03T11:03:45Z</time>
      </trkpt>
      <trkpt lat="43.56517" lon="6.63986">
        <ele>207.157181</ele>
        <time>2010-07-03T11:03:52Z</time>
      </trkpt>
      <trkpt lat="43.56513" lon="6.63997">
        <ele>206.328018</ele>
        <time>2010-07-03T11:03:54Z</time>
      </trkpt>
      <trkpt lat="43.56504" lon="6.64018">
        <ele>201.831863</ele>
        <time>2010-07-03T11:03:58Z</time>
      </trkpt>
      <trkpt lat="43.56489" lon="6.64018">
        <ele>200.121582</ele>
        <time>2010-07-03T11:04:03Z</time>
      </trkpt>
      <trkpt lat="43.56483" lon="6.64021">
        <ele>198.5522</ele>
        <time>2010-07-03T11:04:05Z</time>
      </trkpt>
      <trkpt lat="43.56467" lon="6.64027">
        <ele>194.655167</ele>
        <time>2010-07-03T11:04:08Z</time>
      </trkpt>
      <trkpt lat="43.56476" lon="6.64048">
        <ele>195.326462</ele>
        <time>2010-07-03T11:04:14Z</time>
      </trkpt>
      <trkpt lat="43.5648" lon="6.64048">
        <ele>196.045334</ele>
        <time>2010-07-03T11:04:15Z</time>
      </trkpt>
      <trkpt lat="43.56485" lon="6.64051">
        <ele>196.586639</ele>
        <time>2010-07-03T11:04:16Z</time>
      </trkpt>
      <trkpt lat="43.565" lon="6.64061">
        <ele>194.976974</ele>
        <time>2010-07-03T11:04:20Z</time>
      </trkpt>
      <trkpt lat="43.56502" lon="6.64072">
        <ele>191.771851</ele>
        <time>2010-07-03T11:04:23Z</time>
      </trkpt>
      <trkpt lat="43.56502" lon="6.64113">
        <ele>180.113861</ele>
        <time>2010-07-03T11:04:33Z</time>
      </trkpt>
      <trkpt lat="43.56502" lon="6.64143">
        <ele>183.066193</ele>
        <time>2010-07-03T11:04:41Z</time>
      </trkpt>
      <trkpt lat="43.565" lon="6.64166">
        <ele>189.074203</ele>
        <time>2010-07-03T11:04:47Z</time>
      </trkpt>
      <trkpt lat="43.5651" lon="6.64179">
        <ele>192.224945</ele>
        <time>2010-07-03T11:04:53Z</time>
      </trkpt>
      <trkpt lat="43.56523" lon="6.64184">
        <ele>192.749725</ele>
        <time>2010-07-03T11:04:59Z</time>
      </trkpt>
      <trkpt lat="43.56528" lon="6.64186">
        <ele>192.7686</ele>
        <time>2010-07-03T11:05:02Z</time>
      </trkpt>
      <trkpt lat="43.56538" lon="6.6419">
        <ele>192.651855</ele>
        <time>2010-07-03T11:05:06Z</time>
      </trkpt>
      <trkpt lat="43.56566" lon="6.64201">
        <ele>190.934784</ele>
        <time>2010-07-03T11:05:16Z</time>
      </trkpt>
      <trkpt lat="43.56577" lon="6.6422">
        <ele>192.229507</ele>
        <time>2010-07-03T11:05:21Z</time>
      </trkpt>
      <trkpt lat="43.56579" lon="6.64239">
        <ele>194.430466</ele>
        <time>2010-07-03T11:05:25Z</time>
      </trkpt>
      <trkpt lat="43.56581" lon="6.64244">
        <ele>194.301071</ele>
        <time>2010-07-03T11:05:26Z</time>
      </trkpt>
      <trkpt lat="43.56581" lon="6.64257">
        <ele>195.675613</ele>
        <time>2010-07-03T11:05:29Z</time>
      </trkpt>
      <trkpt lat="43.56581" lon="6.64282">
        <ele>197.55983</ele>
        <time>2010-07-03T11:05:35Z</time>
      </trkpt>
      <trkpt lat="43.56586" lon="6.64297">
        <ele>196.478317</ele>
        <time>2010-07-03T11:05:38Z</time>
      </trkpt>
      <trkpt lat="43.56588" lon="6.64302">
        <ele>195.63147</ele>
        <time>2010-07-03T11:05:39Z</time>
      </trkpt>
      <trkpt lat="43.56596" lon="6.64345">
        <ele>195.42572</ele>
        <time>2010-07-03T11:05:47Z</time>
      </trkpt>
      <trkpt lat="43.56613" lon="6.64396">
        <ele>196.53479</ele>
        <time>2010-07-03T11:05:58Z</time>
      </trkpt>
      <trkpt lat="43.56618" lon="6.644">
        <ele>196.427521</ele>
        <time>2010-07-03T11:05:59Z</time>
      </trkpt>
      <trkpt lat="43.56637" lon="6.64422">
        <ele>197.513458</ele>
        <time>2010-07-03T11:06:04Z</time>
      </trkpt>
      <trkpt lat="43.56641" lon="6.64422">
        <ele>196.936935</ele>
        <time>2010-07-03T11:06:06Z</time>
      </trkpt>
      <trkpt lat="43.56646" lon="6.64422">
        <ele>196.353424</ele>
        <time>2010-07-03T11:06:08Z</time>
      </trkpt>
      <trkpt lat="43.5665" lon="6.64426">
        <ele>196.838852</ele>
        <time>2010-07-03T11:06:11Z</time>
      </trkpt>
      <trkpt lat="43.56654" lon="6.64428">
        <ele>196.519318</ele>
        <time>2010-07-03T11:06:13Z</time>
      </trkpt>
      <trkpt lat="43.56658" lon="6.64435">
        <ele>196.966263</ele>
        <time>2010-07-03T11:06:16Z</time>
      </trkpt>
      <trkpt lat="43.56725" lon="6.64508">
        <ele>199.961075</ele>
        <time>2010-07-03T11:06:45Z</time>
      </trkpt>
      <trkpt lat="43.56746" lon="6.64525">
        <ele>197.494781</ele>
        <time>2010-07-03T11:06:53Z</time>
      </trkpt>
      <trkpt lat="43.56764" lon="6.64533">
        <ele>193.917389</ele>
        <time>2010-07-03T11:06:58Z</time>
      </trkpt>
      <trkpt lat="43.56781" lon="6.64546">
        <ele>191.307465</ele>
        <time>2010-07-03T11:07:04Z</time>
      </trkpt>
      <trkpt lat="43.56791" lon="6.64563">
        <ele>192.347855</ele>
        <time>2010-07-03T11:07:08Z</time>
      </trkpt>
      <trkpt lat="43.56794" lon="6.64574">
        <ele>193.059311</ele>
        <time>2010-07-03T11:07:10Z</time>
      </trkpt>
      <trkpt lat="43.56809" lon="6.64615">
        <ele>190.740143</ele>
        <time>2010-07-03T11:07:19Z</time>
      </trkpt>
      <trkpt lat="43.56815" lon="6.64664">
        <ele>192.515457</ele>
        <time>2010-07-03T11:07:29Z</time>
      </trkpt>
      <trkpt lat="43.56815" lon="6.64692">
        <ele>196.293854</ele>
        <time>2010-07-03T11:07:35Z</time>
      </trkpt>
      <trkpt lat="43.5683" lon="6.64769">
        <ele>198.603226</ele>
        <time>2010-07-03T11:07:52Z</time>
      </trkpt>
      <trkpt lat="43.56841" lon="6.64791">
        <ele>199.772537</ele>
        <time>2010-07-03T11:07:57Z</time>
      </trkpt>
      <trkpt lat="43.56852" lon="6.64827">
        <ele>199.493576</ele>
        <time>2010-07-03T11:08:07Z</time>
      </trkpt>
      <trkpt lat="43.56856" lon="6.64838">
        <ele>198.882843</ele>
        <time>2010-07-03T11:08:10Z</time>
      </trkpt>
      <trkpt lat="43.56875" lon="6.64907">
        <ele>202.952911</ele>
        <time>2010-07-03T11:08:29Z</time>
      </trkpt>
      <trkpt lat="43.56882" lon="6.64926">
        <ele>205.035507</ele>
        <time>2010-07-03T11:08:34Z</time>
      </trkpt>
      <trkpt lat="43.56877" lon="6.64941">
        <ele>205.217545</ele>
        <time>2010-07-03T11:08:38Z</time>
      </trkpt>
      <trkpt lat="43.56877" lon="6.64948">
        <ele>205.568619</ele>
        <time>2010-07-03T11:08:40Z</time>
      </trkpt>
      <trkpt lat="43.56879" lon="6.6496">
        <ele>206.6259</ele>
        <time>2010-07-03T11:08:45Z</time>
      </trkpt>
      <trkpt lat="43.56879" lon="6.64969">
        <ele>207.226273</ele>
        <time>2010-07-03T11:08:48Z</time>
      </trkpt>
      <trkpt lat="43.56884" lon="6.65001">
        <ele>210.028824</ele>
        <time>2010-07-03T11:08:58Z</time>
      </trkpt>
      <trkpt lat="43.56884" lon="6.65023">
        <ele>211.386993</ele>
        <time>2010-07-03T11:09:04Z</time>
      </trkpt>
      <trkpt lat="43.56882" lon="6.65046">
        <ele>212.12262</ele>
        <time>2010-07-03T11:09:11Z</time>
      </trkpt>
      <trkpt lat="43.56879" lon="6.65078">
        <ele>213.243423</ele>
        <time>2010-07-03T11:09:22Z</time>
      </trkpt>
      <trkpt lat="43.56877" lon="6.65098">
        <ele>213.573608</ele>
        <time>2010-07-03T11:09:29Z</time>
      </trkpt>
      <trkpt lat="43.56877" lon="6.65115">
        <ele>214.03299</ele>
        <time>2010-07-03T11:09:35Z</time>
      </trkpt>
      <trkpt lat="43.56873" lon="6.65177">
        <ele>215.668045</ele>
        <time>2010-07-03T11:09:52Z</time>
      </trkpt>
      <trkpt lat="43.56875" lon="6.65226">
        <ele>216.965942</ele>
        <time>2010-07-03T11:10:05Z</time>
      </trkpt>
      <trkpt lat="43.56877" lon="6.65241">
        <ele>217.348724</ele>
        <time>2010-07-03T11:10:11Z</time>
      </trkpt>
      <trkpt lat="43.56882" lon="6.65257">
        <ele>217.749634</ele>
        <time>2010-07-03T11:10:17Z</time>
      </trkpt>
      <trkpt lat="43.56884" lon="6.65272">
        <ele>218.1138</ele>
        <time>2010-07-03T11:10:23Z</time>
      </trkpt>
      <trkpt lat="43.56882" lon="6.65297">
        <ele>218.578949</ele>
        <time>2010-07-03T11:10:34Z</time>
      </trkpt>
      <trkpt lat="43.56864" lon="6.65329">
        <ele>219.392807</ele>
        <time>2010-07-03T11:10:47Z</time>
      </trkpt>
      <trkpt lat="43.5686" lon="6.65349">
        <ele>219.153778</ele>
        <time>2010-07-03T11:10:53Z</time>
      </trkpt>
      <trkpt lat="43.56856" lon="6.65387">
        <ele>218.585587</ele>
        <time>2010-07-03T11:11:05Z</time>
      </trkpt>
      <trkpt lat="43.56843" lon="6.65443">
        <ele>217.905029</ele>
        <time>2010-07-03T11:11:23Z</time>
      </trkpt>
      <trkpt lat="43.56837" lon="6.65462">
        <ele>217.989655</ele>
        <time>2010-07-03T11:11:29Z</time>
      </trkpt>
      <trkpt lat="43.5683" lon="6.65486">
        <ele>218.066162</ele>
        <time>2010-07-03T11:11:35Z</time>
      </trkpt>
      <trkpt lat="43.56822" lon="6.65512">
        <ele>217.702805</ele>
        <time>2010-07-03T11:11:40Z</time>
      </trkpt>
      <trkpt lat="43.56817" lon="6.65518">
        <ele>217.484879</ele>
        <time>2010-07-03T11:11:41Z</time>
      </trkpt>
      <trkpt lat="43.56811" lon="6.65533">
        <ele>216.935547</ele>
        <time>2010-07-03T11:11:44Z</time>
      </trkpt>
      <trkpt lat="43.56768" lon="6.65619">
        <ele>212.663849</ele>
        <time>2010-07-03T11:12:04Z</time>
      </trkpt>
      <trkpt lat="43.5674" lon="6.65651">
        <ele>210.694962</ele>
        <time>2010-07-03T11:12:11Z</time>
      </trkpt>
      <trkpt lat="43.56714" lon="6.65677">
        <ele>207.591995</ele>
        <time>2010-07-03T11:12:17Z</time>
      </trkpt>
      <trkpt lat="43.5671" lon="6.65679">
        <ele>206.956818</ele>
        <time>2010-07-03T11:12:18Z</time>
      </trkpt>
      <trkpt lat="43.56691" lon="6.65681">
        <ele>204.00322</ele>
        <time>2010-07-03T11:12:22Z</time>
      </trkpt>
      <trkpt lat="43.56686" lon="6.65681">
        <ele>203.530258</ele>
        <time>2010-07-03T11:12:23Z</time>
      </trkpt>
      <trkpt lat="43.56673" lon="6.65679">
        <ele>202.159164</ele>
        <time>2010-07-03T11:12:26Z</time>
      </trkpt>
      <trkpt lat="43.56665" lon="6.65679">
        <ele>201.205978</ele>
        <time>2010-07-03T11:12:28Z</time>
      </trkpt>
      <trkpt lat="43.5665" lon="6.65679">
        <ele>199.509048</ele>
        <time>2010-07-03T11:12:31Z</time>
      </trkpt>
      <trkpt lat="43.56626" lon="6.65681">
        <ele>198.987076</ele>
        <time>2010-07-03T11:12:36Z</time>
      </trkpt>
      <trkpt lat="43.56611" lon="6.65684">
        <ele>198.876526</ele>
        <time>2010-07-03T11:12:39Z</time>
      </trkpt>
      <trkpt lat="43.56573" lon="6.65692">
        <ele>198.439331</ele>
        <time>2010-07-03T11:12:47Z</time>
      </trkpt>
      <trkpt lat="43.56562" lon="6.65692">
        <ele>198.413101</ele>
        <time>2010-07-03T11:12:49Z</time>
      </trkpt>
      <trkpt lat="43.56538" lon="6.65709">
        <ele>198.094116</ele>
        <time>2010-07-03T11:12:56Z</time>
      </trkpt>
      <trkpt lat="43.5654" lon="6.6572">
        <ele>197.865753</ele>
        <time>2010-07-03T11:12:59Z</time>
      </trkpt>
      <trkpt lat="43.56543" lon="6.65724">
        <ele>197.716553</ele>
        <time>2010-07-03T11:13:00Z</time>
      </trkpt>
      <trkpt lat="43.56579" lon="6.6578">
        <ele>198.246796</ele>
        <time>2010-07-03T11:13:22Z</time>
      </trkpt>
      <trkpt lat="43.56624" lon="6.65885">
        <ele>198.351227</ele>
        <time>2010-07-03T11:13:53Z</time>
      </trkpt>
      <trkpt lat="43.56656" lon="6.65984">
        <ele>199.286545</ele>
        <time>2010-07-03T11:14:17Z</time>
      </trkpt>
      <trkpt lat="43.56658" lon="6.66005">
        <ele>200.681198</ele>
        <time>2010-07-03T11:14:23Z</time>
      </trkpt>
      <trkpt lat="43.56656" lon="6.66044">
        <ele>203.947098</ele>
        <time>2010-07-03T11:14:35Z</time>
      </trkpt>
      <trkpt lat="43.56652" lon="6.66061">
        <ele>206.017548</ele>
        <time>2010-07-03T11:14:41Z</time>
      </trkpt>
      <trkpt lat="43.56637" lon="6.66087">
        <ele>209.478607</ele>
        <time>2010-07-03T11:14:53Z</time>
      </trkpt>
      <trkpt lat="43.5662" lon="6.66106">
        <ele>210.268265</ele>
        <time>2010-07-03T11:15:05Z</time>
      </trkpt>
      <trkpt lat="43.56609" lon="6.66141">
        <ele>212.463898</ele>
        <time>2010-07-03T11:15:23Z</time>
      </trkpt>
      <trkpt lat="43.56603" lon="6.66149">
        <ele>212.28096</ele>
        <time>2010-07-03T11:15:28Z</time>
      </trkpt>
      <trkpt lat="43.56596" lon="6.6616">
        <ele>212.421539</ele>
        <time>2010-07-03T11:15:34Z</time>
      </trkpt>
      <trkpt lat="43.56594" lon="6.66173">
        <ele>213.736481</ele>
        <time>2010-07-03T11:15:40Z</time>
      </trkpt>
      <trkpt lat="43.56601" lon="6.6619">
        <ele>217.366028</ele>
        <time>2010-07-03T11:15:47Z</time>
      </trkpt>
      <trkpt lat="43.56605" lon="6.66201">
        <ele>219.501358</ele>
        <time>2010-07-03T11:15:53Z</time>
      </trkpt>
      <trkpt lat="43.56607" lon="6.66214">
        <ele>221.480621</ele>
        <time>2010-07-03T11:15:58Z</time>
      </trkpt>
      <trkpt lat="43.56598" lon="6.66218">
        <ele>220.958313</ele>
        <time>2010-07-03T11:16:03Z</time>
      </trkpt>
      <trkpt lat="43.56594" lon="6.66218">
        <ele>220.429062</ele>
        <time>2010-07-03T11:16:05Z</time>
      </trkpt>
      <trkpt lat="43.5659" lon="6.66218">
        <ele>219.903809</ele>
        <time>2010-07-03T11:16:07Z</time>
      </trkpt>
      <trkpt lat="43.56583" lon="6.6622">
        <ele>219.469284</ele>
        <time>2010-07-03T11:16:10Z</time>
      </trkpt>
      <trkpt lat="43.56573" lon="6.66222">
        <ele>218.512314</ele>
        <time>2010-07-03T11:16:16Z</time>
      </trkpt>
      <trkpt lat="43.56562" lon="6.66226">
        <ele>217.720795</ele>
        <time>2010-07-03T11:16:22Z</time>
      </trkpt>
      <trkpt lat="43.56553" lon="6.66241">
        <ele>218.310593</ele>
        <time>2010-07-03T11:16:29Z</time>
      </trkpt>
      <trkpt lat="43.56543" lon="6.66269">
        <ele>219.731995</ele>
        <time>2010-07-03T11:16:41Z</time>
      </trkpt>
      <trkpt lat="43.5654" lon="6.66301">
        <ele>223.38324</ele>
        <time>2010-07-03T11:16:53Z</time>
      </trkpt>
      <trkpt lat="43.56543" lon="6.6634">
        <ele>229.562454</ele>
        <time>2010-07-03T11:17:05Z</time>
      </trkpt>
      <trkpt lat="43.56538" lon="6.66374">
        <ele>233.39502</ele>
        <time>2010-07-03T11:17:16Z</time>
      </trkpt>
      <trkpt lat="43.56523" lon="6.66374">
        <ele>232.130524</ele>
        <time>2010-07-03T11:17:27Z</time>
      </trkpt>
      <trkpt lat="43.56521" lon="6.6637">
        <ele>231.430328</ele>
        <time>2010-07-03T11:17:29Z</time>
      </trkpt>
      <trkpt lat="43.56513" lon="6.6634">
        <ele>226.479645</ele>
        <time>2010-07-03T11:17:40Z</time>
      </trkpt>
      <trkpt lat="43.56504" lon="6.66342">
        <ele>226.002747</ele>
        <time>2010-07-03T11:17:44Z</time>
      </trkpt>
      <trkpt lat="43.56498" lon="6.66347">
        <ele>226.006302</ele>
        <time>2010-07-03T11:17:47Z</time>
      </trkpt>
      <trkpt lat="43.56495" lon="6.66349">
        <ele>226.099258</ele>
        <time>2010-07-03T11:17:48Z</time>
      </trkpt>
      <trkpt lat="43.5647" lon="6.664">
        <ele>230.857712</ele>
        <time>2010-07-03T11:18:09Z</time>
      </trkpt>
      <trkpt lat="43.56467" lon="6.66407">
        <ele>231.393692</ele>
        <time>2010-07-03T11:18:11Z</time>
      </trkpt>
      <trkpt lat="43.56465" lon="6.66424">
        <ele>233.218689</ele>
        <time>2010-07-03T11:18:17Z</time>
      </trkpt>
      <trkpt lat="43.56463" lon="6.66441">
        <ele>235.102158</ele>
        <time>2010-07-03T11:18:23Z</time>
      </trkpt>
      <trkpt lat="43.56452" lon="6.66525">
        <ele>240.507553</ele>
        <time>2010-07-03T11:18:52Z</time>
      </trkpt>
      <trkpt lat="43.56435" lon="6.66518">
        <ele>238.834595</ele>
        <time>2010-07-03T11:19:01Z</time>
      </trkpt>
      <trkpt lat="43.56435" lon="6.66516">
        <ele>238.755844</ele>
        <time>2010-07-03T11:19:02Z</time>
      </trkpt>
      <trkpt lat="43.56431" lon="6.66477">
        <ele>237.197601</ele>
        <time>2010-07-03T11:19:16Z</time>
      </trkpt>
      <trkpt lat="43.56422" lon="6.66465">
        <ele>235.783951</ele>
        <time>2010-07-03T11:19:22Z</time>
      </trkpt>
      <trkpt lat="43.56416" lon="6.66465">
        <ele>235.58786</ele>
        <time>2010-07-03T11:19:25Z</time>
      </trkpt>
      <trkpt lat="43.56405" lon="6.66471">
        <ele>236.074387</ele>
        <time>2010-07-03T11:19:30Z</time>
      </trkpt>
      <trkpt lat="43.56405" lon="6.66475">
        <ele>236.441849</ele>
        <time>2010-07-03T11:19:31Z</time>
      </trkpt>
      <trkpt lat="43.56401" lon="6.66484">
        <ele>237.140289</ele>
        <time>2010-07-03T11:19:35Z</time>
      </trkpt>
      <trkpt lat="43.56399" lon="6.66499">
        <ele>238.547623</ele>
        <time>2010-07-03T11:19:40Z</time>
      </trkpt>
      <trkpt lat="43.56399" lon="6.66501">
        <ele>238.747787</ele>
        <time>2010-07-03T11:19:41Z</time>
      </trkpt>
      <trkpt lat="43.56397" lon="6.66512">
        <ele>239.834656</ele>
        <time>2010-07-03T11:19:45Z</time>
      </trkpt>
      <trkpt lat="43.56397" lon="6.6652">
        <ele>240.648407</ele>
        <time>2010-07-03T11:19:48Z</time>
      </trkpt>
      <trkpt lat="43.56395" lon="6.66535">
        <ele>241.955872</ele>
        <time>2010-07-03T11:19:53Z</time>
      </trkpt>
      <trkpt lat="43.5639" lon="6.6655">
        <ele>243.008514</ele>
        <time>2010-07-03T11:19:59Z</time>
      </trkpt>
      <trkpt lat="43.56388" lon="6.66563">
        <ele>243.740067</ele>
        <time>2010-07-03T11:20:04Z</time>
      </trkpt>
      <trkpt lat="43.56364" lon="6.666">
        <ele>244.80249</ele>
        <time>2010-07-03T11:20:22Z</time>
      </trkpt>
      <trkpt lat="43.56362" lon="6.66602">
        <ele>244.861832</ele>
        <time>2010-07-03T11:20:23Z</time>
      </trkpt>
      <trkpt lat="43.56337" lon="6.6663">
        <ele>245.516785</ele>
        <time>2010-07-03T11:20:37Z</time>
      </trkpt>
      <trkpt lat="43.56317" lon="6.66645">
        <ele>245.599319</ele>
        <time>2010-07-03T11:20:47Z</time>
      </trkpt>
      <trkpt lat="43.56309" lon="6.66658">
        <ele>246.505844</ele>
        <time>2010-07-03T11:20:53Z</time>
      </trkpt>
      <trkpt lat="43.56294" lon="6.66703">
        <ele>250.105804</ele>
        <time>2010-07-03T11:21:13Z</time>
      </trkpt>
      <trkpt lat="43.56285" lon="6.66726">
        <ele>253.015533</ele>
        <time>2010-07-03T11:21:23Z</time>
      </trkpt>
      <trkpt lat="43.5627" lon="6.66752">
        <ele>255.557236</ele>
        <time>2010-07-03T11:21:35Z</time>
      </trkpt>
      <trkpt lat="43.56261" lon="6.66763">
        <ele>256.176483</ele>
        <time>2010-07-03T11:21:41Z</time>
      </trkpt>
      <trkpt lat="43.56225" lon="6.66821">
        <ele>260.089905</ele>
        <time>2010-07-03T11:22:05Z</time>
      </trkpt>
      <trkpt lat="43.56219" lon="6.66834">
        <ele>261.13446</ele>
        <time>2010-07-03T11:22:10Z</time>
      </trkpt>
      <trkpt lat="43.56206" lon="6.66853">
        <ele>261.611603</ele>
        <time>2010-07-03T11:22:18Z</time>
      </trkpt>
      <trkpt lat="43.56167" lon="6.66937">
        <ele>265.134399</ele>
        <time>2010-07-03T11:22:48Z</time>
      </trkpt>
      <trkpt lat="43.56161" lon="6.66947">
        <ele>264.798737</ele>
        <time>2010-07-03T11:22:53Z</time>
      </trkpt>
      <trkpt lat="43.56158" lon="6.66954">
        <ele>265.188263</ele>
        <time>2010-07-03T11:22:55Z</time>
      </trkpt>
      <trkpt lat="43.56156" lon="6.66965">
        <ele>266.280029</ele>
        <time>2010-07-03T11:22:59Z</time>
      </trkpt>
      <trkpt lat="43.56146" lon="6.67014">
        <ele>270.591949</ele>
        <time>2010-07-03T11:23:16Z</time>
      </trkpt>
      <trkpt lat="43.56139" lon="6.67029">
        <ele>270.736694</ele>
        <time>2010-07-03T11:23:22Z</time>
      </trkpt>
      <trkpt lat="43.56131" lon="6.67042">
        <ele>269.763489</ele>
        <time>2010-07-03T11:23:28Z</time>
      </trkpt>
      <trkpt lat="43.56124" lon="6.67059">
        <ele>270.04483</ele>
        <time>2010-07-03T11:23:35Z</time>
      </trkpt>
      <trkpt lat="43.56113" lon="6.67093">
        <ele>271.692993</ele>
        <time>2010-07-03T11:23:46Z</time>
      </trkpt>
      <trkpt lat="43.56107" lon="6.67113">
        <ele>272.218964</ele>
        <time>2010-07-03T11:23:53Z</time>
      </trkpt>
      <trkpt lat="43.56101" lon="6.6713">
        <ele>272.283691</ele>
        <time>2010-07-03T11:23:59Z</time>
      </trkpt>
      <trkpt lat="43.56058" lon="6.67248">
        <ele>275.081055</ele>
        <time>2010-07-03T11:24:39Z</time>
      </trkpt>
      <trkpt lat="43.56047" lon="6.67286">
        <ele>275.167389</ele>
        <time>2010-07-03T11:24:51Z</time>
      </trkpt>
      <trkpt lat="43.56045" lon="6.67295">
        <ele>275.311157</ele>
        <time>2010-07-03T11:24:54Z</time>
      </trkpt>
      <trkpt lat="43.56023" lon="6.67364">
        <ele>276.105499</ele>
        <time>2010-07-03T11:25:17Z</time>
      </trkpt>
      <trkpt lat="43.56021" lon="6.67381">
        <ele>276.7565</ele>
        <time>2010-07-03T11:25:23Z</time>
      </trkpt>
      <trkpt lat="43.56017" lon="6.674">
        <ele>277.009705</ele>
        <time>2010-07-03T11:25:29Z</time>
      </trkpt>
      <trkpt lat="43.56019" lon="6.67437">
        <ele>279.78418</ele>
        <time>2010-07-03T11:25:41Z</time>
      </trkpt>
      <trkpt lat="43.56023" lon="6.67454">
        <ele>281.595856</ele>
        <time>2010-07-03T11:25:47Z</time>
      </trkpt>
      <trkpt lat="43.56025" lon="6.67471">
        <ele>282.855438</ele>
        <time>2010-07-03T11:25:53Z</time>
      </trkpt>
      <trkpt lat="43.56025" lon="6.67486">
        <ele>283.577728</ele>
        <time>2010-07-03T11:25:59Z</time>
      </trkpt>
      <trkpt lat="43.56025" lon="6.67503">
        <ele>283.034729</ele>
        <time>2010-07-03T11:26:05Z</time>
      </trkpt>
      <trkpt lat="43.56028" lon="6.67518">
        <ele>282.344543</ele>
        <time>2010-07-03T11:26:10Z</time>
      </trkpt>
      <trkpt lat="43.56038" lon="6.67527">
        <ele>282.601654</ele>
        <time>2010-07-03T11:26:15Z</time>
      </trkpt>
      <trkpt lat="43.5604" lon="6.67527">
        <ele>282.778473</ele>
        <time>2010-07-03T11:26:16Z</time>
      </trkpt>
      <trkpt lat="43.56047" lon="6.67531">
        <ele>282.953552</ele>
        <time>2010-07-03T11:26:19Z</time>
      </trkpt>
      <trkpt lat="43.56051" lon="6.67533">
        <ele>283.120941</ele>
        <time>2010-07-03T11:26:21Z</time>
      </trkpt>
      <trkpt lat="43.56071" lon="6.6754">
        <ele>284.099426</ele>
        <time>2010-07-03T11:26:29Z</time>
      </trkpt>
      <trkpt lat="43.56105" lon="6.6755">
        <ele>284.220825</ele>
        <time>2010-07-03T11:26:46Z</time>
      </trkpt>
      <trkpt lat="43.56116" lon="6.67557">
        <ele>284.020996</ele>
        <time>2010-07-03T11:26:52Z</time>
      </trkpt>
      <trkpt lat="43.56126" lon="6.6757">
        <ele>283.827576</ele>
        <time>2010-07-03T11:26:58Z</time>
      </trkpt>
      <trkpt lat="43.56137" lon="6.67591">
        <ele>283.688538</ele>
        <time>2010-07-03T11:27:05Z</time>
      </trkpt>
      <trkpt lat="43.56143" lon="6.67606">
        <ele>283.710693</ele>
        <time>2010-07-03T11:27:10Z</time>
      </trkpt>
      <trkpt lat="43.56141" lon="6.67645">
        <ele>283.286804</ele>
        <time>2010-07-03T11:27:22Z</time>
      </trkpt>
      <trkpt lat="43.56143" lon="6.67668">
        <ele>283.557373</ele>
        <time>2010-07-03T11:27:28Z</time>
      </trkpt>
      <trkpt lat="43.56105" lon="6.67752">
        <ele>283.266541</ele>
        <time>2010-07-03T11:27:41Z</time>
      </trkpt>
      <trkpt lat="43.56028" lon="6.67969">
        <ele>282.294067</ele>
        <time>2010-07-03T11:28:16Z</time>
      </trkpt>
      <trkpt lat="43.55991" lon="6.68095">
        <ele>284.436066</ele>
        <time>2010-07-03T11:28:40Z</time>
      </trkpt>
      <trkpt lat="43.5597" lon="6.68211">
        <ele>290.200684</ele>
        <time>2010-07-03T11:29:06Z</time>
      </trkpt>
      <trkpt lat="43.55972" lon="6.68231">
        <ele>290.453064</ele>
        <time>2010-07-03T11:29:11Z</time>
      </trkpt>
      <trkpt lat="43.56013" lon="6.68364">
        <ele>291.360382</ele>
        <time>2010-07-03T11:29:48Z</time>
      </trkpt>
      <trkpt lat="43.56028" lon="6.684">
        <ele>292.165833</ele>
        <time>2010-07-03T11:29:59Z</time>
      </trkpt>
      <trkpt lat="43.56045" lon="6.68458">
        <ele>293.808105</ele>
        <time>2010-07-03T11:30:17Z</time>
      </trkpt>
      <trkpt lat="43.56047" lon="6.68477">
        <ele>294.279205</ele>
        <time>2010-07-03T11:30:23Z</time>
      </trkpt>
      <trkpt lat="43.56053" lon="6.68499">
        <ele>294.874023</ele>
        <time>2010-07-03T11:30:29Z</time>
      </trkpt>
      <trkpt lat="43.56055" lon="6.68518">
        <ele>295.292328</ele>
        <time>2010-07-03T11:30:35Z</time>
      </trkpt>
      <trkpt lat="43.56055" lon="6.68535">
        <ele>295.576874</ele>
        <time>2010-07-03T11:30:41Z</time>
      </trkpt>
      <trkpt lat="43.56066" lon="6.68576">
        <ele>297.996826</ele>
        <time>2010-07-03T11:30:53Z</time>
      </trkpt>
      <trkpt lat="43.56068" lon="6.68595">
        <ele>299.104431</ele>
        <time>2010-07-03T11:30:59Z</time>
      </trkpt>
      <trkpt lat="43.56073" lon="6.68625">
        <ele>301.187592</ele>
        <time>2010-07-03T11:31:10Z</time>
      </trkpt>
      <trkpt lat="43.56079" lon="6.6867">
        <ele>304.457306</ele>
        <time>2010-07-03T11:31:28Z</time>
      </trkpt>
      <trkpt lat="43.5609" lon="6.68713">
        <ele>309.793488</ele>
        <time>2010-07-03T11:31:46Z</time>
      </trkpt>
      <trkpt lat="43.5609" lon="6.68746">
        <ele>312.699341</ele>
        <time>2010-07-03T11:31:58Z</time>
      </trkpt>
      <trkpt lat="43.56086" lon="6.68761">
        <ele>313.143555</ele>
        <time>2010-07-03T11:32:04Z</time>
      </trkpt>
      <trkpt lat="43.56077" lon="6.6878">
        <ele>313.50412</ele>
        <time>2010-07-03T11:32:12Z</time>
      </trkpt>
      <trkpt lat="43.56055" lon="6.68842">
        <ele>312.630676</ele>
        <time>2010-07-03T11:32:35Z</time>
      </trkpt>
      <trkpt lat="43.56051" lon="6.68857">
        <ele>312.317444</ele>
        <time>2010-07-03T11:32:40Z</time>
      </trkpt>
      <trkpt lat="43.56032" lon="6.68936">
        <ele>309.639984</ele>
        <time>2010-07-03T11:32:56Z</time>
      </trkpt>
      <trkpt lat="43.56023" lon="6.68958">
        <ele>309.779053</ele>
        <time>2010-07-03T11:32:59Z</time>
      </trkpt>
      <trkpt lat="43.56002" lon="6.68982">
        <ele>308.680084</ele>
        <time>2010-07-03T11:33:03Z</time>
      </trkpt>
      <trkpt lat="43.55995" lon="6.68986">
        <ele>308.390045</ele>
        <time>2010-07-03T11:33:04Z</time>
      </trkpt>
      <trkpt lat="43.55987" lon="6.68994">
        <ele>308.360504</ele>
        <time>2010-07-03T11:33:06Z</time>
      </trkpt>
      <trkpt lat="43.55974" lon="6.69009">
        <ele>309.360443</ele>
        <time>2010-07-03T11:33:11Z</time>
      </trkpt>
      <trkpt lat="43.55961" lon="6.69029">
        <ele>309.782898</ele>
        <time>2010-07-03T11:33:16Z</time>
      </trkpt>
      <trkpt lat="43.55944" lon="6.69048">
        <ele>308.339417</ele>
        <time>2010-07-03T11:33:23Z</time>
      </trkpt>
      <trkpt lat="43.55935" lon="6.69063">
        <ele>307.838623</ele>
        <time>2010-07-03T11:33:28Z</time>
      </trkpt>
      <trkpt lat="43.55927" lon="6.69074">
        <ele>307.73349</ele>
        <time>2010-07-03T11:33:31Z</time>
      </trkpt>
      <trkpt lat="43.55925" lon="6.6908">
        <ele>307.818939</ele>
        <time>2010-07-03T11:33:33Z</time>
      </trkpt>
      <trkpt lat="43.55922" lon="6.69085">
        <ele>307.602203</ele>
        <time>2010-07-03T11:33:34Z</time>
      </trkpt>
      <trkpt lat="43.55925" lon="6.69104">
        <ele>306.979706</ele>
        <time>2010-07-03T11:33:38Z</time>
      </trkpt>
      <trkpt lat="43.55933" lon="6.69121">
        <ele>305.646576</ele>
        <time>2010-07-03T11:33:41Z</time>
      </trkpt>
      <trkpt lat="43.55937" lon="6.69127">
        <ele>305.212341</ele>
        <time>2010-07-03T11:33:42Z</time>
      </trkpt>
      <trkpt lat="43.55957" lon="6.6917">
        <ele>303.707611</ele>
        <time>2010-07-03T11:33:48Z</time>
      </trkpt>
      <trkpt lat="43.55963" lon="6.69207">
        <ele>303.939636</ele>
        <time>2010-07-03T11:33:54Z</time>
      </trkpt>
      <trkpt lat="43.5597" lon="6.69228">
        <ele>303.76001</ele>
        <time>2010-07-03T11:33:59Z</time>
      </trkpt>
      <trkpt lat="43.5598" lon="6.6928">
        <ele>304.116882</ele>
        <time>2010-07-03T11:34:11Z</time>
      </trkpt>
      <trkpt lat="43.55985" lon="6.69303">
        <ele>304.004333</ele>
        <time>2010-07-03T11:34:17Z</time>
      </trkpt>
      <trkpt lat="43.55995" lon="6.69359">
        <ele>306.150146</ele>
        <time>2010-07-03T11:34:35Z</time>
      </trkpt>
      <trkpt lat="43.55995" lon="6.69396">
        <ele>308.417175</ele>
        <time>2010-07-03T11:34:47Z</time>
      </trkpt>
      <trkpt lat="43.55995" lon="6.69413">
        <ele>309.136627</ele>
        <time>2010-07-03T11:34:52Z</time>
      </trkpt>
      <trkpt lat="43.55995" lon="6.69449">
        <ele>309.174622</ele>
        <time>2010-07-03T11:35:04Z</time>
      </trkpt>
      <trkpt lat="43.55987" lon="6.69469">
        <ele>309.264801</ele>
        <time>2010-07-03T11:35:11Z</time>
      </trkpt>
      <trkpt lat="43.55953" lon="6.69509">
        <ele>312.119568</ele>
        <time>2010-07-03T11:35:29Z</time>
      </trkpt>
      <trkpt lat="43.55944" lon="6.69518">
        <ele>312.929352</ele>
        <time>2010-07-03T11:35:34Z</time>
      </trkpt>
      <trkpt lat="43.5592" lon="6.69527">
        <ele>314.452484</ele>
        <time>2010-07-03T11:35:46Z</time>
      </trkpt>
      <trkpt lat="43.55892" lon="6.69548">
        <ele>315.73941</ele>
        <time>2010-07-03T11:36:02Z</time>
      </trkpt>
      <trkpt lat="43.55877" lon="6.69557">
        <ele>316.333923</ele>
        <time>2010-07-03T11:36:10Z</time>
      </trkpt>
      <trkpt lat="43.55871" lon="6.69569">
        <ele>317.451263</ele>
        <time>2010-07-03T11:36:17Z</time>
      </trkpt>
      <trkpt lat="43.55871" lon="6.69585">
        <ele>318.535675</ele>
        <time>2010-07-03T11:36:20Z</time>
      </trkpt>
      <trkpt lat="43.55869" lon="6.69597">
        <ele>319.029297</ele>
        <time>2010-07-03T11:36:23Z</time>
      </trkpt>
      <trkpt lat="43.55867" lon="6.6961">
        <ele>319.522888</ele>
        <time>2010-07-03T11:36:27Z</time>
      </trkpt>
      <trkpt lat="43.55867" lon="6.69619">
        <ele>319.784882</ele>
        <time>2010-07-03T11:36:30Z</time>
      </trkpt>
      <trkpt lat="43.55865" lon="6.69627">
        <ele>320.147491</ele>
        <time>2010-07-03T11:36:33Z</time>
      </trkpt>
      <trkpt lat="43.5586" lon="6.69709">
        <ele>322.97641</ele>
        <time>2010-07-03T11:36:59Z</time>
      </trkpt>
      <trkpt lat="43.55862" lon="6.69728">
        <ele>323.530212</ele>
        <time>2010-07-03T11:37:05Z</time>
      </trkpt>
      <trkpt lat="43.55869" lon="6.69748">
        <ele>323.978058</ele>
        <time>2010-07-03T11:37:11Z</time>
      </trkpt>
      <trkpt lat="43.55869" lon="6.69765">
        <ele>324.517395</ele>
        <time>2010-07-03T11:37:16Z</time>
      </trkpt>
      <trkpt lat="43.55869" lon="6.69775">
        <ele>324.610718</ele>
        <time>2010-07-03T11:37:19Z</time>
      </trkpt>
      <trkpt lat="43.55856" lon="6.69803">
        <ele>324.871765</ele>
        <time>2010-07-03T11:37:29Z</time>
      </trkpt>
      <trkpt lat="43.55852" lon="6.69818">
        <ele>324.953613</ele>
        <time>2010-07-03T11:37:34Z</time>
      </trkpt>
      <trkpt lat="43.55854" lon="6.69861">
        <ele>326.309509</ele>
        <time>2010-07-03T11:37:46Z</time>
      </trkpt>
      <trkpt lat="43.5585" lon="6.69878">
        <ele>327.292023</ele>
        <time>2010-07-03T11:37:52Z</time>
      </trkpt>
      <trkpt lat="43.55837" lon="6.69894">
        <ele>328.387207</ele>
        <time>2010-07-03T11:37:59Z</time>
      </trkpt>
      <trkpt lat="43.55824" lon="6.69917">
        <ele>329.868195</ele>
        <time>2010-07-03T11:38:09Z</time>
      </trkpt>
      <trkpt lat="43.55822" lon="6.69921">
        <ele>330.172943</ele>
        <time>2010-07-03T11:38:11Z</time>
      </trkpt>
      <trkpt lat="43.55817" lon="6.69934">
        <ele>331.034851</ele>
        <time>2010-07-03T11:38:17Z</time>
      </trkpt>
      <trkpt lat="43.55807" lon="6.69984">
        <ele>332.872711</ele>
        <time>2010-07-03T11:38:35Z</time>
      </trkpt>
      <trkpt lat="43.55764" lon="6.70074">
        <ele>331.346344</ele>
        <time>2010-07-03T11:39:03Z</time>
      </trkpt>
      <trkpt lat="43.55747" lon="6.70106">
        <ele>331.607208</ele>
        <time>2010-07-03T11:39:10Z</time>
      </trkpt>
      <trkpt lat="43.55725" lon="6.70125">
        <ele>332.369629</ele>
        <time>2010-07-03T11:39:16Z</time>
      </trkpt>
      <trkpt lat="43.55714" lon="6.70136">
        <ele>333.132324</ele>
        <time>2010-07-03T11:39:19Z</time>
      </trkpt>
      <trkpt lat="43.55646" lon="6.7017">
        <ele>332.091553</ele>
        <time>2010-07-03T11:39:34Z</time>
      </trkpt>
      <trkpt lat="43.55543" lon="6.70233">
        <ele>327.791107</ele>
        <time>2010-07-03T11:39:50Z</time>
      </trkpt>
      <trkpt lat="43.55485" lon="6.70267">
        <ele>327.523407</ele>
        <time>2010-07-03T11:39:59Z</time>
      </trkpt>
      <trkpt lat="43.55465" lon="6.70265">
        <ele>325.189178</ele>
        <time>2010-07-03T11:40:02Z</time>
      </trkpt>
      <trkpt lat="43.5544" lon="6.7025">
        <ele>324.050079</ele>
        <time>2010-07-03T11:40:06Z</time>
      </trkpt>
      <trkpt lat="43.55422" lon="6.7023">
        <ele>322.734711</ele>
        <time>2010-07-03T11:40:09Z</time>
      </trkpt>
      <trkpt lat="43.55356" lon="6.70157">
        <ele>321.481934</ele>
        <time>2010-07-03T11:40:21Z</time>
      </trkpt>
      <trkpt lat="43.55332" lon="6.70149">
        <ele>320.817322</ele>
        <time>2010-07-03T11:40:24Z</time>
      </trkpt>
      <trkpt lat="43.55324" lon="6.70147">
        <ele>320.607788</ele>
        <time>2010-07-03T11:40:25Z</time>
      </trkpt>
      <trkpt lat="43.55247" lon="6.70127">
        <ele>314.478149</ele>
        <time>2010-07-03T11:40:34Z</time>
      </trkpt>
      <trkpt lat="43.5524" lon="6.70121">
        <ele>314.037476</ele>
        <time>2010-07-03T11:40:35Z</time>
      </trkpt>
      <trkpt lat="43.55204" lon="6.70052">
        <ele>310.503693</ele>
        <time>2010-07-03T11:40:43Z</time>
      </trkpt>
      <trkpt lat="43.55201" lon="6.70042">
        <ele>309.970093</ele>
        <time>2010-07-03T11:40:44Z</time>
      </trkpt>
      <trkpt lat="43.55199" lon="6.70031">
        <ele>309.51474</ele>
        <time>2010-07-03T11:40:45Z</time>
      </trkpt>
      <trkpt lat="43.55191" lon="6.69973">
        <ele>305.653503</ele>
        <time>2010-07-03T11:40:50Z</time>
      </trkpt>
      <trkpt lat="43.55182" lon="6.69951">
        <ele>304.665344</ele>
        <time>2010-07-03T11:40:52Z</time>
      </trkpt>
      <trkpt lat="43.55169" lon="6.69932">
        <ele>303.903412</ele>
        <time>2010-07-03T11:40:54Z</time>
      </trkpt>
      <trkpt lat="43.55154" lon="6.69915">
        <ele>303.0271</ele>
        <time>2010-07-03T11:40:56Z</time>
      </trkpt>
      <trkpt lat="43.55146" lon="6.69909">
        <ele>302.630737</ele>
        <time>2010-07-03T11:40:57Z</time>
      </trkpt>
      <trkpt lat="43.55114" lon="6.69874">
        <ele>299.686371</ele>
        <time>2010-07-03T11:41:01Z</time>
      </trkpt>
      <trkpt lat="43.55096" lon="6.69861">
        <ele>297.491241</ele>
        <time>2010-07-03T11:41:03Z</time>
      </trkpt>
      <trkpt lat="43.55043" lon="6.69857">
        <ele>300.611145</ele>
        <time>2010-07-03T11:41:10Z</time>
      </trkpt>
      <trkpt lat="43.5503" lon="6.6984">
        <ele>303.686096</ele>
        <time>2010-07-03T11:41:13Z</time>
      </trkpt>
      <trkpt lat="43.55021" lon="6.69825">
        <ele>305.769226</ele>
        <time>2010-07-03T11:41:16Z</time>
      </trkpt>
      <trkpt lat="43.55019" lon="6.69818">
        <ele>306.089691</ele>
        <time>2010-07-03T11:41:18Z</time>
      </trkpt>
      <trkpt lat="43.55017" lon="6.69812">
        <ele>306.421021</ele>
        <time>2010-07-03T11:41:20Z</time>
      </trkpt>
      <trkpt lat="43.55002" lon="6.69756">
        <ele>309.020538</ele>
        <time>2010-07-03T11:41:38Z</time>
      </trkpt>
      <trkpt lat="43.55" lon="6.69748">
        <ele>309.329224</ele>
        <time>2010-07-03T11:41:41Z</time>
      </trkpt>
      <trkpt lat="43.54998" lon="6.69735">
        <ele>309.580994</ele>
        <time>2010-07-03T11:41:45Z</time>
      </trkpt>
      <trkpt lat="43.54987" lon="6.69681">
        <ele>312.143677</ele>
        <time>2010-07-03T11:42:04Z</time>
      </trkpt>
      <trkpt lat="43.54978" lon="6.69666">
        <ele>313.904724</ele>
        <time>2010-07-03T11:42:11Z</time>
      </trkpt>
      <trkpt lat="43.54963" lon="6.69619">
        <ele>315.802734</ele>
        <time>2010-07-03T11:42:28Z</time>
      </trkpt>
      <trkpt lat="43.54963" lon="6.69615">
        <ele>315.760315</ele>
        <time>2010-07-03T11:42:29Z</time>
      </trkpt>
      <trkpt lat="43.54959" lon="6.69597">
        <ele>316.263458</ele>
        <time>2010-07-03T11:42:35Z</time>
      </trkpt>
      <trkpt lat="43.54953" lon="6.69572">
        <ele>317.975037</ele>
        <time>2010-07-03T11:42:47Z</time>
      </trkpt>
      <trkpt lat="43.5495" lon="6.69561">
        <ele>318.757996</ele>
        <time>2010-07-03T11:42:52Z</time>
      </trkpt>
      <trkpt lat="43.54946" lon="6.69546">
        <ele>320.271271</ele>
        <time>2010-07-03T11:42:59Z</time>
      </trkpt>
      <trkpt lat="43.54938" lon="6.69503">
        <ele>323.56955</ele>
        <time>2010-07-03T11:43:17Z</time>
      </trkpt>
      <trkpt lat="43.54931" lon="6.69458">
        <ele>325.20697</ele>
        <time>2010-07-03T11:43:34Z</time>
      </trkpt>
      <trkpt lat="43.54931" lon="6.69456">
        <ele>325.1875</ele>
        <time>2010-07-03T11:43:35Z</time>
      </trkpt>
      <trkpt lat="43.54929" lon="6.69471">
        <ele>325.894012</ele>
        <time>2010-07-03T11:43:40Z</time>
      </trkpt>
      <trkpt lat="43.54923" lon="6.69559">
        <ele>326.972748</ele>
        <time>2010-07-03T11:44:08Z</time>
      </trkpt>
      <trkpt lat="43.5492" lon="6.69597">
        <ele>327.379272</ele>
        <time>2010-07-03T11:44:22Z</time>
      </trkpt>
      <trkpt lat="43.5492" lon="6.69634">
        <ele>327.561554</ele>
        <time>2010-07-03T11:44:37Z</time>
      </trkpt>
      <trkpt lat="43.5492" lon="6.69657">
        <ele>329.63504</ele>
        <time>2010-07-03T11:44:46Z</time>
      </trkpt>
      <trkpt lat="43.5492" lon="6.69662">
        <ele>330.005096</ele>
        <time>2010-07-03T11:44:48Z</time>
      </trkpt>
      <trkpt lat="43.54908" lon="6.69743">
        <ele>337.764435</ele>
        <time>2010-07-03T11:45:17Z</time>
      </trkpt>
      <trkpt lat="43.54903" lon="6.69758">
        <ele>338.214294</ele>
        <time>2010-07-03T11:45:23Z</time>
      </trkpt>
      <trkpt lat="43.54892" lon="6.69801">
        <ele>340.552856</ele>
        <time>2010-07-03T11:45:43Z</time>
      </trkpt>
      <trkpt lat="43.5489" lon="6.69814">
        <ele>341.396881</ele>
        <time>2010-07-03T11:45:49Z</time>
      </trkpt>
      <trkpt lat="43.5489" lon="6.69818">
        <ele>341.53949</ele>
        <time>2010-07-03T11:45:51Z</time>
      </trkpt>
      <trkpt lat="43.54888" lon="6.69855">
        <ele>342.648987</ele>
        <time>2010-07-03T11:46:07Z</time>
      </trkpt>
      <trkpt lat="43.54886" lon="6.69889">
        <ele>343.934021</ele>
        <time>2010-07-03T11:46:23Z</time>
      </trkpt>
      <trkpt lat="43.54886" lon="6.69898">
        <ele>344.29364</ele>
        <time>2010-07-03T11:46:26Z</time>
      </trkpt>
      <trkpt lat="43.54882" lon="6.6993">
        <ele>346.507355</ele>
        <time>2010-07-03T11:46:39Z</time>
      </trkpt>
      <trkpt lat="43.54877" lon="6.69964">
        <ele>349.609528</ele>
        <time>2010-07-03T11:46:53Z</time>
      </trkpt>
      <trkpt lat="43.54877" lon="6.69973">
        <ele>350.191589</ele>
        <time>2010-07-03T11:46:56Z</time>
      </trkpt>
      <trkpt lat="43.54867" lon="6.70029">
        <ele>354.600555</ele>
        <time>2010-07-03T11:47:17Z</time>
      </trkpt>
      <trkpt lat="43.54865" lon="6.70039">
        <ele>355.01886</ele>
        <time>2010-07-03T11:47:21Z</time>
      </trkpt>
      <trkpt lat="43.5486" lon="6.70061">
        <ele>355.976044</ele>
        <time>2010-07-03T11:47:29Z</time>
      </trkpt>
      <trkpt lat="43.54858" lon="6.70157">
        <ele>354.87027</ele>
        <time>2010-07-03T11:47:59Z</time>
      </trkpt>
      <trkpt lat="43.5486" lon="6.70172">
        <ele>353.654968</ele>
        <time>2010-07-03T11:48:04Z</time>
      </trkpt>
      <trkpt lat="43.54862" lon="6.70196">
        <ele>351.374664</ele>
        <time>2010-07-03T11:48:10Z</time>
      </trkpt>
      <trkpt lat="43.5486" lon="6.70235">
        <ele>348.104858</ele>
        <time>2010-07-03T11:48:19Z</time>
      </trkpt>
      <trkpt lat="43.54858" lon="6.70258">
        <ele>346.052338</ele>
        <time>2010-07-03T11:48:24Z</time>
      </trkpt>
      <trkpt lat="43.54856" lon="6.70297">
        <ele>341.336517</ele>
        <time>2010-07-03T11:48:33Z</time>
      </trkpt>
      <trkpt lat="43.54856" lon="6.70301">
        <ele>340.741058</ele>
        <time>2010-07-03T11:48:34Z</time>
      </trkpt>
      <trkpt lat="43.54852" lon="6.70305">
        <ele>341.284546</ele>
        <time>2010-07-03T11:48:36Z</time>
      </trkpt>
      <trkpt lat="43.54852" lon="6.70308">
        <ele>340.969849</ele>
        <time>2010-07-03T11:48:37Z</time>
      </trkpt>
      <trkpt lat="43.5485" lon="6.70312">
        <ele>341.204803</ele>
        <time>2010-07-03T11:48:38Z</time>
      </trkpt>
      <trkpt lat="43.5485" lon="6.70316">
        <ele>341.019806</ele>
        <time>2010-07-03T11:48:40Z</time>
      </trkpt>
      <trkpt lat="43.54847" lon="6.70318">
        <ele>341.494141</ele>
        <time>2010-07-03T11:48:41Z</time>
      </trkpt>
      <trkpt lat="43.54847" lon="6.70327">
        <ele>341.124146</ele>
        <time>2010-07-03T11:48:43Z</time>
      </trkpt>
      <trkpt lat="43.54845" lon="6.70342">
        <ele>341.043488</ele>
        <time>2010-07-03T11:48:47Z</time>
      </trkpt>
      <trkpt lat="43.54845" lon="6.70346">
        <ele>340.858521</ele>
        <time>2010-07-03T11:48:48Z</time>
      </trkpt>
      <trkpt lat="43.54845" lon="6.70353">
        <ele>340.581024</ele>
        <time>2010-07-03T11:48:50Z</time>
      </trkpt>
      <trkpt lat="43.54845" lon="6.70366">
        <ele>340.026031</ele>
        <time>2010-07-03T11:48:54Z</time>
      </trkpt>
      <trkpt lat="43.54845" lon="6.70376">
        <ele>339.11969</ele>
        <time>2010-07-03T11:48:58Z</time>
      </trkpt>
      <trkpt lat="43.54841" lon="6.70393">
        <ele>337.976471</ele>
        <time>2010-07-03T11:49:04Z</time>
      </trkpt>
      <trkpt lat="43.54785" lon="6.70408">
        <ele>336.087677</ele>
        <time>2010-07-03T11:49:10Z</time>
      </trkpt>
      <trkpt lat="43.54772" lon="6.70417">
        <ele>334.404083</ele>
        <time>2010-07-03T11:49:13Z</time>
      </trkpt>
      <trkpt lat="43.54693" lon="6.70464">
        <ele>330.546509</ele>
        <time>2010-07-03T11:49:28Z</time>
      </trkpt>
      <trkpt lat="43.54682" lon="6.70471">
        <ele>330.523041</ele>
        <time>2010-07-03T11:49:30Z</time>
      </trkpt>
      <trkpt lat="43.54594" lon="6.70527">
        <ele>326.727173</ele>
        <time>2010-07-03T11:49:45Z</time>
      </trkpt>
      <trkpt lat="43.54581" lon="6.70535">
        <ele>325.851166</ele>
        <time>2010-07-03T11:49:47Z</time>
      </trkpt>
      <trkpt lat="43.5456" lon="6.70539">
        <ele>323.74292</ele>
        <time>2010-07-03T11:49:50Z</time>
      </trkpt>
      <trkpt lat="43.54506" lon="6.70554">
        <ele>320.669006</ele>
        <time>2010-07-03T11:49:57Z</time>
      </trkpt>
      <trkpt lat="43.54489" lon="6.70561">
        <ele>319.291443</ele>
        <time>2010-07-03T11:49:59Z</time>
      </trkpt>
      <trkpt lat="43.5444" lon="6.7058">
        <ele>315.267426</ele>
        <time>2010-07-03T11:50:05Z</time>
      </trkpt>
      <trkpt lat="43.54416" lon="6.70572">
        <ele>314.481445</ele>
        <time>2010-07-03T11:50:08Z</time>
      </trkpt>
      <trkpt lat="43.54388" lon="6.70563">
        <ele>312.934418</ele>
        <time>2010-07-03T11:50:12Z</time>
      </trkpt>
      <trkpt lat="43.5435" lon="6.70561">
        <ele>310.852081</ele>
        <time>2010-07-03T11:50:17Z</time>
      </trkpt>
      <trkpt lat="43.54332" lon="6.70559">
        <ele>310.179626</ele>
        <time>2010-07-03T11:50:19Z</time>
      </trkpt>
      <trkpt lat="43.5429" lon="6.70557">
        <ele>308.140137</ele>
        <time>2010-07-03T11:50:24Z</time>
      </trkpt>
      <trkpt lat="43.54257" lon="6.70552">
        <ele>306.66864</ele>
        <time>2010-07-03T11:50:28Z</time>
      </trkpt>
      <trkpt lat="43.54259" lon="6.70533">
        <ele>308.726471</ele>
        <time>2010-07-03T11:50:31Z</time>
      </trkpt>
      <trkpt lat="43.54262" lon="6.70514">
        <ele>310.803375</ele>
        <time>2010-07-03T11:50:34Z</time>
      </trkpt>
      <trkpt lat="43.54281" lon="6.70357">
        <ele>309.416992</ele>
        <time>2010-07-03T11:50:59Z</time>
      </trkpt>
      <trkpt lat="43.54285" lon="6.70318">
        <ele>309.933807</ele>
        <time>2010-07-03T11:51:05Z</time>
      </trkpt>
      <trkpt lat="43.54337" lon="6.70157">
        <ele>311.625427</ele>
        <time>2010-07-03T11:51:34Z</time>
      </trkpt>
      <trkpt lat="43.54352" lon="6.70125">
        <ele>311.992188</ele>
        <time>2010-07-03T11:51:41Z</time>
      </trkpt>
      <trkpt lat="43.54358" lon="6.70099">
        <ele>311.768005</ele>
        <time>2010-07-03T11:51:46Z</time>
      </trkpt>
      <trkpt lat="43.5435" lon="6.70089">
        <ele>311.831299</ele>
        <time>2010-07-03T11:51:50Z</time>
      </trkpt>
      <trkpt lat="43.54347" lon="6.70087">
        <ele>311.732086</ele>
        <time>2010-07-03T11:51:51Z</time>
      </trkpt>
      <trkpt lat="43.54339" lon="6.7008">
        <ele>311.360779</ele>
        <time>2010-07-03T11:51:54Z</time>
      </trkpt>
      <trkpt lat="43.54332" lon="6.70078">
        <ele>311.093079</ele>
        <time>2010-07-03T11:51:56Z</time>
      </trkpt>
      <trkpt lat="43.5432" lon="6.70074">
        <ele>310.580933</ele>
        <time>2010-07-03T11:51:59Z</time>
      </trkpt>
      <trkpt lat="43.54298" lon="6.70059">
        <ele>308.665527</ele>
        <time>2010-07-03T11:52:05Z</time>
      </trkpt>
      <trkpt lat="43.5429" lon="6.70054">
        <ele>307.459259</ele>
        <time>2010-07-03T11:52:07Z</time>
      </trkpt>
      <trkpt lat="43.54277" lon="6.7005">
        <ele>305.644897</ele>
        <time>2010-07-03T11:52:10Z</time>
      </trkpt>
      <trkpt lat="43.54268" lon="6.70048">
        <ele>304.434357</ele>
        <time>2010-07-03T11:52:12Z</time>
      </trkpt>
      <trkpt lat="43.54247" lon="6.70042">
        <ele>301.484314</ele>
        <time>2010-07-03T11:52:17Z</time>
      </trkpt>
      <trkpt lat="43.54234" lon="6.70037">
        <ele>299.76651</ele>
        <time>2010-07-03T11:52:21Z</time>
      </trkpt>
      <trkpt lat="43.5421" lon="6.70035">
        <ele>295.968048</ele>
        <time>2010-07-03T11:52:28Z</time>
      </trkpt>
      <trkpt lat="43.54204" lon="6.70033">
        <ele>294.845734</ele>
        <time>2010-07-03T11:52:30Z</time>
      </trkpt>
      <trkpt lat="43.54202" lon="6.70033">
        <ele>294.439117</ele>
        <time>2010-07-03T11:52:31Z</time>
      </trkpt>
      <trkpt lat="43.54195" lon="6.70031">
        <ele>293.325439</ele>
        <time>2010-07-03T11:52:34Z</time>
      </trkpt>
      <trkpt lat="43.54193" lon="6.70029">
        <ele>293.028961</ele>
        <time>2010-07-03T11:52:35Z</time>
      </trkpt>
      <trkpt lat="43.54169" lon="6.70024">
        <ele>287.288361</ele>
        <time>2010-07-03T11:52:41Z</time>
      </trkpt>
      <trkpt lat="43.54165" lon="6.70024">
        <ele>285.473541</ele>
        <time>2010-07-03T11:52:42Z</time>
      </trkpt>
      <trkpt lat="43.54163" lon="6.70012">
        <ele>285.86792</ele>
        <time>2010-07-03T11:52:45Z</time>
      </trkpt>
      <trkpt lat="43.54163" lon="6.70007">
        <ele>286.231018</ele>
        <time>2010-07-03T11:52:46Z</time>
      </trkpt>
      <trkpt lat="43.54176" lon="6.69997">
        <ele>291.408905</ele>
        <time>2010-07-03T11:52:52Z</time>
      </trkpt>
      <trkpt lat="43.54187" lon="6.69994">
        <ele>293.608459</ele>
        <time>2010-07-03T11:53:04Z</time>
      </trkpt>
    </trkseg>
  </trk>
</gpx>